Darstellungsparameter: Aktuell verwendete Einstellungen:
Skalierung der Graphiken ... ?
xyx+y,   Skalierungsfaktor:      Skalierung: Modus: x, Faktor: 1
Darstellungszeitraum ... ?
Vom - - bis: - -   Zeitraum: 15.02.2009 - 14.05.2009
Min/Max/Avg-Anzeige ... ?
Zeige MMA aktuell
Zeige MMA Monat
Zeige MMA alles
Zeige --A aktuell
Zeige --A Monat
Zeige --A alles
Keine MMA-Anzeige
MMA:
Average (ber die Originaldaten)
MMA-Basis: 15.02.2009 - 14.05.2009
Quicknavigation für Darstellung... ?
Tage:      1T, 2T, 3T, 5T -1T -2T -3T -5T +1T +2T +3T +5T
Wochen: 1W, 2W, 3W -1W -2W -3W +1W +2W +3W
Monate: 1M, 3M, 6M -1M -3M -6M +1M +3M +6M
Jahre:    1J, 3J, 5J, 10J -1J -3J -5J -10J +1J +3J +5J +10J
Nutze für die Darstellung ... ?
Originaldaten oder Mittelwerte auf ...
Stundenbasis Tagesbasis Wochenbasis
Monatsbasis Jahresbasis      Datenbasis: Original-Daten
Darstellen als:
Statistik (Auto) Statistik J:M      Darstellung:
Zur Graphik,    zurück zur Übersicht aller Sensoren.
 
Tabellarische Datenbersicht: ?
 
Sensor: Nr:Datum:Temp:Abs-Feuchte:Windchill:Wind:
Aussen-T/F 1 15-02-2009 00:01:00 -2.9 C 2.85 g/m*3 -2.9 C 0 km/h
2 15-02-2009 00:13:00 -3.1 C 2.81 g/m*3 -3.1 C 0 km/h
3 15-02-2009 00:25:00 -3.3 C 2.77 g/m*3 -3.3 C 0 km/h
4 15-02-2009 00:37:00 -3.5 C 2.73 g/m*3 -3.5 C 0 km/h
5 15-02-2009 00:49:59 -3.5 C 2.77 g/m*3 -3.5 C 0 km/h
6 15-02-2009 01:12:59 -3.6 C 2.79 g/m*3 -3.6 C 0 km/h
7 15-02-2009 01:13:00 -3.7 C 2.77 g/m*3 -3.7 C 0 km/h
8 15-02-2009 01:25:00 -3.8 C 2.75 g/m*3 -3.8 C 0 km/h
9 15-02-2009 01:37:59 -3.9 C 2.76 g/m*3 -3.9 C 0 km/h
10 15-02-2009 01:49:59 -4 C 2.74 g/m*3 -4 C 0 km/h
11 15-02-2009 02:01:59 -4 C 2.78 g/m*3 -4 C 0 km/h
12 15-02-2009 02:13:59 -4.1 C 2.76 g/m*3 -4.1 C 0 km/h
13 15-02-2009 02:26:00 -4.2 C 2.78 g/m*3 -4.2 C 0 km/h
14 15-02-2009 02:37:58 -4.2 C 2.78 g/m*3 -4.2 C 0 km/h
15 15-02-2009 02:51:01 -4.4 C 2.74 g/m*3 -4.4 C 0 km/h
16 15-02-2009 03:03:01 -4.5 C 2.72 g/m*3 -4.5 C 0 km/h
17 15-02-2009 03:15:01 -4.6 C 2.73 g/m*3 -4.6 C 0 km/h
18 15-02-2009 03:27:01 -4.7 C 2.71 g/m*3 -4.7 C 0 km/h
19 15-02-2009 03:39:01 -4.7 C 2.71 g/m*3 -4.7 C 0 km/h
20 15-02-2009 03:51:01 -4.8 C 2.69 g/m*3 -4.8 C 0 km/h
21 15-02-2009 04:03:02 -4.9 C 2.68 g/m*3 -4.9 C 0 km/h
22 15-02-2009 04:15:01 -5 C 2.66 g/m*3 -5 C 0 km/h
23 15-02-2009 04:27:01 -5.2 C 2.62 g/m*3 -5.2 C 0 km/h
24 15-02-2009 04:39:02 -5.2 C 2.62 g/m*3 -5.2 C 0 km/h
25 15-02-2009 04:51:02 -5.5 C 2.56 g/m*3 -5.5 C 0 km/h
Sensor: Nr:Datum:Temp:Abs-Feuchte:Windchill:Wind:
Aussen-T/F 26 15-02-2009 05:02:59 -5.6 C 2.54 g/m*3 -5.6 C 0 km/h
27 15-02-2009 05:14:59 -5.4 C 2.58 g/m*3 -5.4 C 0 km/h
28 15-02-2009 05:26:59 -5.5 C 2.59 g/m*3 -5.5 C 0 km/h
29 15-02-2009 05:38:58 -5.6 C 2.54 g/m*3 -5.6 C 0 km/h
30 15-02-2009 05:50:58 -5.7 C 2.52 g/m*3 -5.7 C 0 km/h
31 15-02-2009 06:02:59 -5.7 C 2.56 g/m*3 -5.7 C 0 km/h
32 15-02-2009 06:14:59 -5.8 C 2.54 g/m*3 -5.8 C 0 km/h
33 15-02-2009 06:26:59 -5.8 C 2.54 g/m*3 -5.8 C 0 km/h
34 15-02-2009 06:38:58 -6 C 2.5 g/m*3 -6 C 0 km/h
35 15-02-2009 06:50:59 -6 C 2.5 g/m*3 -6 C 0 km/h
36 15-02-2009 07:02:58 -6.1 C 2.48 g/m*3 -6.1 C 0 km/h
37 15-02-2009 07:14:58 -6.1 C 2.48 g/m*3 -6.1 C 0 km/h
38 15-02-2009 07:26:59 -6.2 C 2.47 g/m*3 -6.2 C 0 km/h
39 15-02-2009 07:38:57 -6.3 C 2.45 g/m*3 -6.3 C 0 km/h
40 15-02-2009 07:50:58 -6.3 C 2.45 g/m*3 -6.3 C 0 km/h
41 15-02-2009 08:02:57 -6.3 C 2.45 g/m*3 -6.3 C 0 km/h
42 15-02-2009 08:14:57 -6.2 C 2.47 g/m*3 -6.2 C 0 km/h
43 15-02-2009 08:26:57 -6 C 2.5 g/m*3 -6 C 0 km/h
44 15-02-2009 08:38:58 -5.9 C 2.52 g/m*3 -5.9 C 0 km/h
45 15-02-2009 08:50:57 -5.6 C 2.58 g/m*3 -5.6 C 0 km/h
46 15-02-2009 09:02:57 -5.3 C 2.63 g/m*3 -5.3 C 0 km/h
47 15-02-2009 09:14:57 -5 C 2.69 g/m*3 -5 C 0 km/h
48 15-02-2009 09:26:57 -4.8 C 2.69 g/m*3 -4.8 C 0 km/h
49 15-02-2009 09:38:57 -4.6 C 2.7 g/m*3 -4.6 C 0 km/h
50 15-02-2009 09:50:56 -4.4 C 2.7 g/m*3 -4.4 C 0 km/h
Sensor: Nr:Datum:Temp:Abs-Feuchte:Windchill:Wind:
Aussen-T/F 51 15-02-2009 10:02:57 -4.2 C 2.7 g/m*3 -4.2 C 0 km/h
52 15-02-2009 10:14:56 -3.9 C 2.76 g/m*3 -3.9 C 0 km/h
53 15-02-2009 10:26:56 -3.5 C 2.77 g/m*3 -3.5 C 0 km/h
54 15-02-2009 10:38:56 -3.1 C 2.77 g/m*3 -3.1 C 0 km/h
55 15-02-2009 10:50:55 -2.9 C 2.77 g/m*3 -2.9 C 0 km/h
56 15-02-2009 11:02:56 -2.5 C 2.81 g/m*3 -2.5 C 0 km/h
57 15-02-2009 11:14:56 -2 C 2.82 g/m*3 -2 C 0 km/h
58 15-02-2009 11:26:56 -1.6 C 2.82 g/m*3 -1.6 C 0 km/h
59 15-02-2009 11:38:55 -1.2 C 2.85 g/m*3 -1.2 C 0 km/h
60 15-02-2009 11:50:56 -0.9 C 2.87 g/m*3 -0.9 C 0 km/h
61 15-02-2009 12:02:55 -0.4 C 2.92 g/m*3 -0.4 C 0 km/h
62 15-02-2009 12:14:55 -0.1 C 2.89 g/m*3 -0.1 C 0 km/h
63 15-02-2009 12:26:55 0.3 C 2.92 g/m*3 0.3 C 0 km/h
64 15-02-2009 12:38:55 0.8 C 3.02 g/m*3 0.8 C 0 km/h
65 15-02-2009 12:50:55 1 C 2.85 g/m*3 1 C 0 km/h
66 15-02-2009 13:02:55 1.5 C 2.79 g/m*3 1.5 C 0 km/h
67 15-02-2009 13:14:54 1.8 C 2.69 g/m*3 1.8 C 0 km/h
68 15-02-2009 13:26:54 1.8 C 2.58 g/m*3 1.8 C 0 km/h
69 15-02-2009 13:38:55 2 C 2.56 g/m*3 2 C 0 km/h
70 15-02-2009 13:50:54 1.8 C 2.52 g/m*3 1.8 C 0 km/h
71 15-02-2009 14:02:54 2 C 2.5 g/m*3 2 C 0 km/h
72 15-02-2009 14:14:54 2.1 C 2.52 g/m*3 2.1 C 0 km/h
73 15-02-2009 14:26:54 2.1 C 2.52 g/m*3 2.1 C 0 km/h
74 15-02-2009 14:38:54 2.2 C 2.53 g/m*3 2.2 C 0 km/h
75 15-02-2009 14:50:53 2.2 C 2.53 g/m*3 2.2 C 0 km/h
Sensor: Nr:Datum:Temp:Abs-Feuchte:Windchill:Wind:
Aussen-T/F 76 15-02-2009 15:02:54 2.3 C 2.5 g/m*3 2.3 C 0 km/h
77 15-02-2009 15:14:53 2.4 C 2.51 g/m*3 2.4 C 0 km/h
78 15-02-2009 15:26:53 2.4 C 2.57 g/m*3 2.4 C 0 km/h
79 15-02-2009 15:38:54 2.5 C 2.59 g/m*3 2.5 C 0 km/h
80 15-02-2009 15:50:53 2.4 C 2.57 g/m*3 2.4 C 0 km/h
81 15-02-2009 16:02:53 2.4 C 2.57 g/m*3 2.4 C 0 km/h
82 15-02-2009 16:14:53 2.3 C 2.55 g/m*3 2.3 C 0 km/h
83 15-02-2009 16:26:54 2.2 C 2.59 g/m*3 2.2 C 0 km/h
84 15-02-2009 16:38:52 2.1 C 2.63 g/m*3 2.1 C 0 km/h
85 15-02-2009 16:50:53 2 C 2.67 g/m*3 2 C 0 km/h
86 15-02-2009 17:02:52 1.8 C 2.74 g/m*3 1.8 C 0 km/h
87 15-02-2009 17:14:52 1.6 C 2.7 g/m*3 1.6 C 0 km/h
88 15-02-2009 17:26:52 1.6 C 2.7 g/m*3 1.6 C 0 km/h
89 15-02-2009 17:38:52 1.4 C 2.67 g/m*3 1.4 C 0 km/h
90 15-02-2009 17:50:52 1.2 C 2.68 g/m*3 1.2 C 0 km/h
91 15-02-2009 18:02:52 1.2 C 2.68 g/m*3 1.2 C 0 km/h
92 15-02-2009 18:14:51 1.1 C 2.67 g/m*3 1.1 C 0 km/h
93 15-02-2009 18:26:51 0.9 C 2.73 g/m*3 0.9 C 0 km/h
94 15-02-2009 18:38:52 0.7 C 2.75 g/m*3 0.7 C 0 km/h
95 15-02-2009 18:50:51 0.7 C 2.75 g/m*3 0.7 C 0 km/h
96 15-02-2009 19:02:51 0.7 C 2.69 g/m*3 0.7 C 0 km/h
97 15-02-2009 19:14:51 0.8 C 2.76 g/m*3 0.8 C 0 km/h
98 15-02-2009 19:26:51 1 C 2.7 g/m*3 1 C 0 km/h
99 15-02-2009 19:38:51 1.1 C 2.67 g/m*3 1.1 C 0 km/h
100 15-02-2009 19:50:50 1.2 C 2.68 g/m*3 1.2 C 0 km/h
Sensor: Nr:Datum:Temp:Abs-Feuchte:Windchill:Wind:
Aussen-T/F 101 15-02-2009 20:02:51 1.3 C 2.65 g/m*3 1.3 C 0 km/h
102 15-02-2009 20:14:51 1.4 C 2.67 g/m*3 1.4 C 0 km/h
103 15-02-2009 20:26:51 1.4 C 2.67 g/m*3 1.4 C 0 km/h
104 15-02-2009 20:38:50 1.4 C 2.67 g/m*3 1.4 C 0 km/h
105 15-02-2009 20:50:51 1.4 C 2.72 g/m*3 1.4 C 0 km/h
106 15-02-2009 21:02:50 1.3 C 2.86 g/m*3 1.3 C 0 km/h
107 15-02-2009 21:14:50 1.2 C 3 g/m*3 1.2 C 0 km/h
108 15-02-2009 21:26:50 1 C 3.11 g/m*3 1 C 0 km/h
109 15-02-2009 21:38:49 0.8 C 3.28 g/m*3 0.8 C 0 km/h
110 15-02-2009 21:50:00 0.8 C 3.33 g/m*3 0.8 C 0 km/h
111 15-02-2009 22:03:51 0.6 C 3.43 g/m*3 0.6 C 0 km/h
112 15-02-2009 22:15:51 0.5 C 3.51 g/m*3 0.5 C 0 km/h
113 15-02-2009 22:27:51 0.5 C 3.61 g/m*3 0.5 C 0 km/h
114 15-02-2009 22:39:51 0.5 C 3.61 g/m*3 0.5 C 0 km/h
115 15-02-2009 22:51:51 0.4 C 3.64 g/m*3 0.4 C 0 km/h
116 15-02-2009 23:03:51 0.4 C 3.74 g/m*3 0.4 C 0 km/h
117 15-02-2009 23:15:51 0.3 C 3.76 g/m*3 0.3 C 0 km/h
118 15-02-2009 23:27:51 0.3 C 3.81 g/m*3 0.3 C 0 km/h
119 15-02-2009 23:39:51 0.2 C 3.83 g/m*3 0.2 C 0 km/h
120 15-02-2009 23:51:51 0.2 C 3.83 g/m*3 0.2 C 0 km/h
121 16-02-2009 00:03:51 0.2 C 3.83 g/m*3 0.2 C 0 km/h
122 16-02-2009 00:15:51 0.2 C 3.88 g/m*3 0.2 C 0 km/h
123 16-02-2009 00:27:51 0.1 C 3.9 g/m*3 0.1 C 0 km/h
124 16-02-2009 00:39:51 0.1 C 4 g/m*3 0.1 C 0 km/h
125 16-02-2009 00:51:51 0 C 4.02 g/m*3 0 C 0 km/h
Sensor: Nr:Datum:Temp:Abs-Feuchte:Windchill:Wind:
Aussen-T/F 126 16-02-2009 01:03:51 0 C 4.02 g/m*3 0 C 0 km/h
127 16-02-2009 01:15:51 0 C 4.02 g/m*3 0 C 0 km/h
128 16-02-2009 01:27:51 0 C 4.02 g/m*3 0 C 0 km/h
129 16-02-2009 01:39:52 0 C 4.02 g/m*3 0 C 0 km/h
130 16-02-2009 01:51:52 0 C 4.02 g/m*3 0 C 0 km/h
131 16-02-2009 02:03:52 0 C 4.02 g/m*3 0 C 0 km/h
132 16-02-2009 02:15:52 0.1 C 4 g/m*3 0.1 C 0 km/h
133 16-02-2009 02:27:52 0.1 C 3.95 g/m*3 0.1 C 0 km/h
134 16-02-2009 02:39:52 0.2 C 3.98 g/m*3 0.2 C 0 km/h
135 16-02-2009 02:51:52 0.2 C 3.93 g/m*3 0.2 C 0 km/h
136 16-02-2009 03:03:52 0.2 C 3.93 g/m*3 0.2 C 0 km/h
137 16-02-2009 03:15:52 0.2 C 3.93 g/m*3 0.2 C 0 km/h
138 16-02-2009 03:27:52 0.2 C 3.93 g/m*3 0.2 C 0 km/h
139 16-02-2009 03:39:52 0.3 C 3.96 g/m*3 0.3 C 0 km/h
140 16-02-2009 03:51:52 0.3 C 3.91 g/m*3 0.3 C 0 km/h
141 16-02-2009 04:03:52 0.3 C 3.86 g/m*3 0.3 C 0 km/h
142 16-02-2009 04:15:52 0.4 C 3.88 g/m*3 0.4 C 0 km/h
143 16-02-2009 04:27:52 0.4 C 3.88 g/m*3 0.4 C 0 km/h
144 16-02-2009 04:39:52 0.4 C 3.88 g/m*3 0.4 C 0 km/h
145 16-02-2009 04:51:52 0.4 C 3.88 g/m*3 0.4 C 0 km/h
146 16-02-2009 05:03:52 0.5 C 3.91 g/m*3 0.5 C 0 km/h
147 16-02-2009 05:15:52 0.5 C 3.91 g/m*3 0.5 C 0 km/h
148 16-02-2009 05:27:52 0.5 C 3.91 g/m*3 0.5 C 0 km/h
149 16-02-2009 05:39:53 0.5 C 3.91 g/m*3 0.5 C 0 km/h
150 16-02-2009 05:51:53 0.4 C 3.88 g/m*3 0.4 C 0 km/h
Sensor: Nr:Datum:Temp:Abs-Feuchte:Windchill:Wind:
Aussen-T/F 151 16-02-2009 06:03:53 0.4 C 3.93 g/m*3 0.4 C 0 km/h
152 16-02-2009 06:15:53 0.4 C 4.03 g/m*3 0.4 C 0 km/h
153 16-02-2009 06:27:53 0.3 C 4.06 g/m*3 0.3 C 0 km/h
154 16-02-2009 06:39:53 0.4 C 4.13 g/m*3 0.4 C 0 km/h
155 16-02-2009 06:51:53 0.4 C 4.13 g/m*3 0.4 C 0 km/h
156 16-02-2009 07:03:51 0.4 C 4.18 g/m*3 0.4 C 0 km/h
157 16-02-2009 07:15:50 0.4 C 4.23 g/m*3 0.4 C 0 km/h
158 16-02-2009 07:27:50 0.4 C 4.23 g/m*3 0.4 C 0 km/h
159 16-02-2009 07:39:51 0.4 C 4.23 g/m*3 0.4 C 0 km/h
160 16-02-2009 07:51:50 0.5 C 4.26 g/m*3 0.5 C 0 km/h
161 16-02-2009 08:03:50 0.5 C 4.26 g/m*3 0.5 C 0 km/h
162 16-02-2009 08:15:50 0.5 C 4.26 g/m*3 0.5 C 0 km/h
163 16-02-2009 08:27:50 0.5 C 4.26 g/m*3 0.5 C 0 km/h
164 16-02-2009 08:39:50 0.6 C 4.29 g/m*3 0.6 C 0 km/h
165 16-02-2009 08:51:49 0.7 C 4.32 g/m*3 0.7 C 0 km/h
166 16-02-2009 09:03:50 0.8 C 4.35 g/m*3 0.8 C 0 km/h
167 16-02-2009 09:15:50 1 C 4.31 g/m*3 1 C 0 km/h
168 16-02-2009 09:27:50 1.1 C 4.34 g/m*3 1.1 C 0 km/h
169 16-02-2009 09:39:49 1.2 C 4.31 g/m*3 1.2 C 0 km/h
170 16-02-2009 09:51:50 1.3 C 4.29 g/m*3 1.3 C 0 km/h
171 16-02-2009 10:03:49 1.3 C 4.24 g/m*3 1.3 C 0 km/h
172 16-02-2009 10:15:49 1.3 C 4.24 g/m*3 1.3 C 0 km/h
173 16-02-2009 10:27:49 1.5 C 4.4 g/m*3 1.5 C 0 km/h
174 16-02-2009 10:39:48 1.5 C 4.46 g/m*3 1.5 C 0 km/h
175 16-02-2009 10:51:49 1.4 C 4.48 g/m*3 1.4 C 0 km/h
Sensor: Nr:Datum:Temp:Abs-Feuchte:Windchill:Wind:
Aussen-T/F 176 16-02-2009 11:03:48 1.2 C 4.47 g/m*3 1.2 C 0 km/h
177 16-02-2009 11:15:48 1.5 C 4.62 g/m*3 1.5 C 0 km/h
178 16-02-2009 11:27:48 1.6 C 4.7 g/m*3 1.6 C 0 km/h
179 16-02-2009 11:39:48 1.7 C 4.68 g/m*3 1.7 C 0 km/h
180 16-02-2009 11:51:48 1.8 C 4.71 g/m*3 1.8 C 0 km/h
181 16-02-2009 12:03:48 1.9 C 4.8 g/m*3 1.9 C 0 km/h
182 16-02-2009 12:15:47 2.1 C 4.81 g/m*3 2.1 C 0 km/h
183 16-02-2009 12:27:47 2.3 C 4.88 g/m*3 2.3 C 0 km/h
184 16-02-2009 12:39:48 2.6 C 4.86 g/m*3 2.6 C 0 km/h
185 16-02-2009 12:51:47 2.7 C 4.84 g/m*3 2.7 C 0 km/h
186 16-02-2009 13:03:47 2.8 C 4.81 g/m*3 2.8 C 0 km/h
187 16-02-2009 13:15:47 3 C 4.82 g/m*3 3 C 0 km/h
188 16-02-2009 13:27:47 3.4 C 4.89 g/m*3 3.4 C 0 km/h
189 16-02-2009 13:39:47 3.8 C 4.89 g/m*3 3.8 C 0 km/h
190 16-02-2009 13:51:46 3.8 C 4.89 g/m*3 3.8 C 0 km/h
191 16-02-2009 14:03:47 3.9 C 4.86 g/m*3 3.9 C 0 km/h
192 16-02-2009 14:15:47 4 C 4.83 g/m*3 4 C 0 km/h
193 16-02-2009 14:27:47 3.8 C 4.83 g/m*3 3.8 C 0 km/h
194 16-02-2009 14:39:46 3.8 C 4.89 g/m*3 3.8 C 0 km/h
195 16-02-2009 14:51:47 3.6 C 4.83 g/m*3 3.6 C 0 km/h
196 16-02-2009 15:03:46 3.5 C 4.86 g/m*3 3.5 C 0 km/h
197 16-02-2009 15:15:46 3.4 C 4.95 g/m*3 3.4 C 0 km/h
198 16-02-2009 15:27:46 3.4 C 5.01 g/m*3 3.4 C 0 km/h
199 16-02-2009 15:39:45 3.4 C 5.07 g/m*3 3.4 C 0 km/h
200 16-02-2009 15:51:46 3.4 C 5.13 g/m*3 3.4 C 0 km/h
Sensor: Nr:Datum:Temp:Abs-Feuchte:Windchill:Wind:
Aussen-T/F 201 16-02-2009 16:03:45 3.4 C 5.19 g/m*3 3.4 C 0 km/h
202 16-02-2009 16:15:45 3.4 C 5.19 g/m*3 3.4 C 0 km/h
203 16-02-2009 16:27:45 3.4 C 5.25 g/m*3 3.4 C 0 km/h
204 16-02-2009 16:39:46 3.3 C 5.22 g/m*3 3.3 C 0 km/h
205 16-02-2009 16:51:45 3.3 C 5.28 g/m*3 3.3 C 0 km/h
206 16-02-2009 17:03:45 3.3 C 5.28 g/m*3 3.3 C 0 km/h
207 16-02-2009 17:15:45 3.3 C 5.34 g/m*3 3.3 C 0 km/h
208 16-02-2009 17:27:45 3.2 C 5.3 g/m*3 3.2 C 0 km/h
209 16-02-2009 17:39:45 3.2 C 5.3 g/m*3 3.2 C 0 km/h
210 16-02-2009 17:51:44 3.2 C 5.36 g/m*3 3.2 C 0 km/h
211 16-02-2009 18:03:45 3.2 C 5.36 g/m*3 3.2 C 0 km/h
212 16-02-2009 18:15:44 3.3 C 5.46 g/m*3 3.3 C 0 km/h
213 16-02-2009 18:27:44 3.3 C 5.46 g/m*3 3.3 C 0 km/h
214 16-02-2009 18:39:44 3.3 C 5.46 g/m*3 3.3 C 0 km/h
215 16-02-2009 18:51:44 3.3 C 5.46 g/m*3 3.3 C 0 km/h
216 16-02-2009 19:03:44 3.4 C 5.56 g/m*3 3.4 C 0 km/h
217 16-02-2009 19:15:44 3.4 C 5.56 g/m*3 3.4 C 0 km/h
218 16-02-2009 19:27:44 3.5 C 5.6 g/m*3 3.5 C 0 km/h
219 16-02-2009 19:39:43 3.4 C 5.56 g/m*3 3.4 C 0 km/h
220 16-02-2009 19:51:44 3.4 C 5.56 g/m*3 3.4 C 0 km/h
221 16-02-2009 20:03:43 3.4 C 5.56 g/m*3 3.4 C 0 km/h
222 16-02-2009 20:15:43 3.6 C 5.63 g/m*3 3.6 C 0 km/h
223 16-02-2009 20:27:43 3.6 C 5.63 g/m*3 3.6 C 0 km/h
224 16-02-2009 20:39:43 3.5 C 5.6 g/m*3 3.5 C 0 km/h
225 16-02-2009 20:51:43 3.5 C 5.6 g/m*3 3.5 C 0 km/h
Sensor: Nr:Datum:Temp:Abs-Feuchte:Windchill:Wind:
Aussen-T/F 226 16-02-2009 21:03:43 3.5 C 5.6 g/m*3 3.5 C 0 km/h
227 16-02-2009 21:15:43 3.5 C 5.6 g/m*3 3.5 C 0 km/h
228 16-02-2009 21:27:43 3.6 C 5.63 g/m*3 3.6 C 0 km/h
229 16-02-2009 21:39:42 3.4 C 5.56 g/m*3 3.4 C 0 km/h
230 16-02-2009 21:52:59 3.5 C 5.6 g/m*3 3.5 C 0 km/h
231 16-02-2009 22:04:59 3.3 C 5.52 g/m*3 3.3 C 0 km/h
232 16-02-2009 22:16:59 3.3 C 5.58 g/m*3 3.3 C 0 km/h
233 16-02-2009 22:28:59 3.3 C 5.58 g/m*3 3.3 C 0 km/h
234 16-02-2009 22:40:59 3.4 C 5.62 g/m*3 3.4 C 0 km/h
235 16-02-2009 22:52:59 3.4 C 5.68 g/m*3 3.4 C 0 km/h
236 16-02-2009 23:04:59 3.5 C 5.72 g/m*3 3.5 C 0 km/h
237 16-02-2009 23:16:59 3.8 C 5.83 g/m*3 3.8 C 0 km/h
238 16-02-2009 23:28:59 3.9 C 5.87 g/m*3 3.9 C 0 km/h
239 16-02-2009 23:40:59 3.9 C 5.81 g/m*3 3.9 C 0 km/h
240 16-02-2009 23:52:59 4 C 5.79 g/m*3 4 C 0 km/h
241 17-02-2009 00:04:59 4 C 5.79 g/m*3 4 C 0 km/h
242 17-02-2009 00:16:59 4 C 5.79 g/m*3 4 C 0 km/h
243 17-02-2009 00:28:59 3.9 C 5.75 g/m*3 3.9 C 0 km/h
244 17-02-2009 00:40:59 3.9 C 5.81 g/m*3 3.9 C 0 km/h
245 17-02-2009 00:51:59 3.9 C 5.81 g/m*3 3.9 C 0 km/h
246 17-02-2009 01:04:00 3.9 C 5.81 g/m*3 3.9 C 0 km/h
247 17-02-2009 01:16:00 3.9 C 5.81 g/m*3 3.9 C 0 km/h
248 17-02-2009 01:28:00 3.9 C 5.81 g/m*3 3.9 C 0 km/h
249 17-02-2009 01:40:00 4 C 5.85 g/m*3 4 C 0 km/h
250 17-02-2009 01:52:00 3.9 C 5.87 g/m*3 3.9 C 0 km/h
Sensor: Nr:Datum:Temp:Abs-Feuchte:Windchill:Wind:
Aussen-T/F 251 17-02-2009 02:04:00 3.9 C 5.87 g/m*3 3.9 C 0 km/h
252 17-02-2009 02:16:00 3.9 C 5.87 g/m*3 3.9 C 0 km/h
253 17-02-2009 02:28:00 3.9 C 5.87 g/m*3 3.9 C 0 km/h
254 17-02-2009 02:40:00 3.9 C 5.87 g/m*3 3.9 C 0 km/h
255 17-02-2009 02:52:00 3.9 C 5.87 g/m*3 3.9 C 0 km/h
256 17-02-2009 03:04:00 4 C 5.91 g/m*3 4 C 0 km/h
257 17-02-2009 03:16:00 4 C 5.91 g/m*3 4 C 0 km/h
258 17-02-2009 03:28:00 4 C 5.91 g/m*3 4 C 0 km/h
259 17-02-2009 03:40:00 4 C 5.91 g/m*3 4 C 0 km/h
260 17-02-2009 03:52:00 4 C 5.91 g/m*3 4 C 0 km/h
261 17-02-2009 04:04:00 4 C 5.91 g/m*3 4 C 0 km/h
262 17-02-2009 04:16:00 4.1 C 6.02 g/m*3 4.1 C 0 km/h
263 17-02-2009 04:28:00 4.2 C 6.06 g/m*3 4.2 C 0 km/h
264 17-02-2009 04:40:00 4.2 C 6.06 g/m*3 4.2 C 0 km/h
265 17-02-2009 04:52:00 4.3 C 6.1 g/m*3 4.3 C 0 km/h
266 17-02-2009 05:04:00 4.3 C 6.1 g/m*3 4.3 C 0 km/h
267 17-02-2009 05:16:01 4.3 C 6.1 g/m*3 4.3 C 0 km/h
268 17-02-2009 05:28:01 4.4 C 6.14 g/m*3 4.4 C 0 km/h
269 17-02-2009 05:40:01 4.4 C 6.14 g/m*3 4.4 C 0 km/h
270 17-02-2009 05:52:01 4.4 C 6.14 g/m*3 4.4 C 0 km/h
271 17-02-2009 06:04:01 4.5 C 6.18 g/m*3 4.5 C 0 km/h
272 17-02-2009 06:16:01 4.4 C 6.14 g/m*3 4.4 C 0 km/h
273 17-02-2009 06:28:01 4.4 C 6.14 g/m*3 4.4 C 0 km/h
274 17-02-2009 06:40:01 4.4 C 6.14 g/m*3 4.4 C 0 km/h
275 17-02-2009 06:52:01 4.5 C 6.18 g/m*3 4.5 C 0 km/h
Sensor: Nr:Datum:Temp:Abs-Feuchte:Windchill:Wind:
Aussen-T/F 276 17-02-2009 07:04:43 4.5 C 6.18 g/m*3 4.5 C 0 km/h
277 17-02-2009 07:16:43 4.7 C 6.33 g/m*3 4.7 C 0 km/h
278 17-02-2009 07:28:43 4.7 C 6.33 g/m*3 4.7 C 0 km/h
279 17-02-2009 07:40:43 4.6 C 6.29 g/m*3 4.6 C 0 km/h
280 17-02-2009 07:52:43 4.7 C 6.33 g/m*3 4.7 C 0 km/h
281 17-02-2009 08:04:42 4.6 C 6.29 g/m*3 4.6 C 0 km/h
282 17-02-2009 08:16:43 4.6 C 6.29 g/m*3 4.6 C 0 km/h
283 17-02-2009 08:28:44 4.8 C 6.37 g/m*3 4.8 C 0 km/h
284 17-02-2009 08:40:42 5 C 6.46 g/m*3 5 C 0 km/h
285 17-02-2009 08:52:42 5.1 C 6.5 g/m*3 5.1 C 0 km/h
286 17-02-2009 09:04:42 5.3 C 6.58 g/m*3 5.3 C 0 km/h
287 17-02-2009 09:16:42 5.5 C 6.67 g/m*3 5.5 C 0 km/h
288 17-02-2009 09:28:42 5.5 C 6.67 g/m*3 5.5 C 0 km/h
289 17-02-2009 09:40:42 5.6 C 6.72 g/m*3 5.6 C 0 km/h
290 17-02-2009 09:52:42 5.6 C 6.65 g/m*3 5.6 C 0 km/h
291 17-02-2009 10:04:42 5.7 C 6.69 g/m*3 5.7 C 0 km/h
292 17-02-2009 10:16:41 5.7 C 6.69 g/m*3 5.7 C 0 km/h
293 17-02-2009 10:28:41 5.7 C 6.62 g/m*3 5.7 C 0 km/h
294 17-02-2009 10:40:41 6 C 6.68 g/m*3 6 C 0 km/h
295 17-02-2009 10:52:41 6 C 6.68 g/m*3 6 C 0 km/h
296 17-02-2009 11:04:41 5.9 C 6.71 g/m*3 5.9 C 0 km/h
297 17-02-2009 11:16:40 5.9 C 6.71 g/m*3 5.9 C 0 km/h
298 17-02-2009 11:28:40 6 C 6.68 g/m*3 6 C 0 km/h
299 17-02-2009 11:40:41 6 C 6.68 g/m*3 6 C 0 km/h
300 17-02-2009 11:52:41 6 C 6.68 g/m*3 6 C 0 km/h
Sensor: Nr:Datum:Temp:Abs-Feuchte:Windchill:Wind:
Aussen-T/F 301 17-02-2009 12:04:40 6.1 C 6.72 g/m*3 6.1 C 0 km/h
302 17-02-2009 12:16:41 6.3 C 6.88 g/m*3 6.3 C 0 km/h
303 17-02-2009 12:28:41 6.3 C 6.88 g/m*3 6.3 C 0 km/h
304 17-02-2009 12:40:40 6.3 C 6.88 g/m*3 6.3 C 0 km/h
305 17-02-2009 12:52:40 6.6 C 7.02 g/m*3 6.6 C 0 km/h
306 17-02-2009 13:04:39 6.7 C 7.07 g/m*3 6.7 C 0 km/h
307 17-02-2009 13:16:40 6.7 C 6.99 g/m*3 6.7 C 0 km/h
308 17-02-2009 13:28:40 6.5 C 6.9 g/m*3 6.5 C 0 km/h
309 17-02-2009 13:40:39 6.5 C 6.9 g/m*3 6.5 C 0 km/h
310 17-02-2009 13:52:39 6.4 C 6.71 g/m*3 6.4 C 0 km/h
311 17-02-2009 14:04:40 6.4 C 6.71 g/m*3 6.4 C 0 km/h
312 17-02-2009 14:16:39 6.5 C 6.6 g/m*3 6.5 C 0 km/h
313 17-02-2009 14:28:39 6.7 C 6.53 g/m*3 6.7 C 0 km/h
314 17-02-2009 14:40:39 6.8 C 6.35 g/m*3 6.8 C 0 km/h
315 17-02-2009 14:52:39 7 C 6.2 g/m*3 7 C 0 km/h
316 17-02-2009 15:04:39 6.9 C 6.16 g/m*3 6.9 C 0 km/h
317 17-02-2009 15:16:38 6.9 C 6.08 g/m*3 6.9 C 0 km/h
318 17-02-2009 15:28:38 7 C 5.81 g/m*3 7 C 0 km/h
319 17-02-2009 15:40:38 6.9 C 5.93 g/m*3 6.9 C 0 km/h
320 17-02-2009 15:52:38 6.8 C 5.58 g/m*3 6.8 C 0 km/h
321 17-02-2009 16:04:38 5.9 C 5.19 g/m*3 5.9 C 0 km/h
322 17-02-2009 16:16:38 5.5 C 5.06 g/m*3 5.5 C 0 km/h
323 17-02-2009 16:28:38 5.1 C 4.99 g/m*3 5.1 C 0 km/h
324 17-02-2009 16:40:38 4.9 C 5 g/m*3 4.9 C 0 km/h
325 17-02-2009 16:52:38 4.6 C 4.76 g/m*3 4.6 C 0 km/h
Sensor: Nr:Datum:Temp:Abs-Feuchte:Windchill:Wind:
Aussen-T/F 326 17-02-2009 17:04:37 4.4 C 4.7 g/m*3 4.4 C 0 km/h
327 17-02-2009 17:16:38 4 C 4.51 g/m*3 4 C 0 km/h
328 17-02-2009 17:28:38 3.7 C 4.42 g/m*3 3.7 C 0 km/h
329 17-02-2009 17:40:37 3.6 C 4.33 g/m*3 3.6 C 0 km/h
330 17-02-2009 17:52:37 3.4 C 4.15 g/m*3 3.4 C 0 km/h
331 17-02-2009 18:04:37 3.1 C 4.07 g/m*3 3.1 C 0 km/h
332 17-02-2009 18:16:37 2.9 C 4.02 g/m*3 2.9 C 0 km/h
333 17-02-2009 18:28:37 2.8 C 4.05 g/m*3 2.8 C 0 km/h
334 17-02-2009 18:40:37 2.5 C 3.97 g/m*3 2.5 C 0 km/h
335 17-02-2009 18:52:37 2.3 C 3.74 g/m*3 2.3 C 0 km/h
336 17-02-2009 19:04:37 2.1 C 3.41 g/m*3 2.1 C 0 km/h
337 17-02-2009 19:16:36 2.1 C 3.3 g/m*3 2.1 C 0 km/h
338 17-02-2009 19:28:36 1.9 C 3.09 g/m*3 1.9 C 0 km/h
339 17-02-2009 19:40:36 1.6 C 2.97 g/m*3 1.6 C 0 km/h
340 17-02-2009 19:52:36 1.1 C 2.98 g/m*3 1.1 C 0 km/h
341 17-02-2009 20:04:36 0.7 C 2.85 g/m*3 0.7 C 0 km/h
342 17-02-2009 20:16:35 0.3 C 2.67 g/m*3 0.3 C 0 km/h
343 17-02-2009 20:28:35 0 C 2.66 g/m*3 0 C 0 km/h
344 17-02-2009 20:40:36 -0.3 C 2.66 g/m*3 -0.3 C 0 km/h
345 17-02-2009 20:52:35 -0.4 C 2.54 g/m*3 -0.4 C 0 km/h
346 17-02-2009 21:04:36 -0.5 C 2.57 g/m*3 -0.5 C 0 km/h
347 17-02-2009 21:16:35 -0.7 C 2.45 g/m*3 -0.7 C 0 km/h
348 17-02-2009 21:28:35 -0.9 C 2.46 g/m*3 -0.9 C 0 km/h
349 17-02-2009 21:41:36 -1 C 2.44 g/m*3 -1 C 0 km/h
350 17-02-2009 21:53:36 -1.2 C 2.41 g/m*3 -1.2 C 0 km/h
Sensor: Nr:Datum:Temp:Abs-Feuchte:Windchill:Wind:
Aussen-T/F 351 17-02-2009 22:05:36 -1.3 C 2.39 g/m*3 -1.3 C 0 km/h
352 17-02-2009 22:17:36 -1.5 C 2.49 g/m*3 -1.5 C 0 km/h
353 17-02-2009 22:29:36 -1.7 C 2.5 g/m*3 -1.7 C 0 km/h
354 17-02-2009 22:41:36 -1.9 C 2.55 g/m*3 -1.9 C 0 km/h
355 17-02-2009 22:53:36 -2 C 2.49 g/m*3 -2 C 0 km/h
356 17-02-2009 23:05:36 -2.2 C 2.49 g/m*3 -2.2 C 0 km/h
357 17-02-2009 23:17:36 -2.3 C 2.48 g/m*3 -2.3 C 0 km/h
358 17-02-2009 23:29:36 -2.4 C 2.5 g/m*3 -2.4 C 0 km/h
359 17-02-2009 23:41:36 -2.6 C 2.51 g/m*3 -2.6 C 0 km/h
360 17-02-2009 23:53:36 -2.6 C 2.51 g/m*3 -2.6 C 0 km/h
361 18-02-2009 00:05:36 -2.8 C 2.51 g/m*3 -2.8 C 0 km/h
362 18-02-2009 00:17:36 -2.9 C 2.53 g/m*3 -2.9 C 0 km/h
363 18-02-2009 00:29:37 -2.9 C 2.57 g/m*3 -2.9 C 0 km/h
364 18-02-2009 00:41:37 -3 C 2.59 g/m*3 -3 C 0 km/h
365 18-02-2009 00:53:37 -3.2 C 2.52 g/m*3 -3.2 C 0 km/h
366 18-02-2009 01:05:37 -3.3 C 2.5 g/m*3 -3.3 C 0 km/h
367 18-02-2009 01:17:37 -3.4 C 2.48 g/m*3 -3.4 C 0 km/h
368 18-02-2009 01:29:37 -3.5 C 2.5 g/m*3 -3.5 C 0 km/h
369 18-02-2009 01:41:37 -3.5 C 2.5 g/m*3 -3.5 C 0 km/h
370 18-02-2009 01:53:37 -3.6 C 2.48 g/m*3 -3.6 C 0 km/h
371 18-02-2009 02:05:37 -3.7 C 2.47 g/m*3 -3.7 C 0 km/h
372 18-02-2009 02:17:37 -3.7 C 2.5 g/m*3 -3.7 C 0 km/h
373 18-02-2009 02:29:37 -3.7 C 2.54 g/m*3 -3.7 C 0 km/h
374 18-02-2009 02:41:37 -3.8 C 2.52 g/m*3 -3.8 C 0 km/h
375 18-02-2009 02:53:37 -4 C 2.49 g/m*3 -4 C 0 km/h
Sensor: Nr:Datum:Temp:Abs-Feuchte:Windchill:Wind:
Aussen-T/F 376 18-02-2009 03:05:37 -4 C 2.52 g/m*3 -4 C 0 km/h
377 18-02-2009 03:17:37 -4.1 C 2.51 g/m*3 -4.1 C 0 km/h
378 18-02-2009 03:29:37 -4.3 C 2.47 g/m*3 -4.3 C 0 km/h
379 18-02-2009 03:41:37 -4.3 C 2.51 g/m*3 -4.3 C 0 km/h
380 18-02-2009 03:53:37 -4.5 C 2.47 g/m*3 -4.5 C 0 km/h
381 18-02-2009 04:05:37 -4.5 C 2.47 g/m*3 -4.5 C 0 km/h
382 18-02-2009 04:17:37 -4.7 C 2.44 g/m*3 -4.7 C 0 km/h
383 18-02-2009 04:29:37 -4.8 C 2.42 g/m*3 -4.8 C 0 km/h
384 18-02-2009 04:41:38 -4.8 C 2.42 g/m*3 -4.8 C 0 km/h
385 18-02-2009 04:53:38 -4.9 C 2.4 g/m*3 -4.9 C 0 km/h
386 18-02-2009 05:05:38 -4.9 C 2.4 g/m*3 -4.9 C 0 km/h
387 18-02-2009 05:17:38 -5.1 C 2.4 g/m*3 -5.1 C 0 km/h
388 18-02-2009 05:29:38 -5 C 2.45 g/m*3 -5 C 0 km/h
389 18-02-2009 05:41:38 -5.1 C 2.43 g/m*3 -5.1 C 0 km/h
390 18-02-2009 05:53:38 -5.4 C 2.38 g/m*3 -5.4 C 0 km/h
391 18-02-2009 06:05:38 -5.5 C 2.36 g/m*3 -5.5 C 0 km/h
392 18-02-2009 06:17:38 -5.6 C 2.35 g/m*3 -5.6 C 0 km/h
393 18-02-2009 06:29:38 -5.7 C 2.36 g/m*3 -5.7 C 0 km/h
394 18-02-2009 06:41:38 -5.5 C 2.4 g/m*3 -5.5 C 0 km/h
395 18-02-2009 06:53:38 -5.5 C 2.43 g/m*3 -5.5 C 0 km/h
396 18-02-2009 07:05:36 -5.7 C 2.4 g/m*3 -5.7 C 0 km/h
397 18-02-2009 07:17:35 -6.1 C 2.3 g/m*3 -6.1 C 0 km/h
398 18-02-2009 07:29:36 -6.2 C 2.28 g/m*3 -6.2 C 0 km/h
399 18-02-2009 07:41:36 -5.9 C 2.36 g/m*3 -5.9 C 0 km/h
400 18-02-2009 07:53:35 -5.8 C 2.41 g/m*3 -5.8 C 0 km/h
Sensor: Nr:Datum:Temp:Abs-Feuchte:Windchill:Wind:
Aussen-T/F 401 18-02-2009 08:05:35 -5.7 C 2.43 g/m*3 -5.7 C 0 km/h
402 18-02-2009 08:17:35 -5.6 C 2.48 g/m*3 -5.6 C 0 km/h
403 18-02-2009 08:29:35 -5.8 C 2.44 g/m*3 -5.8 C 0 km/h
404 18-02-2009 08:41:35 -5.9 C 2.42 g/m*3 -5.9 C 0 km/h
405 18-02-2009 08:53:34 -5.7 C 2.46 g/m*3 -5.7 C 0 km/h
406 18-02-2009 09:05:35 -5.7 C 2.46 g/m*3 -5.7 C 0 km/h
407 18-02-2009 09:17:35 -5.5 C 2.53 g/m*3 -5.5 C 0 km/h
408 18-02-2009 09:29:34 -5.4 C 2.55 g/m*3 -5.4 C 0 km/h
409 18-02-2009 09:41:34 -4.9 C 2.64 g/m*3 -4.9 C 0 km/h
410 18-02-2009 09:53:35 -4.7 C 2.68 g/m*3 -4.7 C 0 km/h
411 18-02-2009 10:05:34 -4.2 C 2.78 g/m*3 -4.2 C 0 km/h
412 18-02-2009 10:17:34 -3.5 C 2.84 g/m*3 -3.5 C 0 km/h
413 18-02-2009 10:29:34 -2.4 C 2.87 g/m*3 -2.4 C 0 km/h
414 18-02-2009 10:41:34 -1.7 C 2.67 g/m*3 -1.7 C 0 km/h
415 18-02-2009 10:53:34 -1.3 C 2.52 g/m*3 -1.3 C 0 km/h
416 18-02-2009 11:05:34 -1.5 C 2.36 g/m*3 -1.5 C 0 km/h
417 18-02-2009 11:17:33 -1.3 C 2.39 g/m*3 -1.3 C 0 km/h
418 18-02-2009 11:29:33 -1 C 2.35 g/m*3 -1 C 0 km/h
419 18-02-2009 11:41:33 -0.7 C 2.12 g/m*3 -0.7 C 0 km/h
420 18-02-2009 11:53:33 -0.3 C 2.28 g/m*3 -0.3 C 0 km/h
421 18-02-2009 12:05:33 0 C 2.33 g/m*3 0 C 0 km/h
422 18-02-2009 12:17:32 0.2 C 2.36 g/m*3 0.2 C 0 km/h
423 18-02-2009 12:29:33 0.5 C 2.31 g/m*3 0.5 C 0 km/h
424 18-02-2009 12:41:33 0.7 C 2.29 g/m*3 0.7 C 0 km/h
425 18-02-2009 12:53:32 1.1 C 2.09 g/m*3 1.1 C 0 km/h
Sensor: Nr:Datum:Temp:Abs-Feuchte:Windchill:Wind:
Aussen-T/F 426 18-02-2009 13:05:32 1.9 C 2.1 g/m*3 1.9 C 0 km/h
427 18-02-2009 13:17:33 2.3 C 2.04 g/m*3 2.3 C 0 km/h
428 18-02-2009 13:29:32 2.7 C 2.04 g/m*3 2.7 C 0 km/h
429 18-02-2009 13:41:32 2.8 C 1.82 g/m*3 2.8 C 0 km/h
430 18-02-2009 13:53:32 3.6 C 1.55 g/m*3 3.6 C 0 km/h
431 18-02-2009 14:05:32 3.6 C 1.55 g/m*3 3.6 C 0 km/h
432 18-02-2009 14:17:32 4.4 C 1.31 g/m*3 4.4 C 0 km/h
433 18-02-2009 14:29:31 4.8 C 1.34 g/m*3 4.8 C 0 km/h
434 18-02-2009 14:41:31 5.5 C 1.4 g/m*3 5.5 C 0 km/h
435 18-02-2009 14:53:32 5.7 C 1.42 g/m*3 5.7 C 0 km/h
436 18-02-2009 15:05:31 5.9 C 1.44 g/m*3 5.9 C 0 km/h
437 18-02-2009 15:17:31 5.5 C 1.4 g/m*3 5.5 C 0 km/h
438 18-02-2009 15:29:31 5.7 C 1.42 g/m*3 5.7 C 0 km/h
439 18-02-2009 15:41:31 6 C 1.45 g/m*3 6 C 0 km/h
440 18-02-2009 15:53:31 6 C 1.45 g/m*3 6 C 0 km/h
441 18-02-2009 16:05:31 6.7 C 1.52 g/m*3 6.7 C 0 km/h
442 18-02-2009 16:17:30 6.9 C 1.54 g/m*3 6.9 C 0 km/h
443 18-02-2009 16:29:31 5.1 C 1.37 g/m*3 5.1 C 0 km/h
444 18-02-2009 16:41:31 5.5 C 1.4 g/m*3 5.5 C 0 km/h
445 18-02-2009 16:53:30 5.7 C 1.42 g/m*3 5.7 C 0 km/h
446 18-02-2009 17:05:30 5.4 C 1.4 g/m*3 5.4 C 0 km/h
447 18-02-2009 17:17:30 4.7 C 1.67 g/m*3 4.7 C 0 km/h
448 18-02-2009 17:29:30 3.2 C 1.81 g/m*3 3.2 C 0 km/h
449 18-02-2009 17:41:30 1.9 C 2.04 g/m*3 1.9 C 0 km/h
450 18-02-2009 17:53:30 1 C 2.13 g/m*3 1 C 0 km/h
Sensor: Nr:Datum:Temp:Abs-Feuchte:Windchill:Wind:
Aussen-T/F 451 18-02-2009 18:05:29 0.4 C 2.14 g/m*3 0.4 C 0 km/h
452 18-02-2009 18:17:29 -0.1 C 2.21 g/m*3 -0.1 C 0 km/h
453 18-02-2009 18:29:30 -0.4 C 2.26 g/m*3 -0.4 C 0 km/h
454 18-02-2009 18:41:30 -0.6 C 2.28 g/m*3 -0.6 C 0 km/h
455 18-02-2009 18:53:29 -0.9 C 2.37 g/m*3 -0.9 C 0 km/h
456 18-02-2009 19:05:29 -1 C 2.26 g/m*3 -1 C 0 km/h
457 18-02-2009 19:17:29 -1.2 C 2.27 g/m*3 -1.2 C 0 km/h
458 18-02-2009 19:29:29 -1.3 C 2.26 g/m*3 -1.3 C 0 km/h
459 18-02-2009 19:41:29 -1.4 C 2.33 g/m*3 -1.4 C 0 km/h
460 18-02-2009 19:53:28 -1.6 C 2.3 g/m*3 -1.6 C 0 km/h
461 18-02-2009 20:05:29 -1.7 C 2.32 g/m*3 -1.7 C 0 km/h
462 18-02-2009 20:17:28 -1.8 C 2.35 g/m*3 -1.8 C 0 km/h
463 18-02-2009 20:29:28 -1.9 C 2.33 g/m*3 -1.9 C 0 km/h
464 18-02-2009 20:41:28 -2 C 2.32 g/m*3 -2 C 0 km/h
465 18-02-2009 20:53:28 -2.1 C 2.22 g/m*3 -2.1 C 0 km/h
466 18-02-2009 21:05:28 -2.2 C 2.29 g/m*3 -2.2 C 0 km/h
467 18-02-2009 21:17:28 -2.3 C 2.27 g/m*3 -2.3 C 0 km/h
468 18-02-2009 21:29:27 -2.3 C 2.23 g/m*3 -2.3 C 0 km/h
469 18-02-2009 21:41:27 -2.4 C 2.17 g/m*3 -2.4 C 0 km/h
470 18-02-2009 21:53:28 -2.6 C 2.3 g/m*3 -2.6 C 0 km/h
471 18-02-2009 22:06:27 -2.7 C 2.33 g/m*3 -2.7 C 0 km/h
472 18-02-2009 22:18:27 -2.9 C 2.33 g/m*3 -2.9 C 0 km/h
473 18-02-2009 22:30:27 -2.9 C 2.37 g/m*3 -2.9 C 0 km/h
474 18-02-2009 22:42:27 -2.9 C 2.41 g/m*3 -2.9 C 0 km/h
475 18-02-2009 22:54:27 -3.1 C 2.38 g/m*3 -3.1 C 0 km/h
Sensor: Nr:Datum:Temp:Abs-Feuchte:Windchill:Wind:
Aussen-T/F 476 18-02-2009 23:06:27 -3.3 C 2.35 g/m*3 -3.3 C 0 km/h
477 18-02-2009 23:18:27 -3.2 C 2.4 g/m*3 -3.2 C 0 km/h
478 18-02-2009 23:30:27 -2.9 C 2.45 g/m*3 -2.9 C 0 km/h
479 18-02-2009 23:42:28 -2.7 C 2.45 g/m*3 -2.7 C 0 km/h
480 18-02-2009 23:54:28 -2.5 C 2.48 g/m*3 -2.5 C 0 km/h
481 19-02-2009 00:06:28 -2.5 C 2.56 g/m*3 -2.5 C 0 km/h
482 19-02-2009 00:18:28 -2.4 C 2.58 g/m*3 -2.4 C 0 km/h
483 19-02-2009 00:30:28 -2.3 C 2.6 g/m*3 -2.3 C 0 km/h
484 19-02-2009 00:42:28 -2.3 C 2.56 g/m*3 -2.3 C 0 km/h
485 19-02-2009 00:54:28 -2.2 C 2.58 g/m*3 -2.2 C 0 km/h
486 19-02-2009 01:06:28 -2.1 C 2.6 g/m*3 -2.1 C 0 km/h
487 19-02-2009 01:18:28 -2.1 C 2.6 g/m*3 -2.1 C 0 km/h
488 19-02-2009 01:30:28 -2.1 C 2.55 g/m*3 -2.1 C 0 km/h
489 19-02-2009 01:42:28 -2.1 C 2.55 g/m*3 -2.1 C 0 km/h
490 19-02-2009 01:54:28 -2.3 C 2.52 g/m*3 -2.3 C 0 km/h
491 19-02-2009 02:06:28 -2.1 C 2.6 g/m*3 -2.1 C 0 km/h
492 19-02-2009 02:18:28 -2 C 2.57 g/m*3 -2 C 0 km/h
493 19-02-2009 02:30:28 -2 C 2.57 g/m*3 -2 C 0 km/h
494 19-02-2009 02:42:28 -2 C 2.57 g/m*3 -2 C 0 km/h
495 19-02-2009 02:54:28 -2.1 C 2.55 g/m*3 -2.1 C 0 km/h
496 19-02-2009 03:06:28 -2.2 C 2.58 g/m*3 -2.2 C 0 km/h
497 19-02-2009 03:18:28 -2.3 C 2.56 g/m*3 -2.3 C 0 km/h
498 19-02-2009 03:30:29 -2.3 C 2.6 g/m*3 -2.3 C 0 km/h
499 19-02-2009 03:42:29 -2.1 C 2.64 g/m*3 -2.1 C 0 km/h
500 19-02-2009 03:54:29 -2.1 C 2.64 g/m*3 -2.1 C 0 km/h
Sensor: Nr:Datum:Temp:Abs-Feuchte:Windchill:Wind:
Aussen-T/F 501 19-02-2009 04:06:29 -2.1 C 2.64 g/m*3 -2.1 C 0 km/h
502 19-02-2009 04:18:29 -2.2 C 2.58 g/m*3 -2.2 C 0 km/h
503 19-02-2009 04:30:29 -2.1 C 2.64 g/m*3 -2.1 C 0 km/h
504 19-02-2009 04:42:29 -2.1 C 2.64 g/m*3 -2.1 C 0 km/h
505 19-02-2009 04:54:29 -2.1 C 2.64 g/m*3 -2.1 C 0 km/h
506 19-02-2009 05:06:29 -2.1 C 2.64 g/m*3 -2.1 C 0 km/h
507 19-02-2009 05:18:29 -2.1 C 2.64 g/m*3 -2.1 C 0 km/h
508 19-02-2009 05:30:27 -2.2 C 2.62 g/m*3 -2.2 C 0 km/h
509 19-02-2009 05:42:27 -2.3 C 2.6 g/m*3 -2.3 C 0 km/h
510 19-02-2009 05:54:27 -2.3 C 2.64 g/m*3 -2.3 C 0 km/h
511 19-02-2009 06:06:27 -2.3 C 2.64 g/m*3 -2.3 C 0 km/h
512 19-02-2009 06:18:27 -2.3 C 2.64 g/m*3 -2.3 C 0 km/h
513 19-02-2009 06:30:27 -2.2 C 2.66 g/m*3 -2.2 C 0 km/h
514 19-02-2009 06:42:27 -2.2 C 2.66 g/m*3 -2.2 C 0 km/h
515 19-02-2009 06:54:27 -2.1 C 2.64 g/m*3 -2.1 C 0 km/h
516 19-02-2009 07:06:27 -2.1 C 2.55 g/m*3 -2.1 C 0 km/h
517 19-02-2009 07:18:02 -2 C 2.57 g/m*3 -2 C 0 km/h
518 19-02-2009 07:30:02 -2 C 2.53 g/m*3 -2 C 0 km/h
519 19-02-2009 07:42:02 -2 C 2.57 g/m*3 -2 C 0 km/h
520 19-02-2009 07:54:01 -2 C 2.61 g/m*3 -2 C 0 km/h
521 19-02-2009 08:06:01 -1.9 C 2.63 g/m*3 -1.9 C 0 km/h
522 19-02-2009 08:18:02 -1.9 C 2.63 g/m*3 -1.9 C 0 km/h
523 19-02-2009 08:30:02 -1.6 C 2.69 g/m*3 -1.6 C 0 km/h
524 19-02-2009 08:42:01 -1.3 C 2.7 g/m*3 -1.3 C 0 km/h
525 19-02-2009 08:54:01 -1 C 2.71 g/m*3 -1 C 0 km/h
Sensor: Nr:Datum:Temp:Abs-Feuchte:Windchill:Wind:
Aussen-T/F 526 19-02-2009 09:06:01 -0.8 C 2.61 g/m*3 -0.8 C 0 km/h
527 19-02-2009 09:18:01 -0.9 C 2.55 g/m*3 -0.9 C 0 km/h
528 19-02-2009 09:30:01 -0.7 C 2.58 g/m*3 -0.7 C 0 km/h
529 19-02-2009 09:42:00 -0.7 C 2.54 g/m*3 -0.7 C 0 km/h
530 19-02-2009 09:54:01 -0.6 C 2.56 g/m*3 -0.6 C 0 km/h
531 19-02-2009 10:06:01 -0.4 C 2.59 g/m*3 -0.4 C 0 km/h
532 19-02-2009 10:18:00 -0.1 C 2.55 g/m*3 -0.1 C 0 km/h
533 19-02-2009 10:30:00 0.1 C 2.54 g/m*3 0.1 C 0 km/h
534 19-02-2009 10:42:00 0.5 C 2.56 g/m*3 0.5 C 0 km/h
535 19-02-2009 10:54:00 0.5 C 2.46 g/m*3 0.5 C 0 km/h
536 19-02-2009 11:06:00 0.8 C 2.51 g/m*3 0.8 C 0 km/h
537 19-02-2009 11:18:59 1 C 2.44 g/m*3 1 C 0 km/h
538 19-02-2009 11:29:59 0.9 C 2.47 g/m*3 0.9 C 0 km/h
539 19-02-2009 11:41:59 1 C 2.44 g/m*3 1 C 0 km/h
540 19-02-2009 11:54:59 1.1 C 2.4 g/m*3 1.1 C 0 km/h
541 19-02-2009 12:06:59 1.2 C 2.42 g/m*3 1.2 C 0 km/h
542 19-02-2009 12:29:59 1.6 C 2.38 g/m*3 1.6 C 0 km/h
543 19-02-2009 12:30:59 2 C 2.22 g/m*3 2 C 0 km/h
544 19-02-2009 12:42:59 2.4 C 2.11 g/m*3 2.4 C 0 km/h
545 19-02-2009 12:54:59 3 C 1.96 g/m*3 3 C 0 km/h
546 19-02-2009 13:06:58 3.5 C 1.91 g/m*3 3.5 C 0 km/h
547 19-02-2009 13:18:59 3.9 C 1.96 g/m*3 3.9 C 0 km/h
548 19-02-2009 13:30:58 4.5 C 1.84 g/m*3 4.5 C 0 km/h
549 19-02-2009 13:42:58 4.2 C 1.8 g/m*3 4.2 C 0 km/h
550 19-02-2009 13:54:58 4.3 C 1.82 g/m*3 4.3 C 0 km/h
Sensor: Nr:Datum:Temp:Abs-Feuchte:Windchill:Wind:
Aussen-T/F 551 19-02-2009 14:06:59 4.9 C 1.82 g/m*3 4.9 C 0 km/h
552 19-02-2009 14:18:58 5.7 C 1.78 g/m*3 5.7 C 0 km/h
553 19-02-2009 14:30:58 5.8 C 1.43 g/m*3 5.8 C 0 km/h
554 19-02-2009 14:42:58 6.5 C 1.5 g/m*3 6.5 C 0 km/h
555 19-02-2009 14:54:58 6.8 C 1.53 g/m*3 6.8 C 0 km/h
556 19-02-2009 15:06:58 7.1 C 1.56 g/m*3 7.1 C 0 km/h
557 19-02-2009 15:18:57 6.6 C 1.51 g/m*3 6.6 C 0 km/h
558 19-02-2009 15:30:57 6.3 C 1.48 g/m*3 6.3 C 0 km/h
559 19-02-2009 15:42:57 6.7 C 1.52 g/m*3 6.7 C 0 km/h
560 19-02-2009 15:54:57 7.1 C 1.56 g/m*3 7.1 C 0 km/h
561 19-02-2009 16:06:57 7.1 C 1.56 g/m*3 7.1 C 0 km/h
562 19-02-2009 16:18:57 7.4 C 1.59 g/m*3 7.4 C 0 km/h
563 19-02-2009 16:30:54 7 C 1.55 g/m*3 7 C 0 km/h
564 19-02-2009 16:42:54 6.5 C 1.72 g/m*3 6.5 C 0 km/h
565 19-02-2009 16:54:57 5.8 C 1.79 g/m*3 5.8 C 0 km/h
566 19-02-2009 17:06:02 5.4 C 2.09 g/m*3 5.4 C 0 km/h
567 19-02-2009 17:18:02 4.8 C 2.08 g/m*3 4.8 C 0 km/h
568 19-02-2009 17:30:02 4.4 C 2.15 g/m*3 4.4 C 0 km/h
569 19-02-2009 17:42:02 4 C 2.29 g/m*3 4 C 0 km/h
570 19-02-2009 17:54:02 3.7 C 2.43 g/m*3 3.7 C 0 km/h
571 19-02-2009 18:06:02 3.5 C 2.46 g/m*3 3.5 C 0 km/h
572 19-02-2009 18:18:02 3.4 C 2.5 g/m*3 3.4 C 0 km/h
573 19-02-2009 18:30:02 3.3 C 2.43 g/m*3 3.3 C 0 km/h
574 19-02-2009 18:42:01 3.2 C 2.47 g/m*3 3.2 C 0 km/h
575 19-02-2009 18:54:01 3.1 C 2.45 g/m*3 3.1 C 0 km/h
Sensor: Nr:Datum:Temp:Abs-Feuchte:Windchill:Wind:
Aussen-T/F 576 19-02-2009 19:06:01 2.9 C 2.48 g/m*3 2.9 C 0 km/h
577 19-02-2009 19:18:01 2.9 C 2.6 g/m*3 2.9 C 0 km/h
578 19-02-2009 19:30:01 3 C 2.5 g/m*3 3 C 0 km/h
579 19-02-2009 19:42:01 2.9 C 2.6 g/m*3 2.9 C 0 km/h
580 19-02-2009 19:54:00 2.8 C 2.64 g/m*3 2.8 C 0 km/h
581 19-02-2009 20:06:01 2.7 C 2.68 g/m*3 2.7 C 0 km/h
582 19-02-2009 20:18:01 2.9 C 2.66 g/m*3 2.9 C 0 km/h
583 19-02-2009 20:30:01 2.5 C 2.99 g/m*3 2.5 C 0 km/h
584 19-02-2009 20:42:00 2 C 3.39 g/m*3 2 C 0 km/h
585 19-02-2009 20:54:01 1.9 C 3.59 g/m*3 1.9 C 0 km/h
586 19-02-2009 21:06:00 1.8 C 3.73 g/m*3 1.8 C 0 km/h
587 19-02-2009 21:18:00 1.7 C 3.81 g/m*3 1.7 C 0 km/h
588 19-02-2009 21:30:00 1.6 C 3.89 g/m*3 1.6 C 0 km/h
589 19-02-2009 21:42:00 1.5 C 3.97 g/m*3 1.5 C 0 km/h
590 19-02-2009 21:54:00 1.3 C 3.97 g/m*3 1.3 C 0 km/h
591 19-02-2009 22:06:59 1.3 C 4.03 g/m*3 1.3 C 0 km/h
592 19-02-2009 22:29:59 1.3 C 4.08 g/m*3 1.3 C 0 km/h
593 19-02-2009 22:30:59 1.3 C 4.13 g/m*3 1.3 C 0 km/h
594 19-02-2009 22:42:59 1.3 C 4.13 g/m*3 1.3 C 0 km/h
595 19-02-2009 22:54:59 1.3 C 4.13 g/m*3 1.3 C 0 km/h
596 19-02-2009 23:06:58 1.2 C 4.1 g/m*3 1.2 C 0 km/h
597 19-02-2009 23:18:59 1.3 C 4.13 g/m*3 1.3 C 0 km/h
598 19-02-2009 23:30:59 1.3 C 4.13 g/m*3 1.3 C 0 km/h
599 19-02-2009 23:42:59 1.3 C 4.08 g/m*3 1.3 C 0 km/h
600 19-02-2009 23:54:58 1.4 C 4.05 g/m*3 1.4 C 0 km/h
Sensor: Nr:Datum:Temp:Abs-Feuchte:Windchill:Wind:
Aussen-T/F 601 20-02-2009 00:06:59 1.6 C 4.11 g/m*3 1.6 C 0 km/h
602 20-02-2009 00:18:59 1.6 C 4 g/m*3 1.6 C 0 km/h
603 20-02-2009 00:30:58 1.6 C 4 g/m*3 1.6 C 0 km/h
604 20-02-2009 00:42:58 1.6 C 4 g/m*3 1.6 C 0 km/h
605 20-02-2009 00:54:58 1.7 C 4.03 g/m*3 1.7 C 0 km/h
606 20-02-2009 01:06:58 1.7 C 4.03 g/m*3 1.7 C 0 km/h
607 20-02-2009 01:18:58 1.7 C 4.03 g/m*3 1.7 C 0 km/h
608 20-02-2009 01:30:57 1.7 C 4.03 g/m*3 1.7 C 0 km/h
609 20-02-2009 01:42:57 1.6 C 4.11 g/m*3 1.6 C 0 km/h
610 20-02-2009 01:54:57 1.5 C 4.14 g/m*3 1.5 C 0 km/h
611 20-02-2009 02:06:57 1.5 C 4.19 g/m*3 1.5 C 0 km/h
612 20-02-2009 02:18:57 1.5 C 4.24 g/m*3 1.5 C 0 km/h
613 20-02-2009 02:30:57 1.5 C 4.35 g/m*3 1.5 C 0 km/h
614 20-02-2009 02:42:57 1.5 C 4.3 g/m*3 1.5 C 0 km/h
615 20-02-2009 02:55:01 1.6 C 4.27 g/m*3 1.6 C 0 km/h
616 20-02-2009 03:07:01 1.7 C 4.25 g/m*3 1.7 C 0 km/h
617 20-02-2009 03:19:01 1.8 C 4.28 g/m*3 1.8 C 0 km/h
618 20-02-2009 03:31:01 1.7 C 4.19 g/m*3 1.7 C 0 km/h
619 20-02-2009 03:43:01 1.7 C 4.19 g/m*3 1.7 C 0 km/h
620 20-02-2009 03:55:02 1.8 C 4.28 g/m*3 1.8 C 0 km/h
621 20-02-2009 04:07:01 1.7 C 4.25 g/m*3 1.7 C 0 km/h
622 20-02-2009 04:19:01 1.7 C 4.25 g/m*3 1.7 C 0 km/h
623 20-02-2009 04:31:02 1.8 C 4.28 g/m*3 1.8 C 0 km/h
624 20-02-2009 04:43:02 1.9 C 4.3 g/m*3 1.9 C 0 km/h
625 20-02-2009 04:55:02 1.9 C 4.25 g/m*3 1.9 C 0 km/h
Sensor: Nr:Datum:Temp:Abs-Feuchte:Windchill:Wind:
Aussen-T/F 626 20-02-2009 05:07:01 1.9 C 4.25 g/m*3 1.9 C 0 km/h
627 20-02-2009 05:19:01 1.9 C 4.19 g/m*3 1.9 C 0 km/h
628 20-02-2009 05:31:02 2 C 4.17 g/m*3 2 C 0 km/h
629 20-02-2009 05:43:02 2 C 4.17 g/m*3 2 C 0 km/h
630 20-02-2009 05:55:01 2.1 C 4.2 g/m*3 2.1 C 0 km/h
631 20-02-2009 06:07:01 2.1 C 4.2 g/m*3 2.1 C 0 km/h
632 20-02-2009 06:19:02 2.1 C 4.25 g/m*3 2.1 C 0 km/h
633 20-02-2009 06:31:01 2.1 C 4.25 g/m*3 2.1 C 0 km/h
634 20-02-2009 06:43:01 2 C 4.28 g/m*3 2 C 0 km/h
635 20-02-2009 06:55:02 1.8 C 4.49 g/m*3 1.8 C 0 km/h
636 20-02-2009 07:07:01 1.8 C 4.6 g/m*3 1.8 C 0 km/h
637 20-02-2009 07:19:02 1.8 C 4.66 g/m*3 1.8 C 0 km/h
638 20-02-2009 07:31:01 1.8 C 4.71 g/m*3 1.8 C 0 km/h
639 20-02-2009 07:43:01 1.8 C 4.71 g/m*3 1.8 C 0 km/h
640 20-02-2009 07:55:02 1.9 C 4.75 g/m*3 1.9 C 0 km/h
641 20-02-2009 08:07:01 1.9 C 4.75 g/m*3 1.9 C 0 km/h
642 20-02-2009 08:19:01 2 C 4.67 g/m*3 2 C 0 km/h
643 20-02-2009 08:31:02 2.3 C 4.71 g/m*3 2.3 C 0 km/h
644 20-02-2009 08:43:02 2.4 C 4.68 g/m*3 2.4 C 0 km/h
645 20-02-2009 08:55:01 2.4 C 4.68 g/m*3 2.4 C 0 km/h
646 20-02-2009 09:07:02 2.3 C 4.71 g/m*3 2.3 C 0 km/h
647 20-02-2009 09:19:01 2.3 C 4.76 g/m*3 2.3 C 0 km/h
648 20-02-2009 09:31:02 2.4 C 4.85 g/m*3 2.4 C 0 km/h
649 20-02-2009 09:43:02 2.5 C 4.94 g/m*3 2.5 C 0 km/h
650 20-02-2009 09:55:01 2.8 C 4.99 g/m*3 2.8 C 0 km/h
Sensor: Nr:Datum:Temp:Abs-Feuchte:Windchill:Wind:
Aussen-T/F 651 20-02-2009 10:07:02 2.8 C 4.93 g/m*3 2.8 C 0 km/h
652 20-02-2009 10:19:01 3 C 4.93 g/m*3 3 C 0 km/h
653 20-02-2009 10:31:01 3.2 C 4.94 g/m*3 3.2 C 0 km/h
654 20-02-2009 10:43:01 3.2 C 4.88 g/m*3 3.2 C 0 km/h
655 20-02-2009 10:55:01 3.3 C 4.91 g/m*3 3.3 C 0 km/h
656 20-02-2009 11:07:01 3.4 C 4.89 g/m*3 3.4 C 0 km/h
657 20-02-2009 11:19:02 3.5 C 4.92 g/m*3 3.5 C 0 km/h
658 20-02-2009 11:31:01 3.5 C 4.98 g/m*3 3.5 C 0 km/h
659 20-02-2009 11:43:01 3.4 C 5.01 g/m*3 3.4 C 0 km/h
660 20-02-2009 11:55:02 3.4 C 5.07 g/m*3 3.4 C 0 km/h
661 20-02-2009 12:07:01 3.3 C 5.04 g/m*3 3.3 C 0 km/h
662 20-02-2009 12:19:02 3.3 C 5.1 g/m*3 3.3 C 0 km/h
663 20-02-2009 12:31:01 3.5 C 5.29 g/m*3 3.5 C 0 km/h
664 20-02-2009 12:43:01 3.7 C 5.36 g/m*3 3.7 C 0 km/h
665 20-02-2009 12:55:02 3.8 C 5.4 g/m*3 3.8 C 0 km/h
666 20-02-2009 13:07:01 4.1 C 5.44 g/m*3 4.1 C 0 km/h
667 20-02-2009 13:19:01 4.4 C 5.48 g/m*3 4.4 C 0 km/h
668 20-02-2009 13:31:02 4.5 C 5.46 g/m*3 4.5 C 0 km/h
669 20-02-2009 13:43:02 4.7 C 5.53 g/m*3 4.7 C 0 km/h
670 20-02-2009 13:55:01 4.9 C 5.54 g/m*3 4.9 C 0 km/h
671 20-02-2009 14:07:02 5.2 C 5.51 g/m*3 5.2 C 0 km/h
672 20-02-2009 14:19:01 5.4 C 5.37 g/m*3 5.4 C 0 km/h
673 20-02-2009 14:31:02 5.5 C 5.34 g/m*3 5.5 C 0 km/h
674 20-02-2009 14:43:02 5.7 C 5.27 g/m*3 5.7 C 0 km/h
675 20-02-2009 14:55:01 5.7 C 5.19 g/m*3 5.7 C 0 km/h
Sensor: Nr:Datum:Temp:Abs-Feuchte:Windchill:Wind:
Aussen-T/F 676 20-02-2009 15:07:02 5.8 C 5.23 g/m*3 5.8 C 0 km/h
677 20-02-2009 15:19:01 5.7 C 5.12 g/m*3 5.7 C 0 km/h
678 20-02-2009 15:31:01 5.5 C 4.99 g/m*3 5.5 C 0 km/h
679 20-02-2009 15:43:01 5.4 C 5.09 g/m*3 5.4 C 0 km/h
680 20-02-2009 15:55:01 5.5 C 5.13 g/m*3 5.5 C 0 km/h
681 20-02-2009 16:07:01 5.6 C 5.3 g/m*3 5.6 C 0 km/h
682 20-02-2009 16:19:01 5.6 C 5.3 g/m*3 5.6 C 0 km/h
683 20-02-2009 16:31:01 5.4 C 5.23 g/m*3 5.4 C 0 km/h
684 20-02-2009 16:43:01 5.3 C 5.34 g/m*3 5.3 C 0 km/h
685 20-02-2009 16:55:01 5.1 C 5.4 g/m*3 5.1 C 0 km/h
686 20-02-2009 17:07:01 5 C 5.5 g/m*3 5 C 0 km/h
687 20-02-2009 17:19:01 4.9 C 5.67 g/m*3 4.9 C 0 km/h
688 20-02-2009 17:31:01 4.8 C 5.77 g/m*3 4.8 C 0 km/h
689 20-02-2009 17:43:01 4.7 C 5.8 g/m*3 4.7 C 0 km/h
690 20-02-2009 17:55:01 4.7 C 5.86 g/m*3 4.7 C 0 km/h
691 20-02-2009 18:07:01 4.6 C 5.76 g/m*3 4.6 C 0 km/h
692 20-02-2009 18:19:02 4.6 C 5.76 g/m*3 4.6 C 0 km/h
693 20-02-2009 18:31:01 4.6 C 5.76 g/m*3 4.6 C 0 km/h
694 20-02-2009 18:43:01 4.7 C 5.8 g/m*3 4.7 C 0 km/h
695 20-02-2009 18:55:02 4.6 C 5.82 g/m*3 4.6 C 0 km/h
696 20-02-2009 19:07:01 4.6 C 5.82 g/m*3 4.6 C 0 km/h
697 20-02-2009 19:19:02 4.5 C 5.85 g/m*3 4.5 C 0 km/h
698 20-02-2009 19:31:01 4.5 C 5.85 g/m*3 4.5 C 0 km/h
699 20-02-2009 19:43:01 4.6 C 5.96 g/m*3 4.6 C 0 km/h
700 20-02-2009 19:54:01 4.5 C 5.92 g/m*3 4.5 C 0 km/h
Sensor: Nr:Datum:Temp:Abs-Feuchte:Windchill:Wind:
Aussen-T/F 701 20-02-2009 20:06:02 4.5 C 5.92 g/m*3 4.5 C 0 km/h
702 20-02-2009 20:18:01 4.6 C 6.02 g/m*3 4.6 C 0 km/h
703 20-02-2009 20:30:01 4.6 C 6.02 g/m*3 4.6 C 0 km/h
704 20-02-2009 20:42:02 4.6 C 6.02 g/m*3 4.6 C 0 km/h
705 20-02-2009 20:54:01 4.6 C 6.02 g/m*3 4.6 C 0 km/h
706 20-02-2009 21:06:01 4.7 C 6.06 g/m*3 4.7 C 0 km/h
707 20-02-2009 21:18:01 4.8 C 6.04 g/m*3 4.8 C 0 km/h
708 20-02-2009 21:30:01 4.8 C 6.04 g/m*3 4.8 C 0 km/h
709 20-02-2009 21:42:01 4.8 C 5.97 g/m*3 4.8 C 0 km/h
710 20-02-2009 21:54:01 4.7 C 5.86 g/m*3 4.7 C 0 km/h
711 20-02-2009 22:06:01 4.6 C 5.82 g/m*3 4.6 C 0 km/h
712 20-02-2009 22:19:03 4.6 C 5.82 g/m*3 4.6 C 0 km/h
713 20-02-2009 22:31:03 4.5 C 5.78 g/m*3 4.5 C 0 km/h
714 20-02-2009 22:43:03 4.5 C 5.78 g/m*3 4.5 C 0 km/h
715 20-02-2009 22:55:03 4.5 C 5.78 g/m*3 4.5 C 0 km/h
716 20-02-2009 23:07:03 4.4 C 5.75 g/m*3 4.4 C 0 km/h
717 20-02-2009 23:19:03 4.4 C 5.75 g/m*3 4.4 C 0 km/h
718 20-02-2009 23:31:03 4.3 C 5.71 g/m*3 4.3 C 0 km/h
719 20-02-2009 23:43:03 4.3 C 5.71 g/m*3 4.3 C 0 km/h
720 20-02-2009 23:55:03 4.3 C 5.71 g/m*3 4.3 C 0 km/h
721 21-02-2009 00:07:03 4.2 C 5.67 g/m*3 4.2 C 0 km/h
722 21-02-2009 00:19:03 4.2 C 5.61 g/m*3 4.2 C 0 km/h
723 21-02-2009 00:31:03 4.1 C 5.57 g/m*3 4.1 C 0 km/h
724 21-02-2009 00:43:03 4.1 C 5.5 g/m*3 4.1 C 0 km/h
725 21-02-2009 00:55:03 4.1 C 5.44 g/m*3 4.1 C 0 km/h
Sensor: Nr:Datum:Temp:Abs-Feuchte:Windchill:Wind:
Aussen-T/F 726 21-02-2009 01:07:03 4 C 5.4 g/m*3 4 C 0 km/h
727 21-02-2009 01:19:03 4 C 5.4 g/m*3 4 C 0 km/h
728 21-02-2009 01:31:03 4 C 5.34 g/m*3 4 C 0 km/h
729 21-02-2009 01:43:04 4 C 5.34 g/m*3 4 C 0 km/h
730 21-02-2009 01:55:04 4 C 5.34 g/m*3 4 C 0 km/h
731 21-02-2009 02:07:04 4 C 5.28 g/m*3 4 C 0 km/h
732 21-02-2009 02:19:04 4 C 5.28 g/m*3 4 C 0 km/h
733 21-02-2009 02:31:04 4 C 5.28 g/m*3 4 C 0 km/h
734 21-02-2009 02:43:04 3.9 C 5.31 g/m*3 3.9 C 0 km/h
735 21-02-2009 02:55:04 3.9 C 5.31 g/m*3 3.9 C 0 km/h
736 21-02-2009 03:07:04 3.9 C 5.31 g/m*3 3.9 C 0 km/h
737 21-02-2009 03:19:04 3.8 C 5.27 g/m*3 3.8 C 0 km/h
738 21-02-2009 03:31:04 3.8 C 5.27 g/m*3 3.8 C 0 km/h
739 21-02-2009 03:43:04 3.8 C 5.27 g/m*3 3.8 C 0 km/h
740 21-02-2009 03:55:04 3.8 C 5.27 g/m*3 3.8 C 0 km/h
741 21-02-2009 04:07:04 3.8 C 5.27 g/m*3 3.8 C 0 km/h
742 21-02-2009 04:19:04 3.8 C 5.27 g/m*3 3.8 C 0 km/h
743 21-02-2009 04:31:04 3.7 C 5.23 g/m*3 3.7 C 0 km/h
744 21-02-2009 04:43:04 3.7 C 5.23 g/m*3 3.7 C 0 km/h
745 21-02-2009 04:55:04 3.7 C 5.3 g/m*3 3.7 C 0 km/h
746 21-02-2009 05:07:04 3.6 C 5.26 g/m*3 3.6 C 0 km/h
747 21-02-2009 05:19:04 3.6 C 5.26 g/m*3 3.6 C 0 km/h
748 21-02-2009 05:31:04 3.7 C 5.36 g/m*3 3.7 C 0 km/h
749 21-02-2009 05:43:05 3.8 C 5.4 g/m*3 3.8 C 0 km/h
750 21-02-2009 05:55:05 3.7 C 5.36 g/m*3 3.7 C 0 km/h
Sensor: Nr:Datum:Temp:Abs-Feuchte:Windchill:Wind:
Aussen-T/F 751 21-02-2009 06:07:05 3.7 C 5.36 g/m*3 3.7 C 0 km/h
752 21-02-2009 06:19:05 3.7 C 5.42 g/m*3 3.7 C 0 km/h
753 21-02-2009 06:31:05 3.8 C 5.46 g/m*3 3.8 C 0 km/h
754 21-02-2009 06:43:05 3.8 C 5.46 g/m*3 3.8 C 0 km/h
755 21-02-2009 06:55:05 3.8 C 5.46 g/m*3 3.8 C 0 km/h
756 21-02-2009 07:07:05 3.8 C 5.52 g/m*3 3.8 C 0 km/h
757 21-02-2009 07:19:05 3.7 C 5.48 g/m*3 3.7 C 0 km/h
758 21-02-2009 07:31:05 3.7 C 5.48 g/m*3 3.7 C 0 km/h
759 21-02-2009 07:43:05 3.7 C 5.48 g/m*3 3.7 C 0 km/h
760 21-02-2009 07:55:05 3.6 C 5.45 g/m*3 3.6 C 0 km/h
761 21-02-2009 08:07:03 3.6 C 5.45 g/m*3 3.6 C 0 km/h
762 21-02-2009 08:19:03 3.6 C 5.45 g/m*3 3.6 C 0 km/h
763 21-02-2009 08:31:02 3.6 C 5.45 g/m*3 3.6 C 0 km/h
764 21-02-2009 08:43:02 3.8 C 5.52 g/m*3 3.8 C 0 km/h
765 21-02-2009 08:55:03 3.9 C 5.56 g/m*3 3.9 C 0 km/h
766 21-02-2009 09:07:02 4 C 5.59 g/m*3 4 C 0 km/h
767 21-02-2009 09:19:02 4 C 5.53 g/m*3 4 C 0 km/h
768 21-02-2009 09:31:02 4.1 C 5.57 g/m*3 4.1 C 0 km/h
769 21-02-2009 09:43:02 4.4 C 5.68 g/m*3 4.4 C 0 km/h
770 21-02-2009 09:55:02 4.4 C 5.62 g/m*3 4.4 C 0 km/h
771 21-02-2009 10:07:01 4.5 C 5.52 g/m*3 4.5 C 0 km/h
772 21-02-2009 10:19:02 4.7 C 5.46 g/m*3 4.7 C 0 km/h
773 21-02-2009 10:31:02 5.1 C 5.47 g/m*3 5.1 C 0 km/h
774 21-02-2009 10:43:02 5.3 C 5.41 g/m*3 5.3 C 0 km/h
775 21-02-2009 10:55:01 5.5 C 5.2 g/m*3 5.5 C 0 km/h
Sensor: Nr:Datum:Temp:Abs-Feuchte:Windchill:Wind:
Aussen-T/F 776 21-02-2009 11:07:02 5.5 C 5.13 g/m*3 5.5 C 0 km/h
777 21-02-2009 11:19:01 5.7 C 5.12 g/m*3 5.7 C 0 km/h
778 21-02-2009 11:31:01 6 C 5.01 g/m*3 6 C 0 km/h
779 21-02-2009 11:43:01 6 C 4.94 g/m*3 6 C 0 km/h
780 21-02-2009 11:55:01 6.4 C 4.92 g/m*3 6.4 C 0 km/h
781 21-02-2009 12:07:01 6.7 C 4.86 g/m*3 6.7 C 0 km/h
782 21-02-2009 12:19:00 6.2 C 4.49 g/m*3 6.2 C 0 km/h
783 21-02-2009 12:31:00 6.4 C 4.62 g/m*3 6.4 C 0 km/h
784 21-02-2009 12:43:00 6.4 C 4.62 g/m*3 6.4 C 0 km/h
785 21-02-2009 12:55:00 6.4 C 4.55 g/m*3 6.4 C 0 km/h
786 21-02-2009 13:07:00 6.5 C 4.42 g/m*3 6.5 C 0 km/h
787 21-02-2009 13:19:00 6.6 C 4.23 g/m*3 6.6 C 0 km/h
788 21-02-2009 13:31:00 6.8 C 4.28 g/m*3 6.8 C 0 km/h
789 21-02-2009 13:43:00 6.7 C 4.1 g/m*3 6.7 C 0 km/h
790 21-02-2009 13:55:59 6.5 C 4.05 g/m*3 6.5 C 0 km/h
791 21-02-2009 14:07:00 6.5 C 4.05 g/m*3 6.5 C 0 km/h
792 21-02-2009 14:19:00 6.5 C 4.05 g/m*3 6.5 C 0 km/h
793 21-02-2009 14:31:59 6.8 C 4.05 g/m*3 6.8 C 0 km/h
794 21-02-2009 14:43:59 6.7 C 4.03 g/m*3 6.7 C 0 km/h
795 21-02-2009 14:54:59 6.5 C 3.97 g/m*3 6.5 C 0 km/h
796 21-02-2009 15:07:59 6.5 C 3.97 g/m*3 6.5 C 0 km/h
797 21-02-2009 15:19:59 6.4 C 3.87 g/m*3 6.4 C 0 km/h
798 21-02-2009 15:31:59 6.3 C 3.78 g/m*3 6.3 C 0 km/h
799 21-02-2009 15:43:59 6.2 C 3.75 g/m*3 6.2 C 0 km/h
800 21-02-2009 15:55:59 6.2 C 3.9 g/m*3 6.2 C 0 km/h
Sensor: Nr:Datum:Temp:Abs-Feuchte:Windchill:Wind:
Aussen-T/F 801 21-02-2009 16:07:59 6.1 C 4.02 g/m*3 6.1 C 0 km/h
802 21-02-2009 16:19:58 6 C 4.06 g/m*3 6 C 0 km/h
803 21-02-2009 16:31:58 5.8 C 4.15 g/m*3 5.8 C 0 km/h
804 21-02-2009 16:43:58 5.8 C 4.15 g/m*3 5.8 C 0 km/h
805 21-02-2009 16:55:58 5.7 C 4.2 g/m*3 5.7 C 0 km/h
806 21-02-2009 17:07:58 5.7 C 4.2 g/m*3 5.7 C 0 km/h
807 21-02-2009 17:19:57 5.7 C 4.13 g/m*3 5.7 C 0 km/h
808 21-02-2009 17:31:58 5.6 C 4.24 g/m*3 5.6 C 0 km/h
809 21-02-2009 17:43:58 5.4 C 4.26 g/m*3 5.4 C 0 km/h
810 21-02-2009 17:55:57 5.3 C 4.23 g/m*3 5.3 C 0 km/h
811 21-02-2009 18:07:57 5.1 C 4.24 g/m*3 5.1 C 0 km/h
812 21-02-2009 18:19:58 4.9 C 4.39 g/m*3 4.9 C 0 km/h
813 21-02-2009 18:31:57 4.7 C 4.46 g/m*3 4.7 C 0 km/h
814 21-02-2009 18:43:57 4.6 C 4.43 g/m*3 4.6 C 0 km/h
815 21-02-2009 18:55:57 4.5 C 4.4 g/m*3 4.5 C 0 km/h
816 21-02-2009 19:07:57 4.4 C 4.44 g/m*3 4.4 C 0 km/h
817 21-02-2009 19:19:57 4.2 C 4.32 g/m*3 4.2 C 0 km/h
818 21-02-2009 19:31:56 4.1 C 4.29 g/m*3 4.1 C 0 km/h
819 21-02-2009 19:43:56 4.2 C 4.32 g/m*3 4.2 C 0 km/h
820 21-02-2009 19:55:57 4.3 C 4.35 g/m*3 4.3 C 0 km/h
821 21-02-2009 20:07:56 4.3 C 4.41 g/m*3 4.3 C 0 km/h
822 21-02-2009 20:19:56 4.3 C 4.41 g/m*3 4.3 C 0 km/h
823 21-02-2009 20:31:56 4.3 C 4.41 g/m*3 4.3 C 0 km/h
824 21-02-2009 20:43:56 4.3 C 4.41 g/m*3 4.3 C 0 km/h
825 21-02-2009 20:55:56 4.2 C 4.38 g/m*3 4.2 C 0 km/h
Sensor: Nr:Datum:Temp:Abs-Feuchte:Windchill:Wind:
Aussen-T/F 826 21-02-2009 21:07:55 4.2 C 4.45 g/m*3 4.2 C 0 km/h
827 21-02-2009 21:19:56 4.2 C 4.45 g/m*3 4.2 C 0 km/h
828 21-02-2009 21:31:56 4.3 C 4.48 g/m*3 4.3 C 0 km/h
829 21-02-2009 21:43:56 4.3 C 4.48 g/m*3 4.3 C 0 km/h
830 21-02-2009 21:55:55 4.3 C 4.48 g/m*3 4.3 C 0 km/h
831 21-02-2009 22:07:56 4.3 C 4.48 g/m*3 4.3 C 0 km/h
832 21-02-2009 22:19:55 4.2 C 4.45 g/m*3 4.2 C 0 km/h
833 21-02-2009 22:31:55 4.2 C 4.45 g/m*3 4.2 C 0 km/h
834 21-02-2009 22:43:56 4.2 C 4.45 g/m*3 4.2 C 0 km/h
835 21-02-2009 22:56:57 4.2 C 4.45 g/m*3 4.2 C 0 km/h
836 21-02-2009 23:08:57 4.4 C 4.37 g/m*3 4.4 C 0 km/h
837 21-02-2009 23:20:57 4.5 C 4.4 g/m*3 4.5 C 0 km/h
838 21-02-2009 23:32:57 4.6 C 4.37 g/m*3 4.6 C 0 km/h
839 21-02-2009 23:44:57 4.6 C 4.37 g/m*3 4.6 C 0 km/h
840 21-02-2009 23:56:57 4.6 C 4.37 g/m*3 4.6 C 0 km/h
841 22-02-2009 00:08:57 4.4 C 4.44 g/m*3 4.4 C 0 km/h
842 22-02-2009 00:20:57 4.2 C 4.45 g/m*3 4.2 C 0 km/h
843 22-02-2009 00:32:57 4 C 4.58 g/m*3 4 C 0 km/h
844 22-02-2009 00:44:57 3.7 C 4.74 g/m*3 3.7 C 0 km/h
845 22-02-2009 00:56:57 3.7 C 4.86 g/m*3 3.7 C 0 km/h
846 22-02-2009 01:08:57 3.7 C 4.86 g/m*3 3.7 C 0 km/h
847 22-02-2009 01:20:57 3.7 C 4.86 g/m*3 3.7 C 0 km/h
848 22-02-2009 01:32:57 3.8 C 4.96 g/m*3 3.8 C 0 km/h
849 22-02-2009 01:44:58 3.6 C 4.95 g/m*3 3.6 C 0 km/h
850 22-02-2009 01:56:58 3.6 C 4.95 g/m*3 3.6 C 0 km/h
Sensor: Nr:Datum:Temp:Abs-Feuchte:Windchill:Wind:
Aussen-T/F 851 22-02-2009 02:08:58 3.5 C 5.04 g/m*3 3.5 C 0 km/h
852 22-02-2009 02:20:58 3.4 C 5.01 g/m*3 3.4 C 0 km/h
853 22-02-2009 02:32:58 3.4 C 5.07 g/m*3 3.4 C 0 km/h
854 22-02-2009 02:44:58 3.5 C 5.16 g/m*3 3.5 C 0 km/h
855 22-02-2009 02:56:58 3.5 C 5.16 g/m*3 3.5 C 0 km/h
856 22-02-2009 03:08:58 3.5 C 5.16 g/m*3 3.5 C 0 km/h
857 22-02-2009 03:20:58 3.4 C 5.13 g/m*3 3.4 C 0 km/h
858 22-02-2009 03:32:58 3.3 C 5.16 g/m*3 3.3 C 0 km/h
859 22-02-2009 03:44:58 3.3 C 5.22 g/m*3 3.3 C 0 km/h
860 22-02-2009 03:56:58 3.3 C 5.28 g/m*3 3.3 C 0 km/h
861 22-02-2009 04:08:58 3.2 C 5.24 g/m*3 3.2 C 0 km/h
862 22-02-2009 04:20:58 3.2 C 5.3 g/m*3 3.2 C 0 km/h
863 22-02-2009 04:32:58 3.3 C 5.4 g/m*3 3.3 C 0 km/h
864 22-02-2009 04:44:58 3.3 C 5.4 g/m*3 3.3 C 0 km/h
865 22-02-2009 04:56:58 3.3 C 5.4 g/m*3 3.3 C 0 km/h
866 22-02-2009 05:08:58 3.3 C 5.4 g/m*3 3.3 C 0 km/h
867 22-02-2009 05:20:58 3.4 C 5.44 g/m*3 3.4 C 0 km/h
868 22-02-2009 05:32:59 3.5 C 5.53 g/m*3 3.5 C 0 km/h
869 22-02-2009 05:44:59 3.5 C 5.47 g/m*3 3.5 C 0 km/h
870 22-02-2009 05:56:59 3.6 C 5.51 g/m*3 3.6 C 0 km/h
871 22-02-2009 06:08:59 3.7 C 5.55 g/m*3 3.7 C 0 km/h
872 22-02-2009 06:20:59 3.7 C 5.55 g/m*3 3.7 C 0 km/h
873 22-02-2009 06:32:59 3.8 C 5.58 g/m*3 3.8 C 0 km/h
874 22-02-2009 06:44:59 3.8 C 5.58 g/m*3 3.8 C 0 km/h
875 22-02-2009 06:56:59 3.8 C 5.58 g/m*3 3.8 C 0 km/h
Sensor: Nr:Datum:Temp:Abs-Feuchte:Windchill:Wind:
Aussen-T/F 876 22-02-2009 07:08:56 3.9 C 5.56 g/m*3 3.9 C 0 km/h
877 22-02-2009 07:20:56 4 C 5.59 g/m*3 4 C 0 km/h
878 22-02-2009 07:32:56 4 C 5.59 g/m*3 4 C 0 km/h
879 22-02-2009 07:44:56 4 C 5.59 g/m*3 4 C 0 km/h
880 22-02-2009 07:56:56 4.1 C 5.63 g/m*3 4.1 C 0 km/h
881 22-02-2009 08:08:56 4.1 C 5.63 g/m*3 4.1 C 0 km/h
882 22-02-2009 08:20:55 4.2 C 5.67 g/m*3 4.2 C 0 km/h
883 22-02-2009 08:32:55 4.3 C 5.71 g/m*3 4.3 C 0 km/h
884 22-02-2009 08:44:55 4.3 C 5.64 g/m*3 4.3 C 0 km/h
885 22-02-2009 08:56:55 4.3 C 5.64 g/m*3 4.3 C 0 km/h
886 22-02-2009 09:08:55 4.5 C 5.72 g/m*3 4.5 C 0 km/h
887 22-02-2009 09:20:55 4.5 C 5.72 g/m*3 4.5 C 0 km/h
888 22-02-2009 09:32:55 4.6 C 5.76 g/m*3 4.6 C 0 km/h
889 22-02-2009 09:44:55 4.6 C 5.69 g/m*3 4.6 C 0 km/h
890 22-02-2009 09:56:55 4.6 C 5.76 g/m*3 4.6 C 0 km/h
891 22-02-2009 10:08:54 4.7 C 5.8 g/m*3 4.7 C 0 km/h
892 22-02-2009 10:20:55 4.8 C 5.83 g/m*3 4.8 C 0 km/h
893 22-02-2009 10:32:54 4.9 C 5.87 g/m*3 4.9 C 0 km/h
894 22-02-2009 10:44:55 5 C 5.84 g/m*3 5 C 0 km/h
895 22-02-2009 10:56:55 5.1 C 5.81 g/m*3 5.1 C 0 km/h
896 22-02-2009 11:08:54 5.2 C 5.85 g/m*3 5.2 C 0 km/h
897 22-02-2009 11:20:55 5.4 C 6 g/m*3 5.4 C 0 km/h
898 22-02-2009 11:32:54 5.4 C 6 g/m*3 5.4 C 0 km/h
899 22-02-2009 11:44:54 5.8 C 6.09 g/m*3 5.8 C 0 km/h
900 22-02-2009 11:56:54 6.1 C 6.14 g/m*3 6.1 C 0 km/h
Sensor: Nr:Datum:Temp:Abs-Feuchte:Windchill:Wind:
Aussen-T/F 901 22-02-2009 12:08:54 6.2 C 6.18 g/m*3 6.2 C 0 km/h
902 22-02-2009 12:20:54 6.2 C 6.18 g/m*3 6.2 C 0 km/h
903 22-02-2009 12:32:54 6.3 C 6.22 g/m*3 6.3 C 0 km/h
904 22-02-2009 12:44:54 6.5 C 6.22 g/m*3 6.5 C 0 km/h
905 22-02-2009 12:56:54 6.9 C 6.16 g/m*3 6.9 C 0 km/h
906 22-02-2009 13:08:54 7.1 C 5.93 g/m*3 7.1 C 0 km/h
907 22-02-2009 13:20:53 7.1 C 5.85 g/m*3 7.1 C 0 km/h
908 22-02-2009 13:32:53 7.2 C 5.73 g/m*3 7.2 C 0 km/h
909 22-02-2009 13:44:53 7.2 C 5.73 g/m*3 7.2 C 0 km/h
910 22-02-2009 13:56:53 7.3 C 5.69 g/m*3 7.3 C 0 km/h
911 22-02-2009 14:08:53 7.5 C 5.68 g/m*3 7.5 C 0 km/h
912 22-02-2009 14:20:52 7.6 C 5.64 g/m*3 7.6 C 0 km/h
913 22-02-2009 14:32:53 7.5 C 5.52 g/m*3 7.5 C 0 km/h
914 22-02-2009 14:44:52 7.5 C 5.6 g/m*3 7.5 C 0 km/h
915 22-02-2009 14:56:52 7.4 C 5.65 g/m*3 7.4 C 0 km/h
916 22-02-2009 15:08:52 7.3 C 5.77 g/m*3 7.3 C 0 km/h
917 22-02-2009 15:20:53 7.1 C 6.01 g/m*3 7.1 C 0 km/h
918 22-02-2009 15:32:52 7 C 6.28 g/m*3 7 C 0 km/h
919 22-02-2009 15:44:52 7 C 6.43 g/m*3 7 C 0 km/h
920 22-02-2009 15:56:52 6.9 C 6.54 g/m*3 6.9 C 0 km/h
921 22-02-2009 16:08:52 6.9 C 6.7 g/m*3 6.9 C 0 km/h
922 22-02-2009 16:20:52 6.8 C 6.65 g/m*3 6.8 C 0 km/h
923 22-02-2009 16:32:52 6.8 C 6.73 g/m*3 6.8 C 0 km/h
924 22-02-2009 16:44:51 6.8 C 6.73 g/m*3 6.8 C 0 km/h
925 22-02-2009 16:56:51 6.7 C 6.69 g/m*3 6.7 C 0 km/h
Sensor: Nr:Datum:Temp:Abs-Feuchte:Windchill:Wind:
Aussen-T/F 926 22-02-2009 17:08:51 6.7 C 6.76 g/m*3 6.7 C 0 km/h
927 22-02-2009 17:20:51 6.7 C 6.76 g/m*3 6.7 C 0 km/h
928 22-02-2009 17:32:51 6.6 C 6.64 g/m*3 6.6 C 0 km/h
929 22-02-2009 17:44:51 6.6 C 6.57 g/m*3 6.6 C 0 km/h
930 22-02-2009 17:56:51 6.6 C 6.49 g/m*3 6.6 C 0 km/h
931 22-02-2009 18:08:51 6.6 C 6.49 g/m*3 6.6 C 0 km/h
932 22-02-2009 18:20:50 6.6 C 6.42 g/m*3 6.6 C 0 km/h
933 22-02-2009 18:32:51 6.5 C 6.3 g/m*3 6.5 C 0 km/h
934 22-02-2009 18:44:50 6.6 C 6.27 g/m*3 6.6 C 0 km/h
935 22-02-2009 18:56:50 6.4 C 6.18 g/m*3 6.4 C 0 km/h
936 22-02-2009 19:08:50 6.3 C 6.22 g/m*3 6.3 C 0 km/h
937 22-02-2009 19:20:50 6.2 C 6.32 g/m*3 6.2 C 0 km/h
938 22-02-2009 19:32:50 6.1 C 6.28 g/m*3 6.1 C 0 km/h
939 22-02-2009 19:44:49 6 C 6.24 g/m*3 6 C 0 km/h
940 22-02-2009 19:56:49 5.9 C 6.2 g/m*3 5.9 C 0 km/h
941 22-02-2009 20:08:50 5.9 C 6.13 g/m*3 5.9 C 0 km/h
942 22-02-2009 20:20:50 5.9 C 6.06 g/m*3 5.9 C 0 km/h
943 22-02-2009 20:32:49 5.9 C 6.06 g/m*3 5.9 C 0 km/h
944 22-02-2009 20:44:50 6 C 5.95 g/m*3 6 C 0 km/h
945 22-02-2009 20:56:50 6.2 C 5.88 g/m*3 6.2 C 0 km/h
946 22-02-2009 21:08:49 6.1 C 5.77 g/m*3 6.1 C 0 km/h
947 22-02-2009 21:20:49 6 C 5.81 g/m*3 6 C 0 km/h
948 22-02-2009 21:32:49 5.9 C 5.84 g/m*3 5.9 C 0 km/h
949 22-02-2009 21:44:49 5.9 C 5.91 g/m*3 5.9 C 0 km/h
950 22-02-2009 21:56:49 5.9 C 5.91 g/m*3 5.9 C 0 km/h
Sensor: Nr:Datum:Temp:Abs-Feuchte:Windchill:Wind:
Aussen-T/F 951 22-02-2009 22:08:48 5.9 C 5.98 g/m*3 5.9 C 0 km/h
952 22-02-2009 22:20:49 5.9 C 5.98 g/m*3 5.9 C 0 km/h
953 22-02-2009 22:33:49 5.8 C 6.02 g/m*3 5.8 C 0 km/h
954 22-02-2009 22:45:49 5.7 C 6.05 g/m*3 5.7 C 0 km/h
955 22-02-2009 22:57:49 5.7 C 6.05 g/m*3 5.7 C 0 km/h
956 22-02-2009 23:09:49 5.6 C 6.01 g/m*3 5.6 C 0 km/h
957 22-02-2009 23:21:49 5.6 C 5.94 g/m*3 5.6 C 0 km/h
958 22-02-2009 23:33:50 5.7 C 5.84 g/m*3 5.7 C 0 km/h
959 22-02-2009 23:45:50 5.7 C 5.76 g/m*3 5.7 C 0 km/h
960 22-02-2009 23:57:50 5.8 C 5.73 g/m*3 5.8 C 0 km/h
961 23-02-2009 00:09:50 5.8 C 5.59 g/m*3 5.8 C 0 km/h
962 23-02-2009 00:21:50 5.9 C 5.48 g/m*3 5.9 C 0 km/h
963 23-02-2009 00:33:50 5.8 C 5.37 g/m*3 5.8 C 0 km/h
964 23-02-2009 00:45:50 5.8 C 5.3 g/m*3 5.8 C 0 km/h
965 23-02-2009 00:57:50 5.6 C 5.09 g/m*3 5.6 C 0 km/h
966 23-02-2009 01:09:50 5.2 C 4.96 g/m*3 5.2 C 0 km/h
967 23-02-2009 01:21:50 5 C 4.89 g/m*3 5 C 0 km/h
968 23-02-2009 01:33:50 5.1 C 4.79 g/m*3 5.1 C 0 km/h
969 23-02-2009 01:45:50 5.2 C 4.68 g/m*3 5.2 C 0 km/h
970 23-02-2009 01:57:50 5.2 C 4.61 g/m*3 5.2 C 0 km/h
971 23-02-2009 02:09:50 5.2 C 4.54 g/m*3 5.2 C 0 km/h
972 23-02-2009 02:21:50 5.2 C 4.48 g/m*3 5.2 C 0 km/h
973 23-02-2009 02:33:50 5.3 C 4.44 g/m*3 5.3 C 0 km/h
974 23-02-2009 02:45:50 5.3 C 4.37 g/m*3 5.3 C 0 km/h
975 23-02-2009 02:57:50 5.3 C 4.3 g/m*3 5.3 C 0 km/h
Sensor: Nr:Datum:Temp:Abs-Feuchte:Windchill:Wind:
Aussen-T/F 976 23-02-2009 03:09:50 5.4 C 4.26 g/m*3 5.4 C 0 km/h
977 23-02-2009 03:21:51 5.6 C 4.03 g/m*3 5.6 C 0 km/h
978 23-02-2009 03:33:51 5.4 C 3.98 g/m*3 5.4 C 0 km/h
979 23-02-2009 03:45:51 5.3 C 4.02 g/m*3 5.3 C 0 km/h
980 23-02-2009 03:57:51 5.3 C 4.02 g/m*3 5.3 C 0 km/h
981 23-02-2009 04:09:51 5.3 C 3.95 g/m*3 5.3 C 0 km/h
982 23-02-2009 04:21:51 5.2 C 3.86 g/m*3 5.2 C 0 km/h
983 23-02-2009 04:33:51 5.2 C 3.86 g/m*3 5.2 C 0 km/h
984 23-02-2009 04:45:51 5.2 C 3.92 g/m*3 5.2 C 0 km/h
985 23-02-2009 04:57:51 5.3 C 3.88 g/m*3 5.3 C 0 km/h
986 23-02-2009 05:09:51 5.4 C 4.05 g/m*3 5.4 C 0 km/h
987 23-02-2009 05:21:51 5.4 C 4.12 g/m*3 5.4 C 0 km/h
988 23-02-2009 05:33:51 5.4 C 4.12 g/m*3 5.4 C 0 km/h
989 23-02-2009 05:45:51 5.3 C 4.09 g/m*3 5.3 C 0 km/h
990 23-02-2009 05:57:51 5 C 4.21 g/m*3 5 C 0 km/h
991 23-02-2009 06:09:51 4.2 C 4.64 g/m*3 4.2 C 0 km/h
992 23-02-2009 06:21:51 4.2 C 4.9 g/m*3 4.2 C 0 km/h
993 23-02-2009 06:33:51 4 C 5.02 g/m*3 4 C 0 km/h
994 23-02-2009 06:45:51 3.9 C 5.18 g/m*3 3.9 C 0 km/h
995 23-02-2009 06:57:51 3.8 C 5.21 g/m*3 3.8 C 0 km/h
996 23-02-2009 07:09:52 3.9 C 5.31 g/m*3 3.9 C 0 km/h
997 23-02-2009 07:21:52 4 C 5.28 g/m*3 4 C 0 km/h
998 23-02-2009 07:33:52 4 C 5.28 g/m*3 4 C 0 km/h
999 23-02-2009 07:45:52 4.3 C 5.25 g/m*3 4.3 C 0 km/h
1000 23-02-2009 07:57:52 4.7 C 5.13 g/m*3 4.7 C 0 km/h
Sensor: Nr:Datum:Temp:Abs-Feuchte:Windchill:Wind:
Aussen-T/F 1001 23-02-2009 08:09:52 4.8 C 4.96 g/m*3 4.8 C 0 km/h
1002 23-02-2009 08:21:52 4.9 C 4.93 g/m*3 4.9 C 0 km/h
1003 23-02-2009 08:33:52 5 C 4.82 g/m*3 5 C 0 km/h
1004 23-02-2009 08:45:52 5.1 C 4.79 g/m*3 5.1 C 0 km/h
1005 23-02-2009 08:57:52 5.2 C 4.75 g/m*3 5.2 C 0 km/h
1006 23-02-2009 09:09:52 5 C 4.89 g/m*3 5 C 0 km/h
1007 23-02-2009 09:21:52 4.9 C 5.06 g/m*3 4.9 C 0 km/h
1008 23-02-2009 09:33:49 5 C 5.03 g/m*3 5 C 0 km/h
1009 23-02-2009 09:45:48 5.2 C 4.89 g/m*3 5.2 C 0 km/h
1010 23-02-2009 09:57:48 5.2 C 4.89 g/m*3 5.2 C 0 km/h
1011 23-02-2009 10:09:49 5.3 C 4.85 g/m*3 5.3 C 0 km/h
1012 23-02-2009 10:21:49 5.6 C 4.81 g/m*3 5.6 C 0 km/h
1013 23-02-2009 10:33:48 5.8 C 4.87 g/m*3 5.8 C 0 km/h
1014 23-02-2009 10:45:48 6 C 4.79 g/m*3 6 C 0 km/h
1015 23-02-2009 10:57:48 6.3 C 4.81 g/m*3 6.3 C 0 km/h
1016 23-02-2009 11:09:48 6.7 C 4.79 g/m*3 6.7 C 0 km/h
1017 23-02-2009 11:21:48 6.6 C 4.68 g/m*3 6.6 C 0 km/h
1018 23-02-2009 11:33:48 6.6 C 4.68 g/m*3 6.6 C 0 km/h
1019 23-02-2009 11:45:47 6.6 C 4.68 g/m*3 6.6 C 0 km/h
1020 23-02-2009 11:57:47 6.7 C 4.64 g/m*3 6.7 C 0 km/h
1021 23-02-2009 12:09:48 6.7 C 4.71 g/m*3 6.7 C 0 km/h
1022 23-02-2009 12:21:47 6.8 C 4.67 g/m*3 6.8 C 0 km/h
1023 23-02-2009 12:33:47 6.9 C 4.62 g/m*3 6.9 C 0 km/h
1024 23-02-2009 12:45:47 7 C 4.57 g/m*3 7 C 0 km/h
1025 23-02-2009 12:57:47 7.3 C 4.58 g/m*3 7.3 C 0 km/h
Sensor: Nr:Datum:Temp:Abs-Feuchte:Windchill:Wind:
Aussen-T/F 1026 23-02-2009 13:09:47 7.3 C 4.66 g/m*3 7.3 C 0 km/h
1027 23-02-2009 13:21:47 6.4 C 4.92 g/m*3 6.4 C 0 km/h
1028 23-02-2009 13:33:47 5.9 C 5.34 g/m*3 5.9 C 0 km/h
1029 23-02-2009 13:45:47 5.9 C 5.41 g/m*3 5.9 C 0 km/h
1030 23-02-2009 13:57:47 6.1 C 5.48 g/m*3 6.1 C 0 km/h
1031 23-02-2009 14:09:46 6.2 C 5.37 g/m*3 6.2 C 0 km/h
1032 23-02-2009 14:21:47 6.4 C 5.44 g/m*3 6.4 C 0 km/h
1033 23-02-2009 14:33:46 6.3 C 5.18 g/m*3 6.3 C 0 km/h
1034 23-02-2009 14:45:46 5.9 C 5.26 g/m*3 5.9 C 0 km/h
1035 23-02-2009 14:57:46 5.7 C 5.48 g/m*3 5.7 C 0 km/h
1036 23-02-2009 15:09:46 5.8 C 5.59 g/m*3 5.8 C 0 km/h
1037 23-02-2009 15:21:46 6 C 5.59 g/m*3 6 C 0 km/h
1038 23-02-2009 15:33:46 6.5 C 5.47 g/m*3 6.5 C 0 km/h
1039 23-02-2009 15:45:45 6.9 C 5.47 g/m*3 6.9 C 0 km/h
1040 23-02-2009 15:57:45 6.8 C 4.89 g/m*3 6.8 C 0 km/h
1041 23-02-2009 16:09:46 6.3 C 4.96 g/m*3 6.3 C 0 km/h
1042 23-02-2009 16:21:45 6 C 5.08 g/m*3 6 C 0 km/h
1043 23-02-2009 16:33:45 5.8 C 5.16 g/m*3 5.8 C 0 km/h
1044 23-02-2009 16:45:45 5.9 C 5.19 g/m*3 5.9 C 0 km/h
1045 23-02-2009 16:57:45 5.9 C 5.05 g/m*3 5.9 C 0 km/h
1046 23-02-2009 17:09:45 5.9 C 5.05 g/m*3 5.9 C 0 km/h
1047 23-02-2009 17:21:44 5.7 C 5.05 g/m*3 5.7 C 0 km/h
1048 23-02-2009 17:33:45 5.7 C 4.98 g/m*3 5.7 C 0 km/h
1049 23-02-2009 17:45:44 5.7 C 4.91 g/m*3 5.7 C 0 km/h
1050 23-02-2009 17:57:44 5.7 C 4.91 g/m*3 5.7 C 0 km/h
Sensor: Nr:Datum:Temp:Abs-Feuchte:Windchill:Wind:
Aussen-T/F 1051 23-02-2009 18:09:03 5.7 C 4.84 g/m*3 5.7 C 0 km/h
1052 23-02-2009 18:21:02 5.6 C 4.88 g/m*3 5.6 C 0 km/h
1053 23-02-2009 18:33:02 5.4 C 4.81 g/m*3 5.4 C 0 km/h
1054 23-02-2009 18:45:02 5.3 C 4.85 g/m*3 5.3 C 0 km/h
1055 23-02-2009 18:57:02 5.3 C 4.85 g/m*3 5.3 C 0 km/h
1056 23-02-2009 19:09:02 5.4 C 4.88 g/m*3 5.4 C 0 km/h
1057 23-02-2009 19:21:01 5.4 C 4.88 g/m*3 5.4 C 0 km/h
1058 23-02-2009 19:33:02 5.4 C 4.6 g/m*3 5.4 C 0 km/h
1059 23-02-2009 19:45:01 5.6 C 4.45 g/m*3 5.6 C 0 km/h
1060 23-02-2009 19:57:01 5.6 C 4.31 g/m*3 5.6 C 0 km/h
1061 23-02-2009 20:09:01 5.6 C 4.31 g/m*3 5.6 C 0 km/h
1062 23-02-2009 20:21:01 5.6 C 4.17 g/m*3 5.6 C 0 km/h
1063 23-02-2009 20:33:01 5.6 C 4.1 g/m*3 5.6 C 0 km/h
1064 23-02-2009 20:45:00 5.6 C 4.1 g/m*3 5.6 C 0 km/h
1065 23-02-2009 20:57:00 5.6 C 4.03 g/m*3 5.6 C 0 km/h
1066 23-02-2009 21:09:01 5.6 C 4.03 g/m*3 5.6 C 0 km/h
1067 23-02-2009 21:21:00 5.7 C 3.99 g/m*3 5.7 C 0 km/h
1068 23-02-2009 21:34:01 5.5 C 4 g/m*3 5.5 C 0 km/h
1069 23-02-2009 21:46:01 5.6 C 4.03 g/m*3 5.6 C 0 km/h
1070 23-02-2009 21:58:01 5.5 C 4 g/m*3 5.5 C 0 km/h
1071 23-02-2009 22:10:01 5.3 C 4.09 g/m*3 5.3 C 0 km/h
1072 23-02-2009 22:22:01 5.1 C 4.17 g/m*3 5.1 C 0 km/h
1073 23-02-2009 22:34:01 5 C 4.28 g/m*3 5 C 0 km/h
1074 23-02-2009 22:46:01 4.9 C 4.39 g/m*3 4.9 C 0 km/h
1075 23-02-2009 22:58:01 4.6 C 4.5 g/m*3 4.6 C 0 km/h
Sensor: Nr:Datum:Temp:Abs-Feuchte:Windchill:Wind:
Aussen-T/F 1076 23-02-2009 23:10:01 4.6 C 4.57 g/m*3 4.6 C 0 km/h
1077 23-02-2009 23:22:01 4.6 C 4.57 g/m*3 4.6 C 0 km/h
1078 23-02-2009 23:34:01 4.6 C 4.57 g/m*3 4.6 C 0 km/h
1079 23-02-2009 23:46:01 4.6 C 4.5 g/m*3 4.6 C 0 km/h
1080 23-02-2009 23:58:01 4.7 C 4.53 g/m*3 4.7 C 0 km/h
1081 24-02-2009 00:10:01 4.7 C 4.53 g/m*3 4.7 C 0 km/h
1082 24-02-2009 00:22:01 4.7 C 4.46 g/m*3 4.7 C 0 km/h
1083 24-02-2009 00:34:01 4.7 C 4.53 g/m*3 4.7 C 0 km/h
1084 24-02-2009 00:46:01 4.7 C 4.46 g/m*3 4.7 C 0 km/h
1085 24-02-2009 00:58:01 4.7 C 4.46 g/m*3 4.7 C 0 km/h
1086 24-02-2009 01:10:02 4.6 C 4.43 g/m*3 4.6 C 0 km/h
1087 24-02-2009 01:22:02 4.6 C 4.43 g/m*3 4.6 C 0 km/h
1088 24-02-2009 01:34:02 4.5 C 4.47 g/m*3 4.5 C 0 km/h
1089 24-02-2009 01:46:02 4.5 C 4.47 g/m*3 4.5 C 0 km/h
1090 24-02-2009 01:58:02 4.5 C 4.47 g/m*3 4.5 C 0 km/h
1091 24-02-2009 02:10:02 4.4 C 4.51 g/m*3 4.4 C 0 km/h
1092 24-02-2009 02:22:02 4.3 C 4.61 g/m*3 4.3 C 0 km/h
1093 24-02-2009 02:34:02 4.2 C 4.64 g/m*3 4.2 C 0 km/h
1094 24-02-2009 02:46:02 4.3 C 4.67 g/m*3 4.3 C 0 km/h
1095 24-02-2009 02:58:02 4.3 C 4.61 g/m*3 4.3 C 0 km/h
1096 24-02-2009 03:10:02 4.2 C 4.57 g/m*3 4.2 C 0 km/h
1097 24-02-2009 03:22:02 4.2 C 4.57 g/m*3 4.2 C 0 km/h
1098 24-02-2009 03:34:02 4.2 C 4.57 g/m*3 4.2 C 0 km/h
1099 24-02-2009 03:46:02 4.1 C 4.54 g/m*3 4.1 C 0 km/h
1100 24-02-2009 03:58:02 4.1 C 4.54 g/m*3 4.1 C 0 km/h
Sensor: Nr:Datum:Temp:Abs-Feuchte:Windchill:Wind:
Aussen-T/F 1101 24-02-2009 04:10:02 4.2 C 4.51 g/m*3 4.2 C 0 km/h
1102 24-02-2009 04:22:02 4.1 C 4.48 g/m*3 4.1 C 0 km/h
1103 24-02-2009 04:34:02 4.1 C 4.42 g/m*3 4.1 C 0 km/h
1104 24-02-2009 04:46:02 4.1 C 4.42 g/m*3 4.1 C 0 km/h
1105 24-02-2009 04:58:02 4.1 C 4.35 g/m*3 4.1 C 0 km/h
1106 24-02-2009 05:10:03 4.1 C 4.35 g/m*3 4.1 C 0 km/h
1107 24-02-2009 05:22:03 4.1 C 4.35 g/m*3 4.1 C 0 km/h
1108 24-02-2009 05:34:03 4 C 4.32 g/m*3 4 C 0 km/h
1109 24-02-2009 05:46:03 4 C 4.32 g/m*3 4 C 0 km/h
1110 24-02-2009 05:58:03 4.1 C 4.35 g/m*3 4.1 C 0 km/h
1111 24-02-2009 06:10:03 4.1 C 4.35 g/m*3 4.1 C 0 km/h
1112 24-02-2009 06:22:03 4.1 C 4.35 g/m*3 4.1 C 0 km/h
1113 24-02-2009 06:34:03 4 C 4.32 g/m*3 4 C 0 km/h
1114 24-02-2009 06:46:03 4.1 C 4.29 g/m*3 4.1 C 0 km/h
1115 24-02-2009 06:58:03 4 C 4.32 g/m*3 4 C 0 km/h
1116 24-02-2009 07:10:01 4 C 4.32 g/m*3 4 C 0 km/h
1117 24-02-2009 07:22:01 4 C 4.32 g/m*3 4 C 0 km/h
1118 24-02-2009 07:34:01 4 C 4.32 g/m*3 4 C 0 km/h
1119 24-02-2009 07:46:01 4 C 4.32 g/m*3 4 C 0 km/h
1120 24-02-2009 07:58:01 4 C 4.26 g/m*3 4 C 0 km/h
1121 24-02-2009 08:10:00 4.1 C 4.29 g/m*3 4.1 C 0 km/h
1122 24-02-2009 08:22:01 4.1 C 4.29 g/m*3 4.1 C 0 km/h
1123 24-02-2009 08:34:00 4.1 C 4.29 g/m*3 4.1 C 0 km/h
1124 24-02-2009 08:46:00 4.2 C 4.32 g/m*3 4.2 C 0 km/h
1125 24-02-2009 08:58:01 4.2 C 4.32 g/m*3 4.2 C 0 km/h
Sensor: Nr:Datum:Temp:Abs-Feuchte:Windchill:Wind:
Aussen-T/F 1126 24-02-2009 09:09:59 4.3 C 4.35 g/m*3 4.3 C 0 km/h
1127 24-02-2009 09:22:00 4.4 C 4.31 g/m*3 4.4 C 0 km/h
1128 24-02-2009 09:34:59 4.6 C 4.3 g/m*3 4.6 C 0 km/h
1129 24-02-2009 09:46:00 4.8 C 4.36 g/m*3 4.8 C 0 km/h
1130 24-02-2009 09:58:00 4.7 C 4.26 g/m*3 4.7 C 0 km/h
1131 24-02-2009 10:10:59 4.9 C 4.25 g/m*3 4.9 C 0 km/h
1132 24-02-2009 10:22:59 5 C 4.21 g/m*3 5 C 0 km/h
1133 24-02-2009 10:34:59 5.1 C 4.24 g/m*3 5.1 C 0 km/h
1134 24-02-2009 10:46:59 5.3 C 4.3 g/m*3 5.3 C 0 km/h
1135 24-02-2009 10:59:00 5.1 C 4.24 g/m*3 5.1 C 0 km/h
1136 24-02-2009 11:10:58 5.1 C 4.24 g/m*3 5.1 C 0 km/h
1137 24-02-2009 11:22:59 5.4 C 4.4 g/m*3 5.4 C 0 km/h
1138 24-02-2009 11:34:59 5.4 C 4.26 g/m*3 5.4 C 0 km/h
1139 24-02-2009 11:46:58 5.7 C 4.34 g/m*3 5.7 C 0 km/h
1140 24-02-2009 11:58:58 5.9 C 3.97 g/m*3 5.9 C 0 km/h
1141 24-02-2009 12:10:59 6.1 C 3.8 g/m*3 6.1 C 0 km/h
1142 24-02-2009 12:22:58 6 C 3.7 g/m*3 6 C 0 km/h
1143 24-02-2009 12:34:58 6.1 C 3.8 g/m*3 6.1 C 0 km/h
1144 24-02-2009 12:46:58 6.3 C 4 g/m*3 6.3 C 0 km/h
1145 24-02-2009 12:58:58 6 C 3.85 g/m*3 6 C 0 km/h
1146 24-02-2009 13:10:58 6.2 C 3.82 g/m*3 6.2 C 0 km/h
1147 24-02-2009 13:22:57 6.3 C 3.78 g/m*3 6.3 C 0 km/h
1148 24-02-2009 13:34:57 6.4 C 3.8 g/m*3 6.4 C 0 km/h
1149 24-02-2009 13:46:57 6.7 C 3.8 g/m*3 6.7 C 0 km/h
1150 24-02-2009 13:58:57 6.8 C 3.67 g/m*3 6.8 C 0 km/h
Sensor: Nr:Datum:Temp:Abs-Feuchte:Windchill:Wind:
Aussen-T/F 1151 24-02-2009 14:10:57 6.9 C 3.54 g/m*3 6.9 C 0 km/h
1152 24-02-2009 14:22:57 6.4 C 3.65 g/m*3 6.4 C 0 km/h
1153 24-02-2009 14:34:57 6.7 C 3.72 g/m*3 6.7 C 0 km/h
1154 24-02-2009 14:46:56 6.9 C 3.77 g/m*3 6.9 C 0 km/h
1155 24-02-2009 14:58:56 7.1 C 3.59 g/m*3 7.1 C 0 km/h
1156 24-02-2009 15:10:56 7 C 3.41 g/m*3 7 C 0 km/h
1157 24-02-2009 15:22:57 6.9 C 3.39 g/m*3 6.9 C 0 km/h
1158 24-02-2009 15:34:56 6.9 C 3.31 g/m*3 6.9 C 0 km/h
1159 24-02-2009 15:46:56 7.5 C 3.44 g/m*3 7.5 C 0 km/h
1160 24-02-2009 15:58:56 7.6 C 3.3 g/m*3 7.6 C 0 km/h
1161 24-02-2009 16:10:56 8.1 C 3.25 g/m*3 8.1 C 0 km/h
1162 24-02-2009 16:22:56 8.1 C 3 g/m*3 8.1 C 0 km/h
1163 24-02-2009 16:34:55 7.9 C 3.04 g/m*3 7.9 C 0 km/h
1164 24-02-2009 16:46:56 8.4 C 3.05 g/m*3 8.4 C 0 km/h
1165 24-02-2009 16:58:57 7.8 C 3.1 g/m*3 7.8 C 0 km/h
1166 24-02-2009 17:10:55 7.2 C 3.14 g/m*3 7.2 C 0 km/h
1167 24-02-2009 17:22:55 6.6 C 3.17 g/m*3 6.6 C 0 km/h
1168 24-02-2009 17:34:55 6.5 C 3.15 g/m*3 6.5 C 0 km/h
1169 24-02-2009 17:46:55 6.5 C 3.37 g/m*3 6.5 C 0 km/h
1170 24-02-2009 17:58:55 6.3 C 3.41 g/m*3 6.3 C 0 km/h
1171 24-02-2009 18:10:55 6.2 C 3.24 g/m*3 6.2 C 0 km/h
1172 24-02-2009 18:22:54 6.1 C 3.29 g/m*3 6.1 C 0 km/h
1173 24-02-2009 18:34:55 5.9 C 3.53 g/m*3 5.9 C 0 km/h
1174 24-02-2009 18:46:54 5.8 C 3.58 g/m*3 5.8 C 0 km/h
1175 24-02-2009 18:58:54 5.6 C 3.68 g/m*3 5.6 C 0 km/h
Sensor: Nr:Datum:Temp:Abs-Feuchte:Windchill:Wind:
Aussen-T/F 1176 24-02-2009 19:10:54 5.4 C 3.77 g/m*3 5.4 C 0 km/h
1177 24-02-2009 19:22:54 5 C 3.67 g/m*3 5 C 0 km/h
1178 24-02-2009 19:34:54 4.4 C 3.72 g/m*3 4.4 C 0 km/h
1179 24-02-2009 19:46:53 3.9 C 3.6 g/m*3 3.9 C 0 km/h
1180 24-02-2009 19:58:53 3.5 C 3.63 g/m*3 3.5 C 0 km/h
1181 24-02-2009 20:10:54 3.4 C 3.6 g/m*3 3.4 C 0 km/h
1182 24-02-2009 20:22:54 3.4 C 3.73 g/m*3 3.4 C 0 km/h
1183 24-02-2009 20:34:53 3.5 C 3.94 g/m*3 3.5 C 0 km/h
1184 24-02-2009 20:46:54 3.4 C 4.09 g/m*3 3.4 C 0 km/h
1185 24-02-2009 20:58:54 3.3 C 4.13 g/m*3 3.3 C 0 km/h
1186 24-02-2009 21:10:53 3.1 C 4.13 g/m*3 3.1 C 0 km/h
1187 24-02-2009 21:22:53 2.8 C 4.16 g/m*3 2.8 C 0 km/h
1188 24-02-2009 21:34:52 2.7 C 4.2 g/m*3 2.7 C 0 km/h
1189 24-02-2009 21:46:53 2.8 C 4.28 g/m*3 2.8 C 0 km/h
1190 24-02-2009 21:58:53 2.7 C 4.2 g/m*3 2.7 C 0 km/h
1191 24-02-2009 22:10:52 3 C 4.34 g/m*3 3 C 0 km/h
1192 24-02-2009 22:22:52 2.8 C 4.22 g/m*3 2.8 C 0 km/h
1193 24-02-2009 22:34:53 2.6 C 4.22 g/m*3 2.6 C 0 km/h
1194 24-02-2009 22:46:53 2.6 C 4.22 g/m*3 2.6 C 0 km/h
1195 24-02-2009 22:58:53 2.6 C 4.28 g/m*3 2.6 C 0 km/h
1196 24-02-2009 23:10:53 2.6 C 4.22 g/m*3 2.6 C 0 km/h
1197 24-02-2009 23:22:53 2.4 C 4.23 g/m*3 2.4 C 0 km/h
1198 24-02-2009 23:34:53 2.3 C 4.2 g/m*3 2.3 C 0 km/h
1199 24-02-2009 23:46:53 2 C 4.17 g/m*3 2 C 0 km/h
1200 24-02-2009 23:58:53 1.8 C 4.17 g/m*3 1.8 C 0 km/h
Sensor: Nr:Datum:Temp:Abs-Feuchte:Windchill:Wind:
Aussen-T/F 1201 25-02-2009 00:10:53 1.7 C 4.19 g/m*3 1.7 C 0 km/h
1202 25-02-2009 00:22:52 1.7 C 4.19 g/m*3 1.7 C 0 km/h
1203 25-02-2009 00:34:52 1.5 C 4.19 g/m*3 1.5 C 0 km/h
1204 25-02-2009 00:46:51 1.3 C 4.19 g/m*3 1.3 C 0 km/h
1205 25-02-2009 00:58:51 1.1 C 4.13 g/m*3 1.1 C 0 km/h
1206 25-02-2009 01:10:52 1.1 C 4.18 g/m*3 1.1 C 0 km/h
1207 25-02-2009 01:22:52 0.9 C 4.18 g/m*3 0.9 C 0 km/h
1208 25-02-2009 01:34:51 0.7 C 4.17 g/m*3 0.7 C 0 km/h
1209 25-02-2009 01:46:51 0.7 C 4.17 g/m*3 0.7 C 0 km/h
1210 25-02-2009 01:58:51 0.6 C 4.19 g/m*3 0.6 C 0 km/h
1211 25-02-2009 02:10:51 0.5 C 4.16 g/m*3 0.5 C 0 km/h
1212 25-02-2009 02:22:51 0.2 C 4.08 g/m*3 0.2 C 0 km/h
1213 25-02-2009 02:34:50 0 C 4.02 g/m*3 0 C 0 km/h
1214 25-02-2009 02:47:53 -0.3 C 3.94 g/m*3 -0.3 C 0 km/h
1215 25-02-2009 02:59:53 -0.3 C 3.94 g/m*3 -0.3 C 0 km/h
1216 25-02-2009 03:11:52 -0.4 C 3.96 g/m*3 -0.4 C 0 km/h
1217 25-02-2009 03:23:52 -0.5 C 3.93 g/m*3 -0.5 C 0 km/h
1218 25-02-2009 03:35:52 -0.4 C 3.96 g/m*3 -0.4 C 0 km/h
1219 25-02-2009 03:47:52 -0.7 C 3.88 g/m*3 -0.7 C 0 km/h
1220 25-02-2009 03:59:52 -0.7 C 3.88 g/m*3 -0.7 C 0 km/h
1221 25-02-2009 04:11:52 -0.8 C 3.85 g/m*3 -0.8 C 0 km/h
1222 25-02-2009 04:23:52 -0.8 C 3.85 g/m*3 -0.8 C 0 km/h
1223 25-02-2009 04:35:51 -0.8 C 3.9 g/m*3 -0.8 C 0 km/h
1224 25-02-2009 04:47:51 -0.9 C 3.91 g/m*3 -0.9 C 0 km/h
1225 25-02-2009 04:59:51 -0.7 C 4.02 g/m*3 -0.7 C 0 km/h
Sensor: Nr:Datum:Temp:Abs-Feuchte:Windchill:Wind:
Aussen-T/F 1226 25-02-2009 05:11:51 -0.7 C 4.02 g/m*3 -0.7 C 0 km/h
1227 25-02-2009 05:23:52 -0.6 C 4.09 g/m*3 -0.6 C 0 km/h
1228 25-02-2009 05:35:51 -0.7 C 4.11 g/m*3 -0.7 C 0 km/h
1229 25-02-2009 05:47:51 -0.6 C 4.14 g/m*3 -0.6 C 0 km/h
1230 25-02-2009 05:59:51 -0.6 C 4.14 g/m*3 -0.6 C 0 km/h
1231 25-02-2009 06:11:51 -0.7 C 4.11 g/m*3 -0.7 C 0 km/h
1232 25-02-2009 06:23:50 -0.9 C 4.05 g/m*3 -0.9 C 0 km/h
1233 25-02-2009 06:35:51 -0.8 C 4.13 g/m*3 -0.8 C 0 km/h
1234 25-02-2009 06:47:50 -0.9 C 4.1 g/m*3 -0.9 C 0 km/h
1235 25-02-2009 06:59:50 -0.8 C 4.13 g/m*3 -0.8 C 0 km/h
1236 25-02-2009 07:11:50 -0.7 C 4.15 g/m*3 -0.7 C 0 km/h
1237 25-02-2009 07:23:50 -0.7 C 4.15 g/m*3 -0.7 C 0 km/h
1238 25-02-2009 07:35:50 -0.6 C 4.18 g/m*3 -0.6 C 0 km/h
1239 25-02-2009 07:47:49 -0.7 C 4.15 g/m*3 -0.7 C 0 km/h
1240 25-02-2009 07:59:49 -0.8 C 4.13 g/m*3 -0.8 C 0 km/h
1241 25-02-2009 08:11:50 -0.8 C 4.13 g/m*3 -0.8 C 0 km/h
1242 25-02-2009 08:23:50 -0.9 C 4.05 g/m*3 -0.9 C 0 km/h
1243 25-02-2009 08:35:49 -0.9 C 4.05 g/m*3 -0.9 C 0 km/h
1244 25-02-2009 08:47:49 -0.8 C 4.08 g/m*3 -0.8 C 0 km/h
1245 25-02-2009 08:59:49 -0.3 C 4.22 g/m*3 -0.3 C 0 km/h
1246 25-02-2009 09:11:49 -0.1 C 4.28 g/m*3 -0.1 C 0 km/h
1247 25-02-2009 09:23:49 -0.2 C 4.21 g/m*3 -0.2 C 0 km/h
1248 25-02-2009 09:35:48 -0.2 C 4.16 g/m*3 -0.2 C 0 km/h
1249 25-02-2009 09:47:49 -0.2 C 4.16 g/m*3 -0.2 C 0 km/h
1250 25-02-2009 09:59:49 -0.1 C 4.19 g/m*3 -0.1 C 0 km/h
Sensor: Nr:Datum:Temp:Abs-Feuchte:Windchill:Wind:
Aussen-T/F 1251 25-02-2009 10:11:48 0.1 C 4.24 g/m*3 0.1 C 0 km/h
1252 25-02-2009 10:23:48 0.3 C 4.3 g/m*3 0.3 C 0 km/h
1253 25-02-2009 10:35:49 1 C 4.46 g/m*3 1 C 0 km/h
1254 25-02-2009 10:47:48 1.1 C 4.34 g/m*3 1.1 C 0 km/h
1255 25-02-2009 10:59:48 1.4 C 4.37 g/m*3 1.4 C 0 km/h
1256 25-02-2009 11:11:48 2 C 4.45 g/m*3 2 C 0 km/h
1257 25-02-2009 11:23:48 1.7 C 4.25 g/m*3 1.7 C 0 km/h
1258 25-02-2009 11:35:48 2.3 C 4.37 g/m*3 2.3 C 0 km/h
1259 25-02-2009 11:47:47 3.2 C 4.46 g/m*3 3.2 C 0 km/h
1260 25-02-2009 11:59:47 3.5 C 4.49 g/m*3 3.5 C 0 km/h
1261 25-02-2009 12:11:48 3.9 C 4.55 g/m*3 3.9 C 0 km/h
1262 25-02-2009 12:23:47 4.8 C 4.69 g/m*3 4.8 C 0 km/h
1263 25-02-2009 12:35:47 5.8 C 4.51 g/m*3 5.8 C 0 km/h
1264 25-02-2009 12:47:47 6.4 C 3.95 g/m*3 6.4 C 0 km/h
1265 25-02-2009 12:59:47 6.9 C 3.46 g/m*3 6.9 C 0 km/h
1266 25-02-2009 13:11:47 7.4 C 3.18 g/m*3 7.4 C 0 km/h
1267 25-02-2009 13:23:46 7.5 C 3.2 g/m*3 7.5 C 0 km/h
1268 25-02-2009 13:35:46 7.6 C 3.22 g/m*3 7.6 C 0 km/h
1269 25-02-2009 13:47:47 7.8 C 3.1 g/m*3 7.8 C 0 km/h
1270 25-02-2009 13:59:47 7.9 C 3.12 g/m*3 7.9 C 0 km/h
1271 25-02-2009 14:11:46 8 C 3.14 g/m*3 8 C 0 km/h
1272 25-02-2009 14:23:46 8.1 C 3.16 g/m*3 8.1 C 0 km/h
1273 25-02-2009 14:35:46 8.4 C 3.14 g/m*3 8.4 C 0 km/h
1274 25-02-2009 14:47:46 8.7 C 3.11 g/m*3 8.7 C 0 km/h
1275 25-02-2009 14:59:46 8.6 C 3.01 g/m*3 8.6 C 0 km/h
Sensor: Nr:Datum:Temp:Abs-Feuchte:Windchill:Wind:
Aussen-T/F 1276 25-02-2009 15:11:45 8.6 C 3.09 g/m*3 8.6 C 0 km/h
1277 25-02-2009 15:23:46 8.7 C 3.11 g/m*3 8.7 C 0 km/h
1278 25-02-2009 15:35:46 8.9 C 3.07 g/m*3 8.9 C 0 km/h
1279 25-02-2009 15:47:45 8.6 C 3.09 g/m*3 8.6 C 0 km/h
1280 25-02-2009 15:59:45 8.4 C 3.14 g/m*3 8.4 C 0 km/h
1281 25-02-2009 16:11:46 8.5 C 3.24 g/m*3 8.5 C 0 km/h
1282 25-02-2009 16:23:45 8.6 C 3.35 g/m*3 8.6 C 0 km/h
1283 25-02-2009 16:35:45 8.6 C 3.27 g/m*3 8.6 C 0 km/h
1284 25-02-2009 16:47:44 8.4 C 3.39 g/m*3 8.4 C 0 km/h
1285 25-02-2009 16:59:44 8.1 C 3.33 g/m*3 8.1 C 0 km/h
1286 25-02-2009 17:11:45 7.8 C 3.43 g/m*3 7.8 C 0 km/h
1287 25-02-2009 17:23:44 7.5 C 3.6 g/m*3 7.5 C 0 km/h
1288 25-02-2009 17:35:44 7.2 C 3.53 g/m*3 7.2 C 0 km/h
1289 25-02-2009 17:47:44 6.9 C 3.62 g/m*3 6.9 C 0 km/h
1290 25-02-2009 17:59:44 6.6 C 3.55 g/m*3 6.6 C 0 km/h
1291 25-02-2009 18:11:44 6.4 C 3.5 g/m*3 6.4 C 0 km/h
1292 25-02-2009 18:23:44 6.2 C 3.6 g/m*3 6.2 C 0 km/h
1293 25-02-2009 18:35:43 6.2 C 3.68 g/m*3 6.2 C 0 km/h
1294 25-02-2009 18:47:44 6 C 3.63 g/m*3 6 C 0 km/h
1295 25-02-2009 18:59:44 5.8 C 3.65 g/m*3 5.8 C 0 km/h
1296 25-02-2009 19:11:43 5.6 C 3.61 g/m*3 5.6 C 0 km/h
1297 25-02-2009 19:23:43 5.4 C 3.56 g/m*3 5.4 C 0 km/h
1298 25-02-2009 19:35:43 5.4 C 3.56 g/m*3 5.4 C 0 km/h
1299 25-02-2009 19:47:43 5.4 C 3.56 g/m*3 5.4 C 0 km/h
1300 25-02-2009 19:59:43 5.3 C 3.53 g/m*3 5.3 C 0 km/h
Sensor: Nr:Datum:Temp:Abs-Feuchte:Windchill:Wind:
Aussen-T/F 1301 25-02-2009 20:11:42 5.1 C 3.56 g/m*3 5.1 C 0 km/h
1302 25-02-2009 20:23:43 5 C 3.53 g/m*3 5 C 0 km/h
1303 25-02-2009 20:35:43 5.2 C 3.58 g/m*3 5.2 C 0 km/h
1304 25-02-2009 20:47:42 5.3 C 3.53 g/m*3 5.3 C 0 km/h
1305 25-02-2009 20:59:42 5.3 C 3.6 g/m*3 5.3 C 0 km/h
1306 25-02-2009 21:11:42 5.5 C 3.51 g/m*3 5.5 C 0 km/h
1307 25-02-2009 21:23:42 5.6 C 3.53 g/m*3 5.6 C 0 km/h
1308 25-02-2009 21:35:42 5.5 C 3.51 g/m*3 5.5 C 0 km/h
1309 25-02-2009 21:47:42 5.5 C 3.51 g/m*3 5.5 C 0 km/h
1310 25-02-2009 21:59:42 5.6 C 3.53 g/m*3 5.6 C 0 km/h
1311 25-02-2009 22:11:41 5.7 C 3.49 g/m*3 5.7 C 0 km/h
1312 25-02-2009 22:23:42 5.7 C 3.49 g/m*3 5.7 C 0 km/h
1313 25-02-2009 22:36:43 5.7 C 3.49 g/m*3 5.7 C 0 km/h
1314 25-02-2009 22:48:43 5.7 C 3.49 g/m*3 5.7 C 0 km/h
1315 25-02-2009 23:00:43 5.7 C 3.49 g/m*3 5.7 C 0 km/h
1316 25-02-2009 23:12:43 5.7 C 3.49 g/m*3 5.7 C 0 km/h
1317 25-02-2009 23:24:43 5.8 C 3.51 g/m*3 5.8 C 0 km/h
1318 25-02-2009 23:36:43 5.7 C 3.49 g/m*3 5.7 C 0 km/h
1319 25-02-2009 23:48:43 5.6 C 3.53 g/m*3 5.6 C 0 km/h
1320 26-02-2009 00:00:43 5.6 C 3.53 g/m*3 5.6 C 0 km/h
1321 26-02-2009 00:12:43 5.5 C 3.58 g/m*3 5.5 C 0 km/h
1322 26-02-2009 00:24:43 5.6 C 3.61 g/m*3 5.6 C 0 km/h
1323 26-02-2009 00:36:43 5.6 C 3.68 g/m*3 5.6 C 0 km/h
1324 26-02-2009 00:48:43 5.6 C 3.68 g/m*3 5.6 C 0 km/h
1325 26-02-2009 01:00:43 5.6 C 3.68 g/m*3 5.6 C 0 km/h
Sensor: Nr:Datum:Temp:Abs-Feuchte:Windchill:Wind:
Aussen-T/F 1326 26-02-2009 01:12:43 5.4 C 3.7 g/m*3 5.4 C 0 km/h
1327 26-02-2009 01:24:43 5.3 C 3.67 g/m*3 5.3 C 0 km/h
1328 26-02-2009 01:36:43 5.3 C 3.67 g/m*3 5.3 C 0 km/h
1329 26-02-2009 01:48:44 5.2 C 3.72 g/m*3 5.2 C 0 km/h
1330 26-02-2009 02:00:44 5.2 C 3.79 g/m*3 5.2 C 0 km/h
1331 26-02-2009 02:12:44 5.2 C 3.79 g/m*3 5.2 C 0 km/h
1332 26-02-2009 02:24:44 5.2 C 3.86 g/m*3 5.2 C 0 km/h
1333 26-02-2009 02:36:44 5.2 C 3.86 g/m*3 5.2 C 0 km/h
1334 26-02-2009 02:48:44 5.1 C 3.83 g/m*3 5.1 C 0 km/h
1335 26-02-2009 03:00:44 5.1 C 3.9 g/m*3 5.1 C 0 km/h
1336 26-02-2009 03:12:44 5 C 3.87 g/m*3 5 C 0 km/h
1337 26-02-2009 03:24:44 5 C 3.94 g/m*3 5 C 0 km/h
1338 26-02-2009 03:36:44 5.1 C 3.97 g/m*3 5.1 C 0 km/h
1339 26-02-2009 03:48:44 5 C 3.94 g/m*3 5 C 0 km/h
1340 26-02-2009 04:00:44 5 C 3.94 g/m*3 5 C 0 km/h
1341 26-02-2009 04:12:44 5 C 3.94 g/m*3 5 C 0 km/h
1342 26-02-2009 04:24:44 5.2 C 4.13 g/m*3 5.2 C 0 km/h
1343 26-02-2009 04:36:44 5.3 C 4.3 g/m*3 5.3 C 0 km/h
1344 26-02-2009 04:48:44 5.4 C 4.33 g/m*3 5.4 C 0 km/h
1345 26-02-2009 05:00:44 5.5 C 4.35 g/m*3 5.5 C 0 km/h
1346 26-02-2009 05:12:44 5.5 C 4.35 g/m*3 5.5 C 0 km/h
1347 26-02-2009 05:24:44 5.4 C 4.33 g/m*3 5.4 C 0 km/h
1348 26-02-2009 05:36:44 5.4 C 4.33 g/m*3 5.4 C 0 km/h
1349 26-02-2009 05:48:45 5.4 C 4.33 g/m*3 5.4 C 0 km/h
1350 26-02-2009 06:00:45 5.4 C 4.33 g/m*3 5.4 C 0 km/h
Sensor: Nr:Datum:Temp:Abs-Feuchte:Windchill:Wind:
Aussen-T/F 1351 26-02-2009 06:12:45 5.4 C 4.33 g/m*3 5.4 C 0 km/h
1352 26-02-2009 06:24:45 5.3 C 4.3 g/m*3 5.3 C 0 km/h
1353 26-02-2009 06:36:45 5.2 C 4.34 g/m*3 5.2 C 0 km/h
1354 26-02-2009 06:48:45 5.2 C 4.41 g/m*3 5.2 C 0 km/h
1355 26-02-2009 07:00:42 5.2 C 4.41 g/m*3 5.2 C 0 km/h
1356 26-02-2009 07:12:42 5.2 C 4.48 g/m*3 5.2 C 0 km/h
1357 26-02-2009 07:24:42 5.2 C 4.48 g/m*3 5.2 C 0 km/h
1358 26-02-2009 07:36:42 5.3 C 4.51 g/m*3 5.3 C 0 km/h
1359 26-02-2009 07:48:41 5.3 C 4.51 g/m*3 5.3 C 0 km/h
1360 26-02-2009 08:00:42 5.3 C 4.57 g/m*3 5.3 C 0 km/h
1361 26-02-2009 08:12:42 5.3 C 4.57 g/m*3 5.3 C 0 km/h
1362 26-02-2009 08:24:41 5.3 C 4.64 g/m*3 5.3 C 0 km/h
1363 26-02-2009 08:36:41 5.4 C 4.67 g/m*3 5.4 C 0 km/h
1364 26-02-2009 08:48:41 5.4 C 4.67 g/m*3 5.4 C 0 km/h
1365 26-02-2009 09:00:41 5.5 C 4.71 g/m*3 5.5 C 0 km/h
1366 26-02-2009 09:12:41 5.6 C 4.81 g/m*3 5.6 C 0 km/h
1367 26-02-2009 09:24:41 5.6 C 4.88 g/m*3 5.6 C 0 km/h
1368 26-02-2009 09:36:41 5.5 C 5.06 g/m*3 5.5 C 0 km/h
1369 26-02-2009 09:48:41 5.4 C 5.16 g/m*3 5.4 C 0 km/h
1370 26-02-2009 10:00:40 5.3 C 5.27 g/m*3 5.3 C 0 km/h
1371 26-02-2009 10:12:40 5.4 C 5.37 g/m*3 5.4 C 0 km/h
1372 26-02-2009 10:24:40 5.4 C 5.3 g/m*3 5.4 C 0 km/h
1373 26-02-2009 10:36:40 5.5 C 5.34 g/m*3 5.5 C 0 km/h
1374 26-02-2009 10:48:40 5.6 C 5.3 g/m*3 5.6 C 0 km/h
1375 26-02-2009 11:00:39 5.7 C 5.34 g/m*3 5.7 C 0 km/h
Sensor: Nr:Datum:Temp:Abs-Feuchte:Windchill:Wind:
Aussen-T/F 1376 26-02-2009 11:12:39 5.9 C 5.34 g/m*3 5.9 C 0 km/h
1377 26-02-2009 11:24:40 6.3 C 5.33 g/m*3 6.3 C 0 km/h
1378 26-02-2009 11:36:40 6.8 C 5.2 g/m*3 6.8 C 0 km/h
1379 26-02-2009 11:48:39 7.1 C 5.07 g/m*3 7.1 C 0 km/h
1380 26-02-2009 12:00:40 7.3 C 5.06 g/m*3 7.3 C 0 km/h
1381 26-02-2009 12:12:40 7.8 C 5.06 g/m*3 7.8 C 0 km/h
1382 26-02-2009 12:24:39 7.8 C 4.9 g/m*3 7.8 C 0 km/h
1383 26-02-2009 12:36:39 8 C 4.8 g/m*3 8 C 0 km/h
1384 26-02-2009 12:48:39 8 C 4.8 g/m*3 8 C 0 km/h
1385 26-02-2009 13:00:39 7.9 C 4.85 g/m*3 7.9 C 0 km/h
1386 26-02-2009 13:12:40 7.9 C 4.93 g/m*3 7.9 C 0 km/h
1387 26-02-2009 13:24:38 8 C 4.88 g/m*3 8 C 0 km/h
1388 26-02-2009 13:36:38 8.2 C 4.86 g/m*3 8.2 C 0 km/h
1389 26-02-2009 13:48:38 8.3 C 4.89 g/m*3 8.3 C 0 km/h
1390 26-02-2009 14:00:38 8.6 C 4.9 g/m*3 8.6 C 0 km/h
1391 26-02-2009 14:12:38 8.9 C 4.73 g/m*3 8.9 C 0 km/h
1392 26-02-2009 14:24:38 8.8 C 4.53 g/m*3 8.8 C 0 km/h
1393 26-02-2009 14:36:38 9.2 C 3.93 g/m*3 9.2 C 0 km/h
1394 26-02-2009 14:48:38 9.6 C 3.66 g/m*3 9.6 C 0 km/h
1395 26-02-2009 15:00:37 9.5 C 3.64 g/m*3 9.5 C 0 km/h
1396 26-02-2009 15:12:37 9.5 C 3.64 g/m*3 9.5 C 0 km/h
1397 26-02-2009 15:24:38 9.6 C 3.57 g/m*3 9.6 C 0 km/h
1398 26-02-2009 15:36:37 9.4 C 3.44 g/m*3 9.4 C 0 km/h
1399 26-02-2009 15:48:37 9.4 C 3.62 g/m*3 9.4 C 0 km/h
1400 26-02-2009 16:00:37 9.3 C 3.5 g/m*3 9.3 C 0 km/h
Sensor: Nr:Datum:Temp:Abs-Feuchte:Windchill:Wind:
Aussen-T/F 1401 26-02-2009 16:12:37 9.4 C 3.71 g/m*3 9.4 C 0 km/h
1402 26-02-2009 16:24:37 9.2 C 3.66 g/m*3 9.2 C 0 km/h
1403 26-02-2009 16:36:37 9 C 3.61 g/m*3 9 C 0 km/h
1404 26-02-2009 16:48:37 9 C 3.61 g/m*3 9 C 0 km/h
1405 26-02-2009 17:00:37 8.8 C 3.57 g/m*3 8.8 C 0 km/h
1406 26-02-2009 17:12:37 8.6 C 3.61 g/m*3 8.6 C 0 km/h
1407 26-02-2009 17:24:36 8.6 C 3.69 g/m*3 8.6 C 0 km/h
1408 26-02-2009 17:36:36 8.3 C 3.71 g/m*3 8.3 C 0 km/h
1409 26-02-2009 17:48:36 8.2 C 3.77 g/m*3 8.2 C 0 km/h
1410 26-02-2009 18:00:36 8.1 C 3.74 g/m*3 8.1 C 0 km/h
1411 26-02-2009 18:12:36 8 C 3.8 g/m*3 8 C 0 km/h
1412 26-02-2009 18:24:35 7.9 C 3.78 g/m*3 7.9 C 0 km/h
1413 26-02-2009 18:36:02 7.8 C 3.84 g/m*3 7.8 C 0 km/h
1414 26-02-2009 18:48:01 7.8 C 3.84 g/m*3 7.8 C 0 km/h
1415 26-02-2009 19:00:01 7.7 C 3.89 g/m*3 7.7 C 0 km/h
1416 26-02-2009 19:12:01 7.6 C 3.87 g/m*3 7.6 C 0 km/h
1417 26-02-2009 19:24:01 7.6 C 3.95 g/m*3 7.6 C 0 km/h
1418 26-02-2009 19:36:01 7.5 C 4.08 g/m*3 7.5 C 0 km/h
1419 26-02-2009 19:48:00 7.5 C 4.24 g/m*3 7.5 C 0 km/h
1420 26-02-2009 20:00:00 7.4 C 4.29 g/m*3 7.4 C 0 km/h
1421 26-02-2009 20:12:01 7.4 C 4.37 g/m*3 7.4 C 0 km/h
1422 26-02-2009 20:24:00 7.5 C 4.24 g/m*3 7.5 C 0 km/h
1423 26-02-2009 20:36:00 7.5 C 4.24 g/m*3 7.5 C 0 km/h
1424 26-02-2009 20:48:00 7.4 C 4.29 g/m*3 7.4 C 0 km/h
1425 26-02-2009 21:00:00 7.3 C 4.35 g/m*3 7.3 C 0 km/h
Sensor: Nr:Datum:Temp:Abs-Feuchte:Windchill:Wind:
Aussen-T/F 1426 26-02-2009 21:12:00 7.2 C 4.32 g/m*3 7.2 C 0 km/h
1427 26-02-2009 21:24:00 7.2 C 4.32 g/m*3 7.2 C 0 km/h
1428 26-02-2009 21:36:00 7.2 C 4.32 g/m*3 7.2 C 0 km/h
1429 26-02-2009 22:00:00 7.2 C 4.32 g/m*3 7.2 C 0 km/h
1430 26-02-2009 22:00:00 7.2 C 4.24 g/m*3 7.2 C 0 km/h
1431 26-02-2009 22:00:00 7.2 C 4.32 g/m*3 7.2 C 0 km/h
1432 26-02-2009 22:00:00 7.2 C 4.24 g/m*3 7.2 C 0 km/h
1433 26-02-2009 22:12:00 7.2 C 4.32 g/m*3 7.2 C 0 km/h
1434 26-02-2009 22:25:00 7.2 C 4.32 g/m*3 7.2 C 0 km/h
1435 26-02-2009 22:37:00 7.1 C 4.21 g/m*3 7.1 C 0 km/h
1436 26-02-2009 22:49:00 7.1 C 4.21 g/m*3 7.1 C 0 km/h
1437 26-02-2009 23:01:00 7.2 C 4.24 g/m*3 7.2 C 0 km/h
1438 26-02-2009 23:13:00 7.2 C 4.16 g/m*3 7.2 C 0 km/h
1439 26-02-2009 23:25:00 7.2 C 4.24 g/m*3 7.2 C 0 km/h
1440 26-02-2009 23:37:01 7.1 C 4.21 g/m*3 7.1 C 0 km/h
1441 26-02-2009 23:49:01 7.3 C 4.11 g/m*3 7.3 C 0 km/h
1442 27-02-2009 00:01:01 7.2 C 4.08 g/m*3 7.2 C 0 km/h
1443 27-02-2009 00:13:01 7.2 C 4.16 g/m*3 7.2 C 0 km/h
1444 27-02-2009 00:25:01 7.2 C 4.08 g/m*3 7.2 C 0 km/h
1445 27-02-2009 00:37:01 7.2 C 4.16 g/m*3 7.2 C 0 km/h
1446 27-02-2009 00:49:01 7.2 C 4.16 g/m*3 7.2 C 0 km/h
1447 27-02-2009 01:01:01 7.2 C 4.24 g/m*3 7.2 C 0 km/h
1448 27-02-2009 01:13:01 7.2 C 4.24 g/m*3 7.2 C 0 km/h
1449 27-02-2009 01:25:01 7.3 C 4.27 g/m*3 7.3 C 0 km/h
1450 27-02-2009 01:37:01 7.2 C 4.32 g/m*3 7.2 C 0 km/h
Sensor: Nr:Datum:Temp:Abs-Feuchte:Windchill:Wind:
Aussen-T/F 1451 27-02-2009 01:49:01 7.2 C 4.32 g/m*3 7.2 C 0 km/h
1452 27-02-2009 02:01:01 7.2 C 4.32 g/m*3 7.2 C 0 km/h
1453 27-02-2009 02:13:01 7.1 C 4.52 g/m*3 7.1 C 0 km/h
1454 27-02-2009 02:25:01 7 C 4.57 g/m*3 7 C 0 km/h
1455 27-02-2009 02:37:01 7 C 4.65 g/m*3 7 C 0 km/h
1456 27-02-2009 02:49:01 7 C 4.65 g/m*3 7 C 0 km/h
1457 27-02-2009 03:01:01 7 C 4.65 g/m*3 7 C 0 km/h
1458 27-02-2009 03:13:02 7 C 4.65 g/m*3 7 C 0 km/h
1459 27-02-2009 03:25:02 6.9 C 4.85 g/m*3 6.9 C 0 km/h
1460 27-02-2009 03:37:02 6.4 C 5.22 g/m*3 6.4 C 0 km/h
1461 27-02-2009 03:49:02 6 C 5.37 g/m*3 6 C 0 km/h
1462 27-02-2009 04:01:02 5.9 C 5.62 g/m*3 5.9 C 0 km/h
1463 27-02-2009 04:13:02 6.1 C 5.63 g/m*3 6.1 C 0 km/h
1464 27-02-2009 04:25:02 5.9 C 5.7 g/m*3 5.9 C 0 km/h
1465 27-02-2009 04:37:02 5.9 C 5.77 g/m*3 5.9 C 0 km/h
1466 27-02-2009 04:49:02 5.9 C 5.84 g/m*3 5.9 C 0 km/h
1467 27-02-2009 05:01:02 5.7 C 5.84 g/m*3 5.7 C 0 km/h
1468 27-02-2009 05:13:02 5.6 C 5.94 g/m*3 5.6 C 0 km/h
1469 27-02-2009 05:25:02 5.6 C 6.01 g/m*3 5.6 C 0 km/h
1470 27-02-2009 05:37:02 5.6 C 6.08 g/m*3 5.6 C 0 km/h
1471 27-02-2009 05:49:02 5.6 C 6.08 g/m*3 5.6 C 0 km/h
1472 27-02-2009 06:01:02 5.6 C 6.08 g/m*3 5.6 C 0 km/h
1473 27-02-2009 06:13:02 5.6 C 6.01 g/m*3 5.6 C 0 km/h
1474 27-02-2009 06:25:02 5.6 C 6.01 g/m*3 5.6 C 0 km/h
1475 27-02-2009 06:37:02 5.6 C 5.94 g/m*3 5.6 C 0 km/h
Sensor: Nr:Datum:Temp:Abs-Feuchte:Windchill:Wind:
Aussen-T/F 1476 27-02-2009 06:49:02 5.6 C 5.94 g/m*3 5.6 C 0 km/h
1477 27-02-2009 07:01:00 5.6 C 5.87 g/m*3 5.6 C 0 km/h
1478 27-02-2009 07:13:00 5.7 C 5.84 g/m*3 5.7 C 0 km/h
1479 27-02-2009 07:25:00 5.9 C 5.77 g/m*3 5.9 C 0 km/h
1480 27-02-2009 07:37:00 6.1 C 5.63 g/m*3 6.1 C 0 km/h
1481 27-02-2009 07:49:00 6.1 C 5.48 g/m*3 6.1 C 0 km/h
1482 27-02-2009 08:01:59 6.2 C 5.37 g/m*3 6.2 C 0 km/h
1483 27-02-2009 08:13:59 6.4 C 5.29 g/m*3 6.4 C 0 km/h
1484 27-02-2009 08:25:00 6.5 C 5.17 g/m*3 6.5 C 0 km/h
1485 27-02-2009 08:37:00 6.6 C 5.13 g/m*3 6.6 C 0 km/h
1486 27-02-2009 08:49:59 6.7 C 5.09 g/m*3 6.7 C 0 km/h
1487 27-02-2009 09:00:59 6.8 C 5.05 g/m*3 6.8 C 0 km/h
1488 27-02-2009 09:12:59 6.9 C 5.08 g/m*3 6.9 C 0 km/h
1489 27-02-2009 09:25:59 7 C 4.96 g/m*3 7 C 0 km/h
1490 27-02-2009 09:37:59 7.2 C 4.95 g/m*3 7.2 C 0 km/h
1491 27-02-2009 09:49:58 7.7 C 4.95 g/m*3 7.7 C 0 km/h
1492 27-02-2009 10:01:59 7.9 C 4.85 g/m*3 7.9 C 0 km/h
1493 27-02-2009 10:13:59 8 C 4.71 g/m*3 8 C 0 km/h
1494 27-02-2009 10:25:58 8.1 C 4.66 g/m*3 8.1 C 0 km/h
1495 27-02-2009 10:37:58 8.6 C 4.81 g/m*3 8.6 C 0 km/h
1496 27-02-2009 10:49:58 8.6 C 4.55 g/m*3 8.6 C 0 km/h
1497 27-02-2009 11:01:58 8.7 C 4.58 g/m*3 8.7 C 0 km/h
1498 27-02-2009 11:13:58 8.7 C 4.5 g/m*3 8.7 C 0 km/h
1499 27-02-2009 11:25:57 8.7 C 4.67 g/m*3 8.7 C 0 km/h
1500 27-02-2009 11:37:58 8.5 C 4.7 g/m*3 8.5 C 0 km/h
Sensor: Nr:Datum:Temp:Abs-Feuchte:Windchill:Wind:
Aussen-T/F 1501 27-02-2009 11:49:58 8.3 C 4.97 g/m*3 8.3 C 0 km/h
1502 27-02-2009 12:01:57 8 C 5.13 g/m*3 8 C 0 km/h
1503 27-02-2009 12:13:57 7.7 C 5.43 g/m*3 7.7 C 0 km/h
1504 27-02-2009 12:25:58 7.4 C 5.57 g/m*3 7.4 C 0 km/h
1505 27-02-2009 12:37:57 7.2 C 5.73 g/m*3 7.2 C 0 km/h
1506 27-02-2009 12:49:57 7 C 5.97 g/m*3 7 C 0 km/h
1507 27-02-2009 13:01:56 6.8 C 6.12 g/m*3 6.8 C 0 km/h
1508 27-02-2009 13:13:56 6.8 C 6.27 g/m*3 6.8 C 0 km/h
1509 27-02-2009 13:25:57 7 C 6.35 g/m*3 7 C 0 km/h
1510 27-02-2009 13:37:56 7.1 C 6.4 g/m*3 7.1 C 0 km/h
1511 27-02-2009 13:49:56 7.1 C 6.24 g/m*3 7.1 C 0 km/h
1512 27-02-2009 14:01:57 7.1 C 6.16 g/m*3 7.1 C 0 km/h
1513 27-02-2009 14:13:57 7.3 C 6.16 g/m*3 7.3 C 0 km/h
1514 27-02-2009 14:25:56 7.5 C 6.24 g/m*3 7.5 C 0 km/h
1515 27-02-2009 14:37:56 7.5 C 6.24 g/m*3 7.5 C 0 km/h
1516 27-02-2009 14:49:56 7.7 C 6.24 g/m*3 7.7 C 0 km/h
1517 27-02-2009 15:01:56 7.5 C 5.92 g/m*3 7.5 C 0 km/h
1518 27-02-2009 15:13:56 7.6 C 5.88 g/m*3 7.6 C 0 km/h
1519 27-02-2009 15:25:56 7.5 C 5.76 g/m*3 7.5 C 0 km/h
1520 27-02-2009 15:37:55 7.7 C 5.76 g/m*3 7.7 C 0 km/h
1521 27-02-2009 15:49:56 7.9 C 5.75 g/m*3 7.9 C 0 km/h
1522 27-02-2009 16:01:55 8 C 5.54 g/m*3 8 C 0 km/h
1523 27-02-2009 16:13:55 8 C 5.46 g/m*3 8 C 0 km/h
1524 27-02-2009 16:25:55 8 C 5.46 g/m*3 8 C 0 km/h
1525 27-02-2009 16:37:55 8 C 5.29 g/m*3 8 C 0 km/h
Sensor: Nr:Datum:Temp:Abs-Feuchte:Windchill:Wind:
Aussen-T/F 1526 27-02-2009 16:49:54 7.9 C 5.42 g/m*3 7.9 C 0 km/h
1527 27-02-2009 17:01:54 7.9 C 5.42 g/m*3 7.9 C 0 km/h
1528 27-02-2009 17:13:54 7.9 C 5.42 g/m*3 7.9 C 0 km/h
1529 27-02-2009 17:25:55 7.8 C 5.55 g/m*3 7.8 C 0 km/h
1530 27-02-2009 17:37:54 7.6 C 5.64 g/m*3 7.6 C 0 km/h
1531 27-02-2009 17:49:54 7.5 C 5.68 g/m*3 7.5 C 0 km/h
1532 27-02-2009 18:01:54 7.5 C 5.68 g/m*3 7.5 C 0 km/h
1533 27-02-2009 18:13:54 7.6 C 5.72 g/m*3 7.6 C 0 km/h
1534 27-02-2009 18:25:54 7.6 C 5.64 g/m*3 7.6 C 0 km/h
1535 27-02-2009 18:37:53 7.6 C 5.64 g/m*3 7.6 C 0 km/h
1536 27-02-2009 18:49:54 7.6 C 5.64 g/m*3 7.6 C 0 km/h
1537 27-02-2009 19:01:53 7.6 C 5.56 g/m*3 7.6 C 0 km/h
1538 27-02-2009 19:13:53 7.7 C 5.59 g/m*3 7.7 C 0 km/h
1539 27-02-2009 19:25:53 7.8 C 5.63 g/m*3 7.8 C 0 km/h
1540 27-02-2009 19:37:54 7.8 C 5.55 g/m*3 7.8 C 0 km/h
1541 27-02-2009 19:49:53 7.9 C 5.59 g/m*3 7.9 C 0 km/h
1542 27-02-2009 20:01:53 7.8 C 5.55 g/m*3 7.8 C 0 km/h
1543 27-02-2009 20:13:53 7.8 C 5.55 g/m*3 7.8 C 0 km/h
1544 27-02-2009 20:25:53 7.7 C 5.68 g/m*3 7.7 C 0 km/h
1545 27-02-2009 20:37:53 7.7 C 5.68 g/m*3 7.7 C 0 km/h
1546 27-02-2009 20:49:52 7.5 C 5.76 g/m*3 7.5 C 0 km/h
1547 27-02-2009 21:01:53 7.2 C 5.89 g/m*3 7.2 C 0 km/h
1548 27-02-2009 21:13:54 7 C 6.04 g/m*3 7 C 0 km/h
1549 27-02-2009 21:25:52 7 C 6.2 g/m*3 7 C 0 km/h
1550 27-02-2009 21:37:52 6.9 C 6.31 g/m*3 6.9 C 0 km/h
Sensor: Nr:Datum:Temp:Abs-Feuchte:Windchill:Wind:
Aussen-T/F 1551 27-02-2009 21:49:52 6.8 C 6.42 g/m*3 6.8 C 0 km/h
1552 27-02-2009 22:01:52 6.7 C 6.38 g/m*3 6.7 C 0 km/h
1553 27-02-2009 22:13:52 6.7 C 6.46 g/m*3 6.7 C 0 km/h
1554 27-02-2009 22:25:52 6.8 C 6.42 g/m*3 6.8 C 0 km/h
1555 27-02-2009 22:37:51 6.9 C 6.47 g/m*3 6.9 C 0 km/h
1556 27-02-2009 22:49:52 6.9 C 6.39 g/m*3 6.9 C 0 km/h
1557 27-02-2009 23:01:51 6.9 C 6.31 g/m*3 6.9 C 0 km/h
1558 27-02-2009 23:13:51 6.9 C 6.24 g/m*3 6.9 C 0 km/h
1559 27-02-2009 23:25:51 6.9 C 6.31 g/m*3 6.9 C 0 km/h
1560 27-02-2009 23:37:51 6.8 C 6.27 g/m*3 6.8 C 0 km/h
1561 27-02-2009 23:50:52 6.9 C 6.31 g/m*3 6.9 C 0 km/h
1562 28-02-2009 00:02:52 6.9 C 6.31 g/m*3 6.9 C 0 km/h
1563 28-02-2009 00:14:52 6.9 C 6.24 g/m*3 6.9 C 0 km/h
1564 28-02-2009 00:26:53 6.9 C 6.24 g/m*3 6.9 C 0 km/h
1565 28-02-2009 00:38:53 6.9 C 6.16 g/m*3 6.9 C 0 km/h
1566 28-02-2009 00:50:53 6.9 C 6.16 g/m*3 6.9 C 0 km/h
1567 28-02-2009 01:02:53 6.9 C 6.08 g/m*3 6.9 C 0 km/h
1568 28-02-2009 01:14:53 6.9 C 6.08 g/m*3 6.9 C 0 km/h
1569 28-02-2009 01:26:53 6.9 C 6.08 g/m*3 6.9 C 0 km/h
1570 28-02-2009 01:38:53 7 C 5.97 g/m*3 7 C 0 km/h
1571 28-02-2009 01:50:53 7 C 5.97 g/m*3 7 C 0 km/h
1572 28-02-2009 02:02:53 7.1 C 5.93 g/m*3 7.1 C 0 km/h
1573 28-02-2009 02:14:53 7.1 C 5.93 g/m*3 7.1 C 0 km/h
1574 28-02-2009 02:26:53 7.3 C 5.93 g/m*3 7.3 C 0 km/h
1575 28-02-2009 02:38:53 7.4 C 5.88 g/m*3 7.4 C 0 km/h
Sensor: Nr:Datum:Temp:Abs-Feuchte:Windchill:Wind:
Aussen-T/F 1576 28-02-2009 02:50:53 7.5 C 5.84 g/m*3 7.5 C 0 km/h
1577 28-02-2009 03:02:53 7.5 C 5.84 g/m*3 7.5 C 0 km/h
1578 28-02-2009 03:14:53 7.5 C 5.84 g/m*3 7.5 C 0 km/h
1579 28-02-2009 03:26:53 7.5 C 5.84 g/m*3 7.5 C 0 km/h
1580 28-02-2009 03:38:53 7.5 C 5.84 g/m*3 7.5 C 0 km/h
1581 28-02-2009 03:50:53 7.5 C 5.84 g/m*3 7.5 C 0 km/h
1582 28-02-2009 04:02:54 7.6 C 5.88 g/m*3 7.6 C 0 km/h
1583 28-02-2009 04:14:54 7.6 C 5.88 g/m*3 7.6 C 0 km/h
1584 28-02-2009 04:26:54 7.6 C 5.8 g/m*3 7.6 C 0 km/h
1585 28-02-2009 04:38:54 7.6 C 5.8 g/m*3 7.6 C 0 km/h
1586 28-02-2009 04:50:54 7.7 C 5.84 g/m*3 7.7 C 0 km/h
1587 28-02-2009 05:02:54 7.7 C 5.84 g/m*3 7.7 C 0 km/h
1588 28-02-2009 05:14:54 7.8 C 5.79 g/m*3 7.8 C 0 km/h
1589 28-02-2009 05:26:54 7.8 C 5.79 g/m*3 7.8 C 0 km/h
1590 28-02-2009 05:38:54 7.8 C 5.79 g/m*3 7.8 C 0 km/h
1591 28-02-2009 05:50:54 7.7 C 5.76 g/m*3 7.7 C 0 km/h
1592 28-02-2009 06:02:54 7.6 C 5.8 g/m*3 7.6 C 0 km/h
1593 28-02-2009 06:14:54 7.6 C 5.8 g/m*3 7.6 C 0 km/h
1594 28-02-2009 06:26:54 7.5 C 5.76 g/m*3 7.5 C 0 km/h
1595 28-02-2009 06:38:54 7.5 C 5.84 g/m*3 7.5 C 0 km/h
1596 28-02-2009 06:50:54 7.4 C 5.81 g/m*3 7.4 C 0 km/h
1597 28-02-2009 07:02:54 7.4 C 5.81 g/m*3 7.4 C 0 km/h
1598 28-02-2009 07:14:54 7.4 C 5.88 g/m*3 7.4 C 0 km/h
1599 28-02-2009 07:26:54 7.3 C 5.85 g/m*3 7.3 C 0 km/h
1600 28-02-2009 07:38:54 7.3 C 5.93 g/m*3 7.3 C 0 km/h
Sensor: Nr:Datum:Temp:Abs-Feuchte:Windchill:Wind:
Aussen-T/F 1601 28-02-2009 07:50:55 7.4 C 5.96 g/m*3 7.4 C 0 km/h
1602 28-02-2009 08:02:51 7.5 C 5.92 g/m*3 7.5 C 0 km/h
1603 28-02-2009 08:14:51 7.6 C 5.96 g/m*3 7.6 C 0 km/h
1604 28-02-2009 08:26:51 7.6 C 5.88 g/m*3 7.6 C 0 km/h
1605 28-02-2009 08:38:51 7.9 C 6 g/m*3 7.9 C 0 km/h
1606 28-02-2009 08:50:51 8 C 5.95 g/m*3 8 C 0 km/h
1607 28-02-2009 09:02:51 8.1 C 5.91 g/m*3 8.1 C 0 km/h
1608 28-02-2009 09:14:51 8.2 C 5.95 g/m*3 8.2 C 0 km/h
1609 28-02-2009 09:26:51 9 C 5.91 g/m*3 9 C 0 km/h
1610 28-02-2009 09:38:51 9.5 C 5.83 g/m*3 9.5 C 0 km/h
1611 28-02-2009 09:50:51 9.3 C 5.75 g/m*3 9.3 C 0 km/h
1612 28-02-2009 10:02:51 9.3 C 5.75 g/m*3 9.3 C 0 km/h
1613 28-02-2009 10:14:50 9.7 C 5.81 g/m*3 9.7 C 0 km/h
1614 28-02-2009 10:26:50 9.8 C 5.75 g/m*3 9.8 C 0 km/h
1615 28-02-2009 10:38:50 9.7 C 5.81 g/m*3 9.7 C 0 km/h
1616 28-02-2009 10:50:50 9.8 C 5.75 g/m*3 9.8 C 0 km/h
1617 28-02-2009 11:02:50 9.9 C 5.79 g/m*3 9.9 C 0 km/h
1618 28-02-2009 11:14:49 10.1 C 5.77 g/m*3 10.1 C 0 km/h
1619 28-02-2009 11:26:49 10.8 C 5.83 g/m*3 10.8 C 0 km/h
1620 28-02-2009 11:38:50 11.2 C 5.78 g/m*3 11.2 C 0 km/h
1621 28-02-2009 11:50:49 10.7 C 5.8 g/m*3 10.7 C 0 km/h
1622 28-02-2009 12:02:49 10.3 C 5.75 g/m*3 10.3 C 0 km/h
1623 28-02-2009 12:14:50 10.3 C 5.84 g/m*3 10.3 C 0 km/h
1624 28-02-2009 12:26:50 11 C 5.81 g/m*3 11 C 0 km/h
1625 28-02-2009 12:38:49 11.4 C 5.75 g/m*3 11.4 C 0 km/h
Sensor: Nr:Datum:Temp:Abs-Feuchte:Windchill:Wind:
Aussen-T/F 1626 28-02-2009 12:50:49 12 C 5.75 g/m*3 12 C 0 km/h
1627 28-02-2009 13:02:49 12.2 C 5.61 g/m*3 12.2 C 0 km/h
1628 28-02-2009 13:14:49 12.4 C 5.46 g/m*3 12.4 C 0 km/h
1629 28-02-2009 13:26:49 12.7 C 5.57 g/m*3 12.7 C 0 km/h
1630 28-02-2009 13:38:49 13.5 C 5.5 g/m*3 13.5 C 0 km/h
1631 28-02-2009 13:50:49 13.9 C 5.39 g/m*3 13.9 C 0 km/h
1632 28-02-2009 14:02:48 14.2 C 5.13 g/m*3 14.2 C 0 km/h
1633 28-02-2009 14:14:48 14.3 C 5.16 g/m*3 14.3 C 0 km/h
1634 28-02-2009 14:26:49 14 C 5.19 g/m*3 14 C 0 km/h
1635 28-02-2009 14:38:47 14.2 C 5.01 g/m*3 14.2 C 0 km/h
1636 28-02-2009 14:50:48 14.9 C 4.84 g/m*3 14.9 C 0 km/h
1637 28-02-2009 15:02:47 15.3 C 4.7 g/m*3 15.3 C 0 km/h
1638 28-02-2009 15:14:47 16.1 C 4.8 g/m*3 16.1 C 0 km/h
1639 28-02-2009 15:26:47 16.8 C 4.86 g/m*3 16.8 C 0 km/h
1640 28-02-2009 15:38:48 18 C 4.76 g/m*3 18 C 0 km/h
1641 28-02-2009 15:50:47 18.1 C 4.79 g/m*3 18.1 C 0 km/h
1642 28-02-2009 16:02:47 17.6 C 4.95 g/m*3 17.6 C 0 km/h
1643 28-02-2009 16:14:47 16.8 C 5.15 g/m*3 16.8 C 0 km/h
1644 28-02-2009 16:26:47 16.6 C 5.23 g/m*3 16.6 C 0 km/h
1645 28-02-2009 16:38:47 16.1 C 5.21 g/m*3 16.1 C 0 km/h
1646 28-02-2009 16:50:47 15.6 C 5.32 g/m*3 15.6 C 0 km/h
1647 28-02-2009 17:02:48 15.2 C 5.32 g/m*3 15.2 C 0 km/h
1648 28-02-2009 17:14:46 15 C 5.39 g/m*3 15 C 0 km/h
1649 28-02-2009 17:26:46 14.7 C 5.79 g/m*3 14.7 C 0 km/h
1650 28-02-2009 17:38:47 14.3 C 5.77 g/m*3 14.3 C 0 km/h
Sensor: Nr:Datum:Temp:Abs-Feuchte:Windchill:Wind:
Aussen-T/F 1651 28-02-2009 17:50:46 13.8 C 5.84 g/m*3 13.8 C 0 km/h
1652 28-02-2009 18:02:46 13.4 C 5.81 g/m*3 13.4 C 0 km/h
1653 28-02-2009 18:14:46 12.9 C 5.86 g/m*3 12.9 C 0 km/h
1654 28-02-2009 18:26:46 12.2 C 5.83 g/m*3 12.2 C 0 km/h
1655 28-02-2009 18:38:46 12 C 5.86 g/m*3 12 C 0 km/h
1656 28-02-2009 18:50:45 11.7 C 5.86 g/m*3 11.7 C 0 km/h
1657 28-02-2009 19:02:45 11.6 C 5.82 g/m*3 11.6 C 0 km/h
1658 28-02-2009 19:14:46 11.4 C 5.75 g/m*3 11.4 C 0 km/h
1659 28-02-2009 19:26:46 11.2 C 5.78 g/m*3 11.2 C 0 km/h
1660 28-02-2009 19:38:45 11.1 C 5.74 g/m*3 11.1 C 0 km/h
1661 28-02-2009 19:50:44 11 C 5.71 g/m*3 11 C 0 km/h
1662 28-02-2009 20:02:45 10.7 C 5.8 g/m*3 10.7 C 0 km/h
1663 28-02-2009 20:14:45 10.2 C 5.71 g/m*3 10.2 C 0 km/h
1664 28-02-2009 20:26:45 10 C 5.73 g/m*3 10 C 0 km/h
1665 28-02-2009 20:38:44 9.7 C 5.81 g/m*3 9.7 C 0 km/h
1666 28-02-2009 20:50:45 9.6 C 5.77 g/m*3 9.6 C 0 km/h
1667 28-02-2009 21:02:44 9.5 C 5.83 g/m*3 9.5 C 0 km/h
1668 28-02-2009 21:14:45 9.4 C 5.88 g/m*3 9.4 C 0 km/h
1669 28-02-2009 21:26:45 9.2 C 5.8 g/m*3 9.2 C 0 km/h
1670 28-02-2009 21:38:44 9.1 C 5.86 g/m*3 9.1 C 0 km/h
1671 28-02-2009 21:50:44 8.8 C 5.83 g/m*3 8.8 C 0 km/h
1672 28-02-2009 22:02:44 8.7 C 5.88 g/m*3 8.7 C 0 km/h
1673 28-02-2009 22:14:44 8.7 C 5.97 g/m*3 8.7 C 0 km/h
1674 28-02-2009 22:26:44 8.7 C 5.97 g/m*3 8.7 C 0 km/h
1675 28-02-2009 22:38:43 8.4 C 5.85 g/m*3 8.4 C 0 km/h
Sensor: Nr:Datum:Temp:Abs-Feuchte:Windchill:Wind:
Aussen-T/F 1676 28-02-2009 22:51:44 8.2 C 5.86 g/m*3 8.2 C 0 km/h
1677 28-02-2009 23:03:44 7.9 C 5.91 g/m*3 7.9 C 0 km/h
1678 28-02-2009 23:15:44 7.7 C 5.84 g/m*3 7.7 C 0 km/h
1679 28-02-2009 23:27:44 7.5 C 5.84 g/m*3 7.5 C 0 km/h
1680 28-02-2009 23:39:44 7.4 C 5.88 g/m*3 7.4 C 0 km/h
1681 28-02-2009 23:51:45 7.2 C 5.81 g/m*3 7.2 C 0 km/h
1682 01-03-2009 00:03:45 7.1 C 5.85 g/m*3 7.1 C 0 km/h
1683 01-03-2009 00:15:45 7 C 5.81 g/m*3 7 C 0 km/h
1684 01-03-2009 00:27:45 7.4 C 6.12 g/m*3 7.4 C 0 km/h
1685 01-03-2009 00:39:45 7.7 C 6.16 g/m*3 7.7 C 0 km/h
1686 01-03-2009 00:51:45 7.7 C 6.08 g/m*3 7.7 C 0 km/h
1687 01-03-2009 01:03:45 7.5 C 5.92 g/m*3 7.5 C 0 km/h
1688 01-03-2009 01:15:45 7.6 C 5.96 g/m*3 7.6 C 0 km/h
1689 01-03-2009 01:27:45 7.7 C 6 g/m*3 7.7 C 0 km/h
1690 01-03-2009 01:39:45 7.8 C 6.04 g/m*3 7.8 C 0 km/h
1691 01-03-2009 01:51:45 7.9 C 6.08 g/m*3 7.9 C 0 km/h
1692 01-03-2009 02:03:45 7.8 C 5.96 g/m*3 7.8 C 0 km/h
1693 01-03-2009 02:15:45 7.8 C 5.96 g/m*3 7.8 C 0 km/h
1694 01-03-2009 02:27:45 7.9 C 6 g/m*3 7.9 C 0 km/h
1695 01-03-2009 02:39:45 7.7 C 5.92 g/m*3 7.7 C 0 km/h
1696 01-03-2009 02:51:45 7.6 C 5.88 g/m*3 7.6 C 0 km/h
1697 01-03-2009 03:03:45 7.5 C 5.84 g/m*3 7.5 C 0 km/h
1698 01-03-2009 03:15:45 7.2 C 5.81 g/m*3 7.2 C 0 km/h
1699 01-03-2009 03:27:45 6.8 C 5.74 g/m*3 6.8 C 0 km/h
1700 01-03-2009 03:39:46 6.7 C 5.85 g/m*3 6.7 C 0 km/h
Sensor: Nr:Datum:Temp:Abs-Feuchte:Windchill:Wind:
Aussen-T/F 1701 01-03-2009 03:51:46 6.5 C 5.85 g/m*3 6.5 C 0 km/h
1702 01-03-2009 04:03:46 6.5 C 5.85 g/m*3 6.5 C 0 km/h
1703 01-03-2009 04:15:46 6.3 C 5.77 g/m*3 6.3 C 0 km/h
1704 01-03-2009 04:27:46 6.2 C 5.74 g/m*3 6.2 C 0 km/h
1705 01-03-2009 04:39:46 6.2 C 5.81 g/m*3 6.2 C 0 km/h
1706 01-03-2009 04:51:46 6 C 5.66 g/m*3 6 C 0 km/h
1707 01-03-2009 05:03:46 6 C 5.73 g/m*3 6 C 0 km/h
1708 01-03-2009 05:15:46 6.4 C 5.96 g/m*3 6.4 C 0 km/h
1709 01-03-2009 05:27:46 6.4 C 5.96 g/m*3 6.4 C 0 km/h
1710 01-03-2009 05:39:46 6.4 C 5.89 g/m*3 6.4 C 0 km/h
1711 01-03-2009 05:51:46 6.3 C 5.77 g/m*3 6.3 C 0 km/h
1712 01-03-2009 06:03:46 6.3 C 5.85 g/m*3 6.3 C 0 km/h
1713 01-03-2009 06:15:46 6.5 C 5.92 g/m*3 6.5 C 0 km/h
1714 01-03-2009 06:27:46 6.6 C 5.96 g/m*3 6.6 C 0 km/h
1715 01-03-2009 06:39:46 6.7 C 6 g/m*3 6.7 C 0 km/h
1716 01-03-2009 06:51:46 6.8 C 6.04 g/m*3 6.8 C 0 km/h
1717 01-03-2009 07:03:46 6.8 C 6.04 g/m*3 6.8 C 0 km/h
1718 01-03-2009 07:15:46 6.9 C 6 g/m*3 6.9 C 0 km/h
1719 01-03-2009 07:27:47 6.8 C 5.97 g/m*3 6.8 C 0 km/h
1720 01-03-2009 07:39:47 6.9 C 6 g/m*3 6.9 C 0 km/h
1721 01-03-2009 07:51:47 7 C 5.97 g/m*3 7 C 0 km/h
1722 01-03-2009 08:03:47 7.2 C 6.04 g/m*3 7.2 C 0 km/h
1723 01-03-2009 08:15:47 7.4 C 6.04 g/m*3 7.4 C 0 km/h
1724 01-03-2009 08:27:47 7.6 C 6.04 g/m*3 7.6 C 0 km/h
1725 01-03-2009 08:39:47 7.8 C 6.12 g/m*3 7.8 C 0 km/h
Sensor: Nr:Datum:Temp:Abs-Feuchte:Windchill:Wind:
Aussen-T/F 1726 01-03-2009 08:51:47 7.9 C 6 g/m*3 7.9 C 0 km/h
1727 01-03-2009 09:03:43 8 C 5.87 g/m*3 8 C 0 km/h
1728 01-03-2009 09:15:44 8.1 C 5.74 g/m*3 8.1 C 0 km/h
1729 01-03-2009 09:27:44 8.4 C 5.85 g/m*3 8.4 C 0 km/h
1730 01-03-2009 09:39:44 8.6 C 5.76 g/m*3 8.6 C 0 km/h
1731 01-03-2009 09:51:43 8.7 C 5.62 g/m*3 8.7 C 0 km/h
1732 01-03-2009 10:03:43 9.1 C 5.68 g/m*3 9.1 C 0 km/h
1733 01-03-2009 10:15:43 9.3 C 5.66 g/m*3 9.3 C 0 km/h
1734 01-03-2009 10:27:43 9.6 C 5.59 g/m*3 9.6 C 0 km/h
1735 01-03-2009 10:39:43 10 C 5.45 g/m*3 10 C 0 km/h
1736 01-03-2009 10:51:43 10.1 C 5.48 g/m*3 10.1 C 0 km/h
1737 01-03-2009 11:03:43 10.7 C 5.4 g/m*3 10.7 C 0 km/h
1738 01-03-2009 11:15:42 10.5 C 5.43 g/m*3 10.5 C 0 km/h
1739 01-03-2009 11:27:42 10.6 C 5.37 g/m*3 10.6 C 0 km/h
1740 01-03-2009 11:39:42 10.9 C 5.37 g/m*3 10.9 C 0 km/h
1741 01-03-2009 11:51:42 11.5 C 5.47 g/m*3 11.5 C 0 km/h
1742 01-03-2009 12:03:42 11.7 C 5.33 g/m*3 11.7 C 0 km/h
1743 01-03-2009 12:15:42 11.8 C 5.26 g/m*3 11.8 C 0 km/h
1744 01-03-2009 12:27:42 11.6 C 5.2 g/m*3 11.6 C 0 km/h
1745 01-03-2009 12:39:42 12.1 C 5.15 g/m*3 12.1 C 0 km/h
1746 01-03-2009 12:51:42 12.8 C 5.15 g/m*3 12.8 C 0 km/h
1747 01-03-2009 13:03:41 13.3 C 5.08 g/m*3 13.3 C 0 km/h
1748 01-03-2009 13:15:42 13.5 C 5.03 g/m*3 13.5 C 0 km/h
1749 01-03-2009 13:27:42 13.8 C 5.12 g/m*3 13.8 C 0 km/h
1750 01-03-2009 13:39:41 13.3 C 4.97 g/m*3 13.3 C 0 km/h
Sensor: Nr:Datum:Temp:Abs-Feuchte:Windchill:Wind:
Aussen-T/F 1751 01-03-2009 13:51:41 13.6 C 5.06 g/m*3 13.6 C 0 km/h
1752 01-03-2009 14:03:41 13.9 C 5.15 g/m*3 13.9 C 0 km/h
1753 01-03-2009 14:15:41 13.9 C 5.04 g/m*3 13.9 C 0 km/h
1754 01-03-2009 14:27:41 13.9 C 5.04 g/m*3 13.9 C 0 km/h
1755 01-03-2009 14:39:41 13.9 C 5.04 g/m*3 13.9 C 0 km/h
1756 01-03-2009 14:51:41 14.2 C 5.01 g/m*3 14.2 C 0 km/h
1757 01-03-2009 15:03:41 14.5 C 5.1 g/m*3 14.5 C 0 km/h
1758 01-03-2009 15:15:40 14.4 C 5.07 g/m*3 14.4 C 0 km/h
1759 01-03-2009 15:27:40 15.1 C 5.03 g/m*3 15.1 C 0 km/h
1760 01-03-2009 15:39:40 15.2 C 5.06 g/m*3 15.2 C 0 km/h
1761 01-03-2009 15:51:40 14.8 C 5.07 g/m*3 14.8 C 0 km/h
1762 01-03-2009 16:03:40 14.5 C 4.97 g/m*3 14.5 C 0 km/h
1763 01-03-2009 16:15:39 14.1 C 4.85 g/m*3 14.1 C 0 km/h
1764 01-03-2009 16:27:39 13.7 C 4.86 g/m*3 13.7 C 0 km/h
1765 01-03-2009 16:39:40 13.5 C 4.91 g/m*3 13.5 C 0 km/h
1766 01-03-2009 16:51:39 13.3 C 4.97 g/m*3 13.3 C 0 km/h
1767 01-03-2009 17:03:39 13.2 C 5.05 g/m*3 13.2 C 0 km/h
1768 01-03-2009 17:15:40 13 C 4.99 g/m*3 13 C 0 km/h
1769 01-03-2009 17:27:40 12.8 C 5.15 g/m*3 12.8 C 0 km/h
1770 01-03-2009 17:39:39 12.5 C 5.06 g/m*3 12.5 C 0 km/h
1771 01-03-2009 17:51:39 12.4 C 5.24 g/m*3 12.4 C 0 km/h
1772 01-03-2009 18:03:38 11.8 C 5.58 g/m*3 11.8 C 0 km/h
1773 01-03-2009 18:15:39 11.4 C 5.65 g/m*3 11.4 C 0 km/h
1774 01-03-2009 18:27:39 11.2 C 5.68 g/m*3 11.2 C 0 km/h
1775 01-03-2009 18:39:38 11.1 C 5.54 g/m*3 11.1 C 0 km/h
Sensor: Nr:Datum:Temp:Abs-Feuchte:Windchill:Wind:
Aussen-T/F 1776 01-03-2009 18:51:38 10.9 C 5.67 g/m*3 10.9 C 0 km/h
1777 01-03-2009 19:03:38 10.9 C 5.77 g/m*3 10.9 C 0 km/h
1778 01-03-2009 19:15:38 11 C 5.61 g/m*3 11 C 0 km/h
1779 01-03-2009 19:27:38 11 C 5.61 g/m*3 11 C 0 km/h
1780 01-03-2009 19:39:38 11.2 C 5.57 g/m*3 11.2 C 0 km/h
1781 01-03-2009 19:51:38 11.5 C 5.37 g/m*3 11.5 C 0 km/h
1782 01-03-2009 20:03:38 11.9 C 5.3 g/m*3 11.9 C 0 km/h
1783 01-03-2009 20:15:37 12 C 5.12 g/m*3 12 C 0 km/h
1784 01-03-2009 20:27:37 12 C 5.12 g/m*3 12 C 0 km/h
1785 01-03-2009 20:39:37 11.8 C 5.16 g/m*3 11.8 C 0 km/h
1786 01-03-2009 20:51:37 11.8 C 5.16 g/m*3 11.8 C 0 km/h
1787 01-03-2009 21:03:37 11.7 C 5.12 g/m*3 11.7 C 0 km/h
1788 01-03-2009 21:15:37 11.8 C 5.16 g/m*3 11.8 C 0 km/h
1789 01-03-2009 21:27:37 11.6 C 5.2 g/m*3 11.6 C 0 km/h
1790 01-03-2009 21:39:37 11.4 C 5.23 g/m*3 11.4 C 0 km/h
1791 01-03-2009 21:51:36 11.4 C 5.23 g/m*3 11.4 C 0 km/h
1792 01-03-2009 22:03:36 11.1 C 5.54 g/m*3 11.1 C 0 km/h
1793 01-03-2009 22:15:37 10.5 C 6.01 g/m*3 10.5 C 0 km/h
1794 01-03-2009 22:27:37 10.1 C 6.34 g/m*3 10.1 C 0 km/h
1795 01-03-2009 22:40:37 9.8 C 6.49 g/m*3 9.8 C 0 km/h
1796 01-03-2009 22:52:37 9.7 C 6.45 g/m*3 9.7 C 0 km/h
1797 01-03-2009 23:04:37 9.5 C 6.55 g/m*3 9.5 C 0 km/h
1798 01-03-2009 23:16:37 9.5 C 6.64 g/m*3 9.5 C 0 km/h
1799 01-03-2009 23:28:37 9.6 C 6.5 g/m*3 9.6 C 0 km/h
1800 01-03-2009 23:40:37 9.8 C 6.31 g/m*3 9.8 C 0 km/h
Sensor: Nr:Datum:Temp:Abs-Feuchte:Windchill:Wind:
Aussen-T/F 1801 01-03-2009 23:52:37 9.8 C 6.31 g/m*3 9.8 C 0 km/h
1802 02-03-2009 00:04:37 9.8 C 6.22 g/m*3 9.8 C 0 km/h
1803 02-03-2009 00:16:38 9.8 C 6.31 g/m*3 9.8 C 0 km/h
1804 02-03-2009 00:28:38 9.5 C 6.46 g/m*3 9.5 C 0 km/h
1805 02-03-2009 00:40:38 9.2 C 6.52 g/m*3 9.2 C 0 km/h
1806 02-03-2009 00:52:38 9.1 C 6.57 g/m*3 9.1 C 0 km/h
1807 02-03-2009 01:04:38 9.1 C 6.57 g/m*3 9.1 C 0 km/h
1808 02-03-2009 01:16:38 9.1 C 6.57 g/m*3 9.1 C 0 km/h
1809 02-03-2009 01:28:38 9.1 C 6.57 g/m*3 9.1 C 0 km/h
1810 02-03-2009 01:40:38 9.1 C 6.48 g/m*3 9.1 C 0 km/h
1811 02-03-2009 01:52:38 9 C 6.61 g/m*3 9 C 0 km/h
1812 02-03-2009 02:04:38 8.9 C 6.66 g/m*3 8.9 C 0 km/h
1813 02-03-2009 02:16:38 8.8 C 6.7 g/m*3 8.8 C 0 km/h
1814 02-03-2009 02:28:38 8.7 C 6.75 g/m*3 8.7 C 0 km/h
1815 02-03-2009 02:40:38 8.6 C 6.7 g/m*3 8.6 C 0 km/h
1816 02-03-2009 02:52:38 8.6 C 6.79 g/m*3 8.6 C 0 km/h
1817 02-03-2009 03:04:38 8.7 C 6.92 g/m*3 8.7 C 0 km/h
1818 02-03-2009 03:16:38 8.5 C 7 g/m*3 8.5 C 0 km/h
1819 02-03-2009 03:28:38 8.5 C 7 g/m*3 8.5 C 0 km/h
1820 02-03-2009 03:40:38 8.5 C 7.09 g/m*3 8.5 C 0 km/h
1821 02-03-2009 03:52:38 8.4 C 7.04 g/m*3 8.4 C 0 km/h
1822 02-03-2009 04:04:39 8.4 C 7.13 g/m*3 8.4 C 0 km/h
1823 02-03-2009 04:16:39 8.4 C 7.21 g/m*3 8.4 C 0 km/h
1824 02-03-2009 04:28:39 8.3 C 7.25 g/m*3 8.3 C 0 km/h
1825 02-03-2009 04:40:39 8.3 C 7.25 g/m*3 8.3 C 0 km/h
Sensor: Nr:Datum:Temp:Abs-Feuchte:Windchill:Wind:
Aussen-T/F 1826 02-03-2009 04:52:39 8.3 C 7.33 g/m*3 8.3 C 0 km/h
1827 02-03-2009 05:04:39 8.2 C 7.29 g/m*3 8.2 C 0 km/h
1828 02-03-2009 05:16:39 8.2 C 7.29 g/m*3 8.2 C 0 km/h
1829 02-03-2009 05:28:39 8.2 C 7.29 g/m*3 8.2 C 0 km/h
1830 02-03-2009 05:40:39 8.1 C 7.24 g/m*3 8.1 C 0 km/h
1831 02-03-2009 05:52:39 8.1 C 7.16 g/m*3 8.1 C 0 km/h
1832 02-03-2009 06:04:39 8.2 C 7.2 g/m*3 8.2 C 0 km/h
1833 02-03-2009 06:16:39 8.2 C 7.12 g/m*3 8.2 C 0 km/h
1834 02-03-2009 06:28:39 8.2 C 7.12 g/m*3 8.2 C 0 km/h
1835 02-03-2009 06:40:39 8.1 C 7.07 g/m*3 8.1 C 0 km/h
1836 02-03-2009 06:52:39 8.2 C 7.12 g/m*3 8.2 C 0 km/h
1837 02-03-2009 07:04:37 8.2 C 7.2 g/m*3 8.2 C 0 km/h
1838 02-03-2009 07:16:37 8.4 C 7.21 g/m*3 8.4 C 0 km/h
1839 02-03-2009 07:28:37 8.4 C 7.13 g/m*3 8.4 C 0 km/h
1840 02-03-2009 07:40:37 8.4 C 7.04 g/m*3 8.4 C 0 km/h
1841 02-03-2009 07:52:38 8.3 C 6.91 g/m*3 8.3 C 0 km/h
1842 02-03-2009 08:04:37 8.3 C 7 g/m*3 8.3 C 0 km/h
1843 02-03-2009 08:16:36 8.3 C 7 g/m*3 8.3 C 0 km/h
1844 02-03-2009 08:28:37 8.2 C 7.03 g/m*3 8.2 C 0 km/h
1845 02-03-2009 08:40:36 8.2 C 7.03 g/m*3 8.2 C 0 km/h
1846 02-03-2009 08:52:36 8.1 C 6.99 g/m*3 8.1 C 0 km/h
1847 02-03-2009 09:04:36 8.1 C 7.07 g/m*3 8.1 C 0 km/h
1848 02-03-2009 09:16:35 8.1 C 7.07 g/m*3 8.1 C 0 km/h
1849 02-03-2009 09:28:35 8.1 C 7.07 g/m*3 8.1 C 0 km/h
1850 02-03-2009 09:40:36 8.1 C 7.16 g/m*3 8.1 C 0 km/h
Sensor: Nr:Datum:Temp:Abs-Feuchte:Windchill:Wind:
Aussen-T/F 1851 02-03-2009 09:52:35 8.1 C 7.16 g/m*3 8.1 C 0 km/h
1852 02-03-2009 10:04:35 8.1 C 7.24 g/m*3 8.1 C 0 km/h
1853 02-03-2009 10:16:36 8.2 C 7.29 g/m*3 8.2 C 0 km/h
1854 02-03-2009 10:28:36 8 C 7.19 g/m*3 8 C 0 km/h
1855 02-03-2009 10:40:35 8.1 C 7.07 g/m*3 8.1 C 0 km/h
1856 02-03-2009 10:52:35 8.2 C 7.03 g/m*3 8.2 C 0 km/h
1857 02-03-2009 11:04:35 8.2 C 6.95 g/m*3 8.2 C 0 km/h
1858 02-03-2009 11:16:35 8.1 C 6.82 g/m*3 8.1 C 0 km/h
1859 02-03-2009 11:28:35 8 C 6.7 g/m*3 8 C 0 km/h
1860 02-03-2009 11:40:34 8 C 6.7 g/m*3 8 C 0 km/h
1861 02-03-2009 11:52:35 8.2 C 6.87 g/m*3 8.2 C 0 km/h
1862 02-03-2009 12:04:34 8.6 C 6.96 g/m*3 8.6 C 0 km/h
1863 02-03-2009 12:16:34 8.8 C 6.7 g/m*3 8.8 C 0 km/h
1864 02-03-2009 12:28:34 8.9 C 6.31 g/m*3 8.9 C 0 km/h
1865 02-03-2009 12:40:34 8.7 C 6.05 g/m*3 8.7 C 0 km/h
1866 02-03-2009 12:52:34 9.5 C 6.1 g/m*3 9.5 C 0 km/h
1867 02-03-2009 13:04:34 9.2 C 5.45 g/m*3 9.2 C 0 km/h
1868 02-03-2009 13:16:33 9 C 5.2 g/m*3 9 C 0 km/h
1869 02-03-2009 13:28:33 9.3 C 5.3 g/m*3 9.3 C 0 km/h
1870 02-03-2009 13:40:34 9.8 C 5.38 g/m*3 9.8 C 0 km/h
1871 02-03-2009 13:52:33 10.6 C 5.08 g/m*3 10.6 C 0 km/h
1872 02-03-2009 14:04:33 10.1 C 4.54 g/m*3 10.1 C 0 km/h
1873 02-03-2009 14:16:33 10.2 C 4.57 g/m*3 10.2 C 0 km/h
1874 02-03-2009 14:28:33 10.7 C 4.62 g/m*3 10.7 C 0 km/h
1875 02-03-2009 14:40:33 10.4 C 4.43 g/m*3 10.4 C 0 km/h
Sensor: Nr:Datum:Temp:Abs-Feuchte:Windchill:Wind:
Aussen-T/F 1876 02-03-2009 14:52:32 10.4 C 4.53 g/m*3 10.4 C 0 km/h
1877 02-03-2009 15:04:33 10.3 C 4.31 g/m*3 10.3 C 0 km/h
1878 02-03-2009 15:16:33 10.3 C 4.31 g/m*3 10.3 C 0 km/h
1879 02-03-2009 15:28:33 10.2 C 4.28 g/m*3 10.2 C 0 km/h
1880 02-03-2009 15:40:32 10.8 C 4.45 g/m*3 10.8 C 0 km/h
1881 02-03-2009 15:52:32 10.7 C 4.42 g/m*3 10.7 C 0 km/h
1882 02-03-2009 16:04:32 10.5 C 4.27 g/m*3 10.5 C 0 km/h
1883 02-03-2009 16:16:32 10.3 C 4.31 g/m*3 10.3 C 0 km/h
1884 02-03-2009 16:28:33 10 C 4.32 g/m*3 10 C 0 km/h
1885 02-03-2009 16:40:31 10 C 4.32 g/m*3 10 C 0 km/h
1886 02-03-2009 16:52:32 9.8 C 4.36 g/m*3 9.8 C 0 km/h
1887 02-03-2009 17:04:31 9.7 C 4.61 g/m*3 9.7 C 0 km/h
1888 02-03-2009 17:16:31 9.5 C 4.55 g/m*3 9.5 C 0 km/h
1889 02-03-2009 17:28:31 9.2 C 4.46 g/m*3 9.2 C 0 km/h
1890 02-03-2009 17:40:32 8.9 C 4.56 g/m*3 8.9 C 0 km/h
1891 02-03-2009 17:52:31 8.5 C 4.53 g/m*3 8.5 C 0 km/h
1892 02-03-2009 18:04:31 8.3 C 4.55 g/m*3 8.3 C 0 km/h
1893 02-03-2009 18:16:31 8.1 C 4.66 g/m*3 8.1 C 0 km/h
1894 02-03-2009 18:28:31 7.8 C 4.65 g/m*3 7.8 C 0 km/h
1895 02-03-2009 18:40:30 7.8 C 4.65 g/m*3 7.8 C 0 km/h
1896 02-03-2009 18:52:31 7.5 C 4.64 g/m*3 7.5 C 0 km/h
1897 02-03-2009 19:04:30 7.6 C 4.59 g/m*3 7.6 C 0 km/h
1898 02-03-2009 19:16:30 7.5 C 4.48 g/m*3 7.5 C 0 km/h
1899 02-03-2009 19:28:30 7.3 C 4.5 g/m*3 7.3 C 0 km/h
1900 02-03-2009 19:40:30 7.1 C 4.52 g/m*3 7.1 C 0 km/h
Sensor: Nr:Datum:Temp:Abs-Feuchte:Windchill:Wind:
Aussen-T/F 1901 02-03-2009 19:52:30 6.8 C 4.51 g/m*3 6.8 C 0 km/h
1902 02-03-2009 20:04:29 6.4 C 4.47 g/m*3 6.4 C 0 km/h
1903 02-03-2009 20:16:30 6 C 4.43 g/m*3 6 C 0 km/h
1904 02-03-2009 20:28:30 5.8 C 4.51 g/m*3 5.8 C 0 km/h
1905 02-03-2009 20:40:30 5.4 C 4.4 g/m*3 5.4 C 0 km/h
1906 02-03-2009 20:52:29 5.1 C 4.45 g/m*3 5.1 C 0 km/h
1907 02-03-2009 21:04:29 4.8 C 4.49 g/m*3 4.8 C 0 km/h
1908 02-03-2009 21:16:29 4.6 C 4.5 g/m*3 4.6 C 0 km/h
1909 02-03-2009 21:28:29 4.4 C 4.51 g/m*3 4.4 C 0 km/h
1910 02-03-2009 21:40:29 4.1 C 4.48 g/m*3 4.1 C 0 km/h
1911 02-03-2009 21:52:29 3.9 C 4.55 g/m*3 3.9 C 0 km/h
1912 02-03-2009 22:04:29 3.7 C 4.55 g/m*3 3.7 C 0 km/h
1913 02-03-2009 22:16:28 3.7 C 4.55 g/m*3 3.7 C 0 km/h
1914 02-03-2009 22:28:28 3.5 C 4.55 g/m*3 3.5 C 0 km/h
1915 02-03-2009 22:40:29 3.4 C 4.52 g/m*3 3.4 C 0 km/h
1916 02-03-2009 22:53:29 3 C 4.52 g/m*3 3 C 0 km/h
1917 02-03-2009 23:05:29 2.8 C 4.58 g/m*3 2.8 C 0 km/h
1918 02-03-2009 23:17:29 2.7 C 4.54 g/m*3 2.7 C 0 km/h
1919 02-03-2009 23:29:29 2.9 C 4.72 g/m*3 2.9 C 0 km/h
1920 02-03-2009 23:41:29 3.1 C 4.73 g/m*3 3.1 C 0 km/h
1921 02-03-2009 23:53:29 2.8 C 4.63 g/m*3 2.8 C 0 km/h
1922 03-03-2009 00:05:29 2.6 C 4.57 g/m*3 2.6 C 0 km/h
1923 03-03-2009 00:17:30 2.9 C 4.67 g/m*3 2.9 C 0 km/h
1924 03-03-2009 00:29:30 3.1 C 4.61 g/m*3 3.1 C 0 km/h
1925 03-03-2009 00:41:30 3 C 4.52 g/m*3 3 C 0 km/h
Sensor: Nr:Datum:Temp:Abs-Feuchte:Windchill:Wind:
Aussen-T/F 1926 03-03-2009 00:53:30 2.9 C 4.55 g/m*3 2.9 C 0 km/h
1927 03-03-2009 01:05:30 3 C 4.52 g/m*3 3 C 0 km/h
1928 03-03-2009 01:17:30 3 C 4.46 g/m*3 3 C 0 km/h
1929 03-03-2009 01:29:30 3.1 C 4.43 g/m*3 3.1 C 0 km/h
1930 03-03-2009 01:41:30 3 C 4.4 g/m*3 3 C 0 km/h
1931 03-03-2009 01:53:30 2.8 C 4.4 g/m*3 2.8 C 0 km/h
1932 03-03-2009 02:05:30 2.6 C 4.34 g/m*3 2.6 C 0 km/h
1933 03-03-2009 02:17:30 2.4 C 4.28 g/m*3 2.4 C 0 km/h
1934 03-03-2009 02:29:30 2.3 C 4.31 g/m*3 2.3 C 0 km/h
1935 03-03-2009 02:41:30 2.2 C 4.28 g/m*3 2.2 C 0 km/h
1936 03-03-2009 02:53:30 2.1 C 4.36 g/m*3 2.1 C 0 km/h
1937 03-03-2009 03:05:30 1.9 C 4.42 g/m*3 1.9 C 0 km/h
1938 03-03-2009 03:17:30 1.6 C 4.27 g/m*3 1.6 C 0 km/h
1939 03-03-2009 03:29:30 1.5 C 4.3 g/m*3 1.5 C 0 km/h
1940 03-03-2009 03:41:30 1.5 C 4.35 g/m*3 1.5 C 0 km/h
1941 03-03-2009 03:53:30 1.2 C 4.31 g/m*3 1.2 C 0 km/h
1942 03-03-2009 04:05:31 1.2 C 4.31 g/m*3 1.2 C 0 km/h
1943 03-03-2009 04:17:31 1.5 C 4.46 g/m*3 1.5 C 0 km/h
1944 03-03-2009 04:29:31 1.4 C 4.43 g/m*3 1.4 C 0 km/h
1945 03-03-2009 04:41:31 1.3 C 4.4 g/m*3 1.3 C 0 km/h
1946 03-03-2009 04:53:31 1 C 4.26 g/m*3 1 C 0 km/h
1947 03-03-2009 05:05:31 0.7 C 4.22 g/m*3 0.7 C 0 km/h
1948 03-03-2009 05:17:31 0.5 C 4.16 g/m*3 0.5 C 0 km/h
1949 03-03-2009 05:29:31 0.3 C 4.11 g/m*3 0.3 C 0 km/h
1950 03-03-2009 05:41:31 0.3 C 4.11 g/m*3 0.3 C 0 km/h
Sensor: Nr:Datum:Temp:Abs-Feuchte:Windchill:Wind:
Aussen-T/F 1951 03-03-2009 05:53:31 0.1 C 4.1 g/m*3 0.1 C 0 km/h
1952 03-03-2009 06:05:31 0 C 4.07 g/m*3 0 C 0 km/h
1953 03-03-2009 06:17:31 -0.1 C 4.04 g/m*3 -0.1 C 0 km/h
1954 03-03-2009 06:29:31 0 C 4.07 g/m*3 0 C 0 km/h
1955 03-03-2009 06:41:31 -0.1 C 4.04 g/m*3 -0.1 C 0 km/h
1956 03-03-2009 06:53:31 -0.2 C 4.01 g/m*3 -0.2 C 0 km/h
1957 03-03-2009 07:05:29 -0.3 C 3.99 g/m*3 -0.3 C 0 km/h
1958 03-03-2009 07:17:28 -0.4 C 3.96 g/m*3 -0.4 C 0 km/h
1959 03-03-2009 07:29:28 -0.4 C 3.96 g/m*3 -0.4 C 0 km/h
1960 03-03-2009 07:41:29 -0.4 C 4.01 g/m*3 -0.4 C 0 km/h
1961 03-03-2009 07:53:28 -0.4 C 4.01 g/m*3 -0.4 C 0 km/h
1962 03-03-2009 08:05:28 -0.3 C 4.03 g/m*3 -0.3 C 0 km/h
1963 03-03-2009 08:17:28 -0.2 C 4.11 g/m*3 -0.2 C 0 km/h
1964 03-03-2009 08:29:28 -0.1 C 4.14 g/m*3 -0.1 C 0 km/h
1965 03-03-2009 08:41:28 0.1 C 4.24 g/m*3 0.1 C 0 km/h
1966 03-03-2009 08:53:27 0.4 C 4.33 g/m*3 0.4 C 0 km/h
1967 03-03-2009 09:05:28 0.9 C 4.48 g/m*3 0.9 C 0 km/h
1968 03-03-2009 09:17:27 1.2 C 4.47 g/m*3 1.2 C 0 km/h
1969 03-03-2009 09:29:27 1.2 C 4.42 g/m*3 1.2 C 0 km/h
1970 03-03-2009 09:41:28 1.3 C 4.4 g/m*3 1.3 C 0 km/h
1971 03-03-2009 09:53:27 1.7 C 4.52 g/m*3 1.7 C 0 km/h
1972 03-03-2009 10:05:27 2.1 C 4.59 g/m*3 2.1 C 0 km/h
1973 03-03-2009 10:17:27 2.6 C 4.69 g/m*3 2.6 C 0 km/h
1974 03-03-2009 10:29:27 3.1 C 4.79 g/m*3 3.1 C 0 km/h
1975 03-03-2009 10:41:27 3.7 C 4.8 g/m*3 3.7 C 0 km/h
Sensor: Nr:Datum:Temp:Abs-Feuchte:Windchill:Wind:
Aussen-T/F 1976 03-03-2009 10:53:27 4.3 C 4.8 g/m*3 4.3 C 0 km/h
1977 03-03-2009 11:05:26 5 C 4.62 g/m*3 5 C 0 km/h
1978 03-03-2009 11:17:27 5.3 C 4.71 g/m*3 5.3 C 0 km/h
1979 03-03-2009 11:29:27 6.4 C 4.4 g/m*3 6.4 C 0 km/h
1980 03-03-2009 11:41:26 6.7 C 4.41 g/m*3 6.7 C 0 km/h
1981 03-03-2009 11:53:26 7.2 C 4.32 g/m*3 7.2 C 0 km/h
1982 03-03-2009 12:05:26 7.6 C 4.27 g/m*3 7.6 C 0 km/h
1983 03-03-2009 12:17:27 8 C 4.13 g/m*3 8 C 0 km/h
1984 03-03-2009 12:29:27 8.2 C 3.85 g/m*3 8.2 C 0 km/h
1985 03-03-2009 12:41:26 8.7 C 3.89 g/m*3 8.7 C 0 km/h
1986 03-03-2009 12:53:26 9 C 3.61 g/m*3 9 C 0 km/h
1987 03-03-2009 13:05:26 9.3 C 3.5 g/m*3 9.3 C 0 km/h
1988 03-03-2009 13:17:25 9.6 C 3.21 g/m*3 9.6 C 0 km/h
1989 03-03-2009 13:29:25 9.8 C 3.06 g/m*3 9.8 C 0 km/h
1990 03-03-2009 13:41:25 10.5 C 3.01 g/m*3 10.5 C 0 km/h
1991 03-03-2009 13:53:25 10.8 C 2.97 g/m*3 10.8 C 0 km/h
1992 03-03-2009 14:05:25 11.1 C 2.82 g/m*3 11.1 C 0 km/h
1993 03-03-2009 14:17:24 11 C 2.7 g/m*3 11 C 0 km/h
1994 03-03-2009 14:29:24 10.7 C 2.55 g/m*3 10.7 C 0 km/h
1995 03-03-2009 14:41:25 11 C 2.5 g/m*3 11 C 0 km/h
1996 03-03-2009 14:53:24 11.8 C 2.53 g/m*3 11.8 C 0 km/h
1997 03-03-2009 15:05:24 11.3 C 2.24 g/m*3 11.3 C 0 km/h
1998 03-03-2009 15:17:24 11 C 2.6 g/m*3 11 C 0 km/h
1999 03-03-2009 15:29:24 11.5 C 2.79 g/m*3 11.5 C 0 km/h
2000 03-03-2009 15:41:24 11.6 C 2.6 g/m*3 11.6 C 0 km/h
Sensor: Nr:Datum:Temp:Abs-Feuchte:Windchill:Wind:
Aussen-T/F 2001 03-03-2009 15:53:24 11.2 C 2.33 g/m*3 11.2 C 0 km/h
2002 03-03-2009 16:05:23 10.6 C 2.44 g/m*3 10.6 C 0 km/h
2003 03-03-2009 16:17:24 10.4 C 2.51 g/m*3 10.4 C 0 km/h
2004 03-03-2009 16:29:24 10.5 C 2.52 g/m*3 10.5 C 0 km/h
2005 03-03-2009 16:41:23 10.6 C 2.54 g/m*3 10.6 C 0 km/h
2006 03-03-2009 16:53:23 10.1 C 2.36 g/m*3 10.1 C 0 km/h
2007 03-03-2009 17:05:24 9.9 C 2.61 g/m*3 9.9 C 0 km/h
2008 03-03-2009 17:17:23 10.2 C 2.66 g/m*3 10.2 C 0 km/h
2009 03-03-2009 17:29:23 10.5 C 2.62 g/m*3 10.5 C 0 km/h
2010 03-03-2009 17:41:23 10.2 C 2.47 g/m*3 10.2 C 0 km/h
2011 03-03-2009 17:53:23 9.7 C 2.58 g/m*3 9.7 C 0 km/h
2012 03-03-2009 18:05:23 9.1 C 2.75 g/m*3 9.1 C 0 km/h
2013 03-03-2009 18:17:22 8.2 C 2.93 g/m*3 8.2 C 0 km/h
2014 03-03-2009 18:29:22 7.5 C 3.04 g/m*3 7.5 C 0 km/h
2015 03-03-2009 18:41:23 6.9 C 3.16 g/m*3 6.9 C 0 km/h
2016 03-03-2009 18:53:22 6.6 C 3.25 g/m*3 6.6 C 0 km/h
2017 03-03-2009 19:05:22 6.4 C 3.2 g/m*3 6.4 C 0 km/h
2018 03-03-2009 19:17:22 6.5 C 3.37 g/m*3 6.5 C 0 km/h
2019 03-03-2009 19:29:22 6.8 C 3.21 g/m*3 6.8 C 0 km/h
2020 03-03-2009 19:41:22 6.7 C 3.27 g/m*3 6.7 C 0 km/h
2021 03-03-2009 19:53:22 6.5 C 3.3 g/m*3 6.5 C 0 km/h
2022 03-03-2009 20:05:21 6.4 C 3.28 g/m*3 6.4 C 0 km/h
2023 03-03-2009 20:17:22 6.4 C 3.2 g/m*3 6.4 C 0 km/h
2024 03-03-2009 20:29:22 6.3 C 3.11 g/m*3 6.3 C 0 km/h
2025 03-03-2009 20:41:21 6.1 C 3.14 g/m*3 6.1 C 0 km/h
Sensor: Nr:Datum:Temp:Abs-Feuchte:Windchill:Wind:
Aussen-T/F 2026 03-03-2009 20:53:21 6.2 C 3.09 g/m*3 6.2 C 0 km/h
2027 03-03-2009 21:05:21 6.4 C 3.05 g/m*3 6.4 C 0 km/h
2028 03-03-2009 21:17:21 6 C 2.9 g/m*3 6 C 0 km/h
2029 03-03-2009 21:29:21 5.9 C 2.96 g/m*3 5.9 C 0 km/h
2030 03-03-2009 21:41:20 5.8 C 2.94 g/m*3 5.8 C 0 km/h
2031 03-03-2009 21:53:21 5.8 C 2.87 g/m*3 5.8 C 0 km/h
2032 03-03-2009 22:05:20 5.7 C 3.13 g/m*3 5.7 C 0 km/h
2033 03-03-2009 22:17:20 5.8 C 3.01 g/m*3 5.8 C 0 km/h
2034 03-03-2009 22:29:20 6 C 2.98 g/m*3 6 C 0 km/h
2035 03-03-2009 22:41:20 5.9 C 3.03 g/m*3 5.9 C 0 km/h
2036 03-03-2009 22:54:21 6 C 2.98 g/m*3 6 C 0 km/h
2037 03-03-2009 23:06:22 6.2 C 2.94 g/m*3 6.2 C 0 km/h
2038 03-03-2009 23:18:22 6.4 C 3.05 g/m*3 6.4 C 0 km/h
2039 03-03-2009 23:30:22 6.2 C 3.09 g/m*3 6.2 C 0 km/h
2040 03-03-2009 23:42:22 6.4 C 3.13 g/m*3 6.4 C 0 km/h
2041 03-03-2009 23:54:22 5.9 C 3.24 g/m*3 5.9 C 0 km/h
2042 04-03-2009 00:06:22 5.5 C 3.23 g/m*3 5.5 C 0 km/h
2043 04-03-2009 00:18:22 5 C 3.26 g/m*3 5 C 0 km/h
2044 04-03-2009 00:30:22 4.5 C 3.48 g/m*3 4.5 C 0 km/h
2045 04-03-2009 00:42:22 4.4 C 3.53 g/m*3 4.4 C 0 km/h
2046 04-03-2009 00:54:22 4.2 C 3.61 g/m*3 4.2 C 0 km/h
2047 04-03-2009 01:06:22 4.3 C 3.63 g/m*3 4.3 C 0 km/h
2048 04-03-2009 01:18:22 4.1 C 3.71 g/m*3 4.1 C 0 km/h
2049 04-03-2009 01:30:22 3.9 C 3.79 g/m*3 3.9 C 0 km/h
2050 04-03-2009 01:42:22 3.7 C 3.8 g/m*3 3.7 C 0 km/h
Sensor: Nr:Datum:Temp:Abs-Feuchte:Windchill:Wind:
Aussen-T/F 2051 04-03-2009 01:54:22 3.6 C 3.78 g/m*3 3.6 C 0 km/h
2052 04-03-2009 02:06:22 3.4 C 3.79 g/m*3 3.4 C 0 km/h
2053 04-03-2009 02:18:22 3.3 C 3.88 g/m*3 3.3 C 0 km/h
2054 04-03-2009 02:30:22 3.2 C 3.86 g/m*3 3.2 C 0 km/h
2055 04-03-2009 02:42:22 3.2 C 3.92 g/m*3 3.2 C 0 km/h
2056 04-03-2009 02:54:22 3.1 C 3.95 g/m*3 3.1 C 0 km/h
2057 04-03-2009 03:06:23 2.9 C 3.9 g/m*3 2.9 C 0 km/h
2058 04-03-2009 03:18:23 2.7 C 3.9 g/m*3 2.7 C 0 km/h
2059 04-03-2009 03:30:23 2.7 C 3.96 g/m*3 2.7 C 0 km/h
2060 04-03-2009 03:42:23 2.8 C 4.05 g/m*3 2.8 C 0 km/h
2061 04-03-2009 03:54:23 2.8 C 4.05 g/m*3 2.8 C 0 km/h
2062 04-03-2009 04:06:23 2.8 C 4.11 g/m*3 2.8 C 0 km/h
2063 04-03-2009 04:18:23 2.6 C 4.05 g/m*3 2.6 C 0 km/h
2064 04-03-2009 04:30:23 2.5 C 4.02 g/m*3 2.5 C 0 km/h
2065 04-03-2009 04:42:23 2.5 C 4.08 g/m*3 2.5 C 0 km/h
2066 04-03-2009 04:54:23 2.4 C 4.05 g/m*3 2.4 C 0 km/h
2067 04-03-2009 05:06:23 2.5 C 4.14 g/m*3 2.5 C 0 km/h
2068 04-03-2009 05:18:23 2.7 C 4.14 g/m*3 2.7 C 0 km/h
2069 04-03-2009 05:30:23 3 C 4.1 g/m*3 3 C 0 km/h
2070 04-03-2009 05:42:23 3.1 C 4.07 g/m*3 3.1 C 0 km/h
2071 04-03-2009 05:54:23 3.2 C 4.04 g/m*3 3.2 C 0 km/h
2072 04-03-2009 06:06:23 3.4 C 4.03 g/m*3 3.4 C 0 km/h
2073 04-03-2009 06:18:23 3.5 C 4.06 g/m*3 3.5 C 0 km/h
2074 04-03-2009 06:30:23 3.5 C 4 g/m*3 3.5 C 0 km/h
2075 04-03-2009 06:42:23 3.4 C 4.03 g/m*3 3.4 C 0 km/h
Sensor: Nr:Datum:Temp:Abs-Feuchte:Windchill:Wind:
Aussen-T/F 2076 04-03-2009 06:54:23 3.5 C 4 g/m*3 3.5 C 0 km/h
2077 04-03-2009 07:06:20 3.6 C 4.02 g/m*3 3.6 C 0 km/h
2078 04-03-2009 07:18:21 3.7 C 4.05 g/m*3 3.7 C 0 km/h
2079 04-03-2009 07:30:21 3.8 C 4.02 g/m*3 3.8 C 0 km/h
2080 04-03-2009 07:42:21 3.7 C 4.05 g/m*3 3.7 C 0 km/h
2081 04-03-2009 07:54:20 3.8 C 4.08 g/m*3 3.8 C 0 km/h
2082 04-03-2009 08:06:21 3.9 C 4.04 g/m*3 3.9 C 0 km/h
2083 04-03-2009 08:18:20 4 C 4.07 g/m*3 4 C 0 km/h
2084 04-03-2009 08:30:20 4.1 C 4.03 g/m*3 4.1 C 0 km/h
2085 04-03-2009 08:42:20 4.2 C 4.06 g/m*3 4.2 C 0 km/h
2086 04-03-2009 08:54:19 4.2 C 4.06 g/m*3 4.2 C 0 km/h
2087 04-03-2009 09:06:20 4.2 C 4.06 g/m*3 4.2 C 0 km/h
2088 04-03-2009 09:18:19 4 C 3.94 g/m*3 4 C 0 km/h
2089 04-03-2009 09:30:20 4.1 C 3.97 g/m*3 4.1 C 0 km/h
2090 04-03-2009 09:42:21 4.3 C 3.96 g/m*3 4.3 C 0 km/h
2091 04-03-2009 09:54:19 4.9 C 3.98 g/m*3 4.9 C 0 km/h
2092 04-03-2009 10:06:19 5.4 C 3.91 g/m*3 5.4 C 0 km/h
2093 04-03-2009 10:18:18 5.9 C 3.89 g/m*3 5.9 C 0 km/h
2094 04-03-2009 10:30:19 6.1 C 3.87 g/m*3 6.1 C 0 km/h
2095 04-03-2009 10:42:19 6.8 C 3.82 g/m*3 6.8 C 0 km/h
2096 04-03-2009 10:54:18 7.5 C 3.76 g/m*3 7.5 C 0 km/h
2097 04-03-2009 11:06:18 8 C 3.64 g/m*3 8 C 0 km/h
2098 04-03-2009 11:18:19 8.3 C 3.62 g/m*3 8.3 C 0 km/h
2099 04-03-2009 11:30:18 8.6 C 3.61 g/m*3 8.6 C 0 km/h
2100 04-03-2009 11:42:18 8.8 C 3.66 g/m*3 8.8 C 0 km/h
Sensor: Nr:Datum:Temp:Abs-Feuchte:Windchill:Wind:
Aussen-T/F 2101 04-03-2009 11:54:18 9.1 C 3.73 g/m*3 9.1 C 0 km/h
2102 04-03-2009 12:06:18 9.4 C 3.71 g/m*3 9.4 C 0 km/h
2103 04-03-2009 12:18:18 9.9 C 3.73 g/m*3 9.9 C 0 km/h
2104 04-03-2009 12:30:18 10.3 C 3.54 g/m*3 10.3 C 0 km/h
2105 04-03-2009 12:42:18 10.7 C 3.63 g/m*3 10.7 C 0 km/h
2106 04-03-2009 12:54:18 11.1 C 3.63 g/m*3 11.1 C 0 km/h
2107 04-03-2009 13:06:18 11.8 C 3.37 g/m*3 11.8 C 0 km/h
2108 04-03-2009 13:18:17 12.2 C 3.02 g/m*3 12.2 C 0 km/h
2109 04-03-2009 13:30:17 12.2 C 3.24 g/m*3 12.2 C 0 km/h
2110 04-03-2009 13:42:17 11.5 C 3.41 g/m*3 11.5 C 0 km/h
2111 04-03-2009 13:54:17 11.7 C 3.45 g/m*3 11.7 C 0 km/h
2112 04-03-2009 14:06:17 12 C 3.41 g/m*3 12 C 0 km/h
2113 04-03-2009 14:18:16 12.4 C 3.39 g/m*3 12.4 C 0 km/h
2114 04-03-2009 14:30:17 12.3 C 3.26 g/m*3 12.3 C 0 km/h
2115 04-03-2009 14:42:17 12.7 C 3.34 g/m*3 12.7 C 0 km/h
2116 04-03-2009 14:54:16 12.9 C 3.38 g/m*3 12.9 C 0 km/h
2117 04-03-2009 15:06:16 13 C 3.18 g/m*3 13 C 0 km/h
2118 04-03-2009 15:18:17 13.3 C 3.23 g/m*3 13.3 C 0 km/h
2119 04-03-2009 15:30:16 12.9 C 3.16 g/m*3 12.9 C 0 km/h
2120 04-03-2009 15:42:16 12.3 C 3.26 g/m*3 12.3 C 0 km/h
2121 04-03-2009 15:54:16 11.9 C 3.39 g/m*3 11.9 C 0 km/h
2122 04-03-2009 16:06:16 11.9 C 3.39 g/m*3 11.9 C 0 km/h
2123 04-03-2009 16:18:16 12.7 C 3.23 g/m*3 12.7 C 0 km/h
2124 04-03-2009 16:30:15 12.3 C 3.37 g/m*3 12.3 C 0 km/h
2125 04-03-2009 16:42:15 12.2 C 3.24 g/m*3 12.2 C 0 km/h
Sensor: Nr:Datum:Temp:Abs-Feuchte:Windchill:Wind:
Aussen-T/F 2126 04-03-2009 16:54:15 11.9 C 3.39 g/m*3 11.9 C 0 km/h
2127 04-03-2009 17:06:15 11.7 C 3.24 g/m*3 11.7 C 0 km/h
2128 04-03-2009 17:18:15 11.6 C 3.22 g/m*3 11.6 C 0 km/h
2129 04-03-2009 17:30:15 11.4 C 3.18 g/m*3 11.4 C 0 km/h
2130 04-03-2009 17:42:15 11.3 C 3.16 g/m*3 11.3 C 0 km/h
2131 04-03-2009 17:54:15 11.1 C 3.12 g/m*3 11.1 C 0 km/h
2132 04-03-2009 18:06:15 11 C 3.2 g/m*3 11 C 0 km/h
2133 04-03-2009 18:18:14 10.8 C 3.26 g/m*3 10.8 C 0 km/h
2134 04-03-2009 18:30:14 10.3 C 3.35 g/m*3 10.3 C 0 km/h
2135 04-03-2009 18:42:15 9.7 C 3.6 g/m*3 9.7 C 0 km/h
2136 04-03-2009 18:54:14 9 C 3.7 g/m*3 9 C 0 km/h
2137 04-03-2009 19:06:14 8.9 C 3.77 g/m*3 8.9 C 0 km/h
2138 04-03-2009 19:18:13 8.7 C 3.89 g/m*3 8.7 C 0 km/h
2139 04-03-2009 19:30:14 8.8 C 3.74 g/m*3 8.8 C 0 km/h
2140 04-03-2009 19:42:14 8.6 C 3.87 g/m*3 8.6 C 0 km/h
2141 04-03-2009 19:54:13 8.9 C 3.85 g/m*3 8.9 C 0 km/h
2142 04-03-2009 20:06:13 8.9 C 3.94 g/m*3 8.9 C 0 km/h
2143 04-03-2009 20:18:14 9 C 3.97 g/m*3 9 C 0 km/h
2144 04-03-2009 20:30:13 9 C 4.06 g/m*3 9 C 0 km/h
2145 04-03-2009 20:42:13 8.9 C 4.2 g/m*3 8.9 C 0 km/h
2146 04-03-2009 20:54:13 8.8 C 4.26 g/m*3 8.8 C 0 km/h
2147 04-03-2009 21:06:13 8.6 C 4.38 g/m*3 8.6 C 0 km/h
2148 04-03-2009 21:18:13 8.5 C 4.44 g/m*3 8.5 C 0 km/h
2149 04-03-2009 21:30:13 8.4 C 4.41 g/m*3 8.4 C 0 km/h
2150 04-03-2009 21:42:13 8.4 C 4.33 g/m*3 8.4 C 0 km/h
Sensor: Nr:Datum:Temp:Abs-Feuchte:Windchill:Wind:
Aussen-T/F 2151 04-03-2009 21:54:13 8.5 C 4.35 g/m*3 8.5 C 0 km/h
2152 04-03-2009 22:06:12 8.5 C 4.27 g/m*3 8.5 C 0 km/h
2153 04-03-2009 22:19:15 8.6 C 4.3 g/m*3 8.6 C 0 km/h
2154 04-03-2009 22:31:15 8.4 C 4.33 g/m*3 8.4 C 0 km/h
2155 04-03-2009 22:43:15 8.7 C 4.15 g/m*3 8.7 C 0 km/h
2156 04-03-2009 22:55:15 8.7 C 4.32 g/m*3 8.7 C 0 km/h
2157 04-03-2009 23:07:15 8.6 C 4.3 g/m*3 8.6 C 0 km/h
2158 04-03-2009 23:19:15 8.4 C 4.33 g/m*3 8.4 C 0 km/h
2159 04-03-2009 23:31:15 8.3 C 4.38 g/m*3 8.3 C 0 km/h
2160 04-03-2009 23:43:15 8.1 C 4.41 g/m*3 8.1 C 0 km/h
2161 04-03-2009 23:55:15 8 C 4.55 g/m*3 8 C 0 km/h
2162 05-03-2009 00:07:15 7.9 C 4.6 g/m*3 7.9 C 0 km/h
2163 05-03-2009 00:19:15 7.9 C 4.68 g/m*3 7.9 C 0 km/h
2164 05-03-2009 00:31:15 7.8 C 4.9 g/m*3 7.8 C 0 km/h
2165 05-03-2009 00:43:15 7.6 C 4.99 g/m*3 7.6 C 0 km/h
2166 05-03-2009 00:55:15 7.5 C 5.12 g/m*3 7.5 C 0 km/h
2167 05-03-2009 01:07:15 7.6 C 5.08 g/m*3 7.6 C 0 km/h
2168 05-03-2009 01:19:15 7.6 C 4.99 g/m*3 7.6 C 0 km/h
2169 05-03-2009 01:31:16 7.6 C 4.91 g/m*3 7.6 C 0 km/h
2170 05-03-2009 01:43:16 7.6 C 4.91 g/m*3 7.6 C 0 km/h
2171 05-03-2009 01:55:16 7.6 C 4.91 g/m*3 7.6 C 0 km/h
2172 05-03-2009 02:07:16 7.6 C 4.91 g/m*3 7.6 C 0 km/h
2173 05-03-2009 02:19:16 7.6 C 4.91 g/m*3 7.6 C 0 km/h
2174 05-03-2009 02:31:16 7.6 C 4.91 g/m*3 7.6 C 0 km/h
2175 05-03-2009 02:43:16 7.6 C 4.91 g/m*3 7.6 C 0 km/h
Sensor: Nr:Datum:Temp:Abs-Feuchte:Windchill:Wind:
Aussen-T/F 2176 05-03-2009 02:55:16 7.5 C 4.96 g/m*3 7.5 C 0 km/h
2177 05-03-2009 03:07:16 7.5 C 4.88 g/m*3 7.5 C 0 km/h
2178 05-03-2009 03:19:16 7.6 C 4.91 g/m*3 7.6 C 0 km/h
2179 05-03-2009 03:31:16 7.6 C 4.91 g/m*3 7.6 C 0 km/h
2180 05-03-2009 03:43:16 7.5 C 4.88 g/m*3 7.5 C 0 km/h
2181 05-03-2009 03:55:16 7.4 C 4.93 g/m*3 7.4 C 0 km/h
2182 05-03-2009 04:07:16 7.3 C 4.98 g/m*3 7.3 C 0 km/h
2183 05-03-2009 04:19:16 7.1 C 5.07 g/m*3 7.1 C 0 km/h
2184 05-03-2009 04:31:16 7.1 C 5.15 g/m*3 7.1 C 0 km/h
2185 05-03-2009 04:43:16 7 C 5.11 g/m*3 7 C 0 km/h
2186 05-03-2009 04:55:16 6.7 C 5.24 g/m*3 6.7 C 0 km/h
2187 05-03-2009 05:07:16 6.4 C 5.29 g/m*3 6.4 C 0 km/h
2188 05-03-2009 05:19:16 6.1 C 5.33 g/m*3 6.1 C 0 km/h
2189 05-03-2009 05:31:17 6 C 5.37 g/m*3 6 C 0 km/h
2190 05-03-2009 05:43:17 5.7 C 5.48 g/m*3 5.7 C 0 km/h
2191 05-03-2009 05:55:17 5.5 C 5.62 g/m*3 5.5 C 0 km/h
2192 05-03-2009 06:07:17 5.4 C 5.65 g/m*3 5.4 C 0 km/h
2193 05-03-2009 06:19:17 5.2 C 5.58 g/m*3 5.2 C 0 km/h
2194 05-03-2009 06:31:17 5.1 C 5.54 g/m*3 5.1 C 0 km/h
2195 05-03-2009 06:43:17 5 C 5.57 g/m*3 5 C 0 km/h
2196 05-03-2009 06:55:17 4.9 C 5.67 g/m*3 4.9 C 0 km/h
2197 05-03-2009 07:07:14 4.9 C 5.74 g/m*3 4.9 C 0 km/h
2198 05-03-2009 07:19:14 4.8 C 5.7 g/m*3 4.8 C 0 km/h
2199 05-03-2009 07:31:14 4.7 C 5.73 g/m*3 4.7 C 0 km/h
2200 05-03-2009 07:43:14 4.7 C 5.73 g/m*3 4.7 C 0 km/h
Sensor: Nr:Datum:Temp:Abs-Feuchte:Windchill:Wind:
Aussen-T/F 2201 05-03-2009 07:55:14 4.6 C 5.69 g/m*3 4.6 C 0 km/h
2202 05-03-2009 08:07:13 4.6 C 5.69 g/m*3 4.6 C 0 km/h
2203 05-03-2009 08:19:14 4.4 C 5.62 g/m*3 4.4 C 0 km/h
2204 05-03-2009 08:31:14 4.2 C 5.48 g/m*3 4.2 C 0 km/h
2205 05-03-2009 08:43:14 3.9 C 5.37 g/m*3 3.9 C 0 km/h
2206 05-03-2009 08:55:13 3.6 C 5.26 g/m*3 3.6 C 0 km/h
2207 05-03-2009 09:07:14 3.4 C 5.19 g/m*3 3.4 C 0 km/h
2208 05-03-2009 09:19:13 3.4 C 5.19 g/m*3 3.4 C 0 km/h
2209 05-03-2009 09:31:13 3.5 C 5.29 g/m*3 3.5 C 0 km/h
2210 05-03-2009 09:43:13 3.2 C 5.18 g/m*3 3.2 C 0 km/h
2211 05-03-2009 09:55:13 3.2 C 5.18 g/m*3 3.2 C 0 km/h
2212 05-03-2009 10:07:13 3.1 C 5.15 g/m*3 3.1 C 0 km/h
2213 05-03-2009 10:19:12 3 C 5.11 g/m*3 3 C 0 km/h
2214 05-03-2009 10:31:12 3.1 C 5.15 g/m*3 3.1 C 0 km/h
2215 05-03-2009 10:43:12 3.1 C 5.21 g/m*3 3.1 C 0 km/h
2216 05-03-2009 10:55:12 2.7 C 5.07 g/m*3 2.7 C 0 km/h
2217 05-03-2009 11:07:12 2.7 C 5.07 g/m*3 2.7 C 0 km/h
2218 05-03-2009 11:19:12 2.6 C 5.03 g/m*3 2.6 C 0 km/h
2219 05-03-2009 11:31:12 2.6 C 5.03 g/m*3 2.6 C 0 km/h
2220 05-03-2009 11:43:12 2.5 C 5 g/m*3 2.5 C 0 km/h
2221 05-03-2009 11:55:12 2.6 C 5.03 g/m*3 2.6 C 0 km/h
2222 05-03-2009 12:07:11 2.6 C 5.09 g/m*3 2.6 C 0 km/h
2223 05-03-2009 12:19:12 2.8 C 5.16 g/m*3 2.8 C 0 km/h
2224 05-03-2009 12:31:11 2.6 C 5.09 g/m*3 2.6 C 0 km/h
2225 05-03-2009 12:43:11 2.8 C 5.16 g/m*3 2.8 C 0 km/h
Sensor: Nr:Datum:Temp:Abs-Feuchte:Windchill:Wind:
Aussen-T/F 2226 05-03-2009 12:55:11 3.1 C 5.27 g/m*3 3.1 C 0 km/h
2227 05-03-2009 13:07:11 2.9 C 5.2 g/m*3 2.9 C 0 km/h
2228 05-03-2009 13:19:11 2.9 C 5.2 g/m*3 2.9 C 0 km/h
2229 05-03-2009 13:31:11 2.9 C 5.2 g/m*3 2.9 C 0 km/h
2230 05-03-2009 13:43:11 3 C 5.17 g/m*3 3 C 0 km/h
2231 05-03-2009 13:55:10 3 C 5.17 g/m*3 3 C 0 km/h
2232 05-03-2009 14:07:11 3 C 5.17 g/m*3 3 C 0 km/h
2233 05-03-2009 14:19:10 2.9 C 5.2 g/m*3 2.9 C 0 km/h
2234 05-03-2009 14:31:10 3 C 5.23 g/m*3 3 C 0 km/h
2235 05-03-2009 14:43:10 3 C 5.23 g/m*3 3 C 0 km/h
2236 05-03-2009 14:55:10 3.1 C 5.27 g/m*3 3.1 C 0 km/h
2237 05-03-2009 15:07:10 3 C 5.23 g/m*3 3 C 0 km/h
2238 05-03-2009 15:19:10 3.1 C 5.27 g/m*3 3.1 C 0 km/h
2239 05-03-2009 15:31:09 3 C 5.23 g/m*3 3 C 0 km/h
2240 05-03-2009 15:43:09 3.1 C 5.27 g/m*3 3.1 C 0 km/h
2241 05-03-2009 15:55:09 3.2 C 5.36 g/m*3 3.2 C 0 km/h
2242 05-03-2009 16:07:09 3.3 C 5.4 g/m*3 3.3 C 0 km/h
2243 05-03-2009 16:19:10 3.2 C 5.36 g/m*3 3.2 C 0 km/h
2244 05-03-2009 16:31:09 3.3 C 5.4 g/m*3 3.3 C 0 km/h
2245 05-03-2009 16:43:09 3.4 C 5.44 g/m*3 3.4 C 0 km/h
2246 05-03-2009 16:55:09 3.5 C 5.47 g/m*3 3.5 C 0 km/h
2247 05-03-2009 17:07:08 3.6 C 5.51 g/m*3 3.6 C 0 km/h
2248 05-03-2009 17:19:09 3.6 C 5.51 g/m*3 3.6 C 0 km/h
2249 05-03-2009 17:31:09 3.6 C 5.51 g/m*3 3.6 C 0 km/h
2250 05-03-2009 17:43:09 3.7 C 5.55 g/m*3 3.7 C 0 km/h
Sensor: Nr:Datum:Temp:Abs-Feuchte:Windchill:Wind:
Aussen-T/F 2251 05-03-2009 17:55:08 3.7 C 5.55 g/m*3 3.7 C 0 km/h
2252 05-03-2009 18:07:08 4 C 5.53 g/m*3 4 C 0 km/h
2253 05-03-2009 18:19:09 4 C 5.53 g/m*3 4 C 0 km/h
2254 05-03-2009 18:31:08 4 C 5.53 g/m*3 4 C 0 km/h
2255 05-03-2009 18:43:08 3.9 C 5.56 g/m*3 3.9 C 0 km/h
2256 05-03-2009 18:55:08 4 C 5.59 g/m*3 4 C 0 km/h
2257 05-03-2009 19:07:08 4 C 5.59 g/m*3 4 C 0 km/h
2258 05-03-2009 19:19:07 4 C 5.66 g/m*3 4 C 0 km/h
2259 05-03-2009 19:31:08 4 C 5.66 g/m*3 4 C 0 km/h
2260 05-03-2009 19:43:08 3.8 C 5.65 g/m*3 3.8 C 0 km/h
2261 05-03-2009 19:55:07 3.8 C 5.65 g/m*3 3.8 C 0 km/h
2262 05-03-2009 20:07:07 3.7 C 5.61 g/m*3 3.7 C 0 km/h
2263 05-03-2009 20:19:07 3.7 C 5.55 g/m*3 3.7 C 0 km/h
2264 05-03-2009 20:31:07 3.6 C 5.51 g/m*3 3.6 C 0 km/h
2265 05-03-2009 20:43:07 3.6 C 5.57 g/m*3 3.6 C 0 km/h
2266 05-03-2009 20:55:06 3.6 C 5.57 g/m*3 3.6 C 0 km/h
2267 05-03-2009 21:07:07 3.5 C 5.53 g/m*3 3.5 C 0 km/h
2268 05-03-2009 21:19:06 3.5 C 5.53 g/m*3 3.5 C 0 km/h
2269 05-03-2009 21:31:06 3.5 C 5.53 g/m*3 3.5 C 0 km/h
2270 05-03-2009 21:43:07 3.4 C 5.5 g/m*3 3.4 C 0 km/h
2271 05-03-2009 21:55:06 3.4 C 5.56 g/m*3 3.4 C 0 km/h
2272 05-03-2009 22:07:06 3.4 C 5.56 g/m*3 3.4 C 0 km/h
2273 05-03-2009 22:19:05 3.4 C 5.56 g/m*3 3.4 C 0 km/h
2274 05-03-2009 22:32:06 3.3 C 5.46 g/m*3 3.3 C 0 km/h
2275 05-03-2009 22:44:06 3.2 C 5.42 g/m*3 3.2 C 0 km/h
Sensor: Nr:Datum:Temp:Abs-Feuchte:Windchill:Wind:
Aussen-T/F 2276 05-03-2009 22:56:07 3.1 C 5.39 g/m*3 3.1 C 0 km/h
2277 05-03-2009 23:08:07 3 C 5.35 g/m*3 3 C 0 km/h
2278 05-03-2009 23:20:07 3 C 5.35 g/m*3 3 C 0 km/h
2279 05-03-2009 23:32:07 2.8 C 5.28 g/m*3 2.8 C 0 km/h
2280 05-03-2009 23:44:07 2.8 C 5.28 g/m*3 2.8 C 0 km/h
2281 05-03-2009 23:56:07 2.8 C 5.28 g/m*3 2.8 C 0 km/h
2282 06-03-2009 00:08:07 2.9 C 5.37 g/m*3 2.9 C 0 km/h
2283 06-03-2009 00:20:07 3 C 5.35 g/m*3 3 C 0 km/h
2284 06-03-2009 00:32:07 3 C 5.35 g/m*3 3 C 0 km/h
2285 06-03-2009 00:44:07 3 C 5.35 g/m*3 3 C 0 km/h
2286 06-03-2009 00:56:07 3 C 5.41 g/m*3 3 C 0 km/h
2287 06-03-2009 01:08:07 3.1 C 5.45 g/m*3 3.1 C 0 km/h
2288 06-03-2009 01:20:07 3.1 C 5.45 g/m*3 3.1 C 0 km/h
2289 06-03-2009 01:32:07 3.2 C 5.48 g/m*3 3.2 C 0 km/h
2290 06-03-2009 01:44:07 3.2 C 5.48 g/m*3 3.2 C 0 km/h
2291 06-03-2009 01:56:07 3.2 C 5.48 g/m*3 3.2 C 0 km/h
2292 06-03-2009 02:08:07 3.2 C 5.48 g/m*3 3.2 C 0 km/h
2293 06-03-2009 02:20:07 3.3 C 5.52 g/m*3 3.3 C 0 km/h
2294 06-03-2009 02:32:07 3.3 C 5.52 g/m*3 3.3 C 0 km/h
2295 06-03-2009 02:44:07 3.3 C 5.52 g/m*3 3.3 C 0 km/h
2296 06-03-2009 02:56:08 3.4 C 5.56 g/m*3 3.4 C 0 km/h
2297 06-03-2009 03:08:08 3.4 C 5.56 g/m*3 3.4 C 0 km/h
2298 06-03-2009 03:20:08 3.4 C 5.56 g/m*3 3.4 C 0 km/h
2299 06-03-2009 03:32:08 3.4 C 5.56 g/m*3 3.4 C 0 km/h
2300 06-03-2009 03:44:08 3.5 C 5.6 g/m*3 3.5 C 0 km/h
Sensor: Nr:Datum:Temp:Abs-Feuchte:Windchill:Wind:
Aussen-T/F 2301 06-03-2009 03:56:08 3.5 C 5.6 g/m*3 3.5 C 0 km/h
2302 06-03-2009 04:08:08 3.5 C 5.6 g/m*3 3.5 C 0 km/h
2303 06-03-2009 04:20:08 3.4 C 5.56 g/m*3 3.4 C 0 km/h
2304 06-03-2009 04:32:08 3.4 C 5.56 g/m*3 3.4 C 0 km/h
2305 06-03-2009 04:44:08 3.3 C 5.46 g/m*3 3.3 C 0 km/h
2306 06-03-2009 04:56:08 3.3 C 5.46 g/m*3 3.3 C 0 km/h
2307 06-03-2009 05:08:08 3.3 C 5.46 g/m*3 3.3 C 0 km/h
2308 06-03-2009 05:20:08 3.3 C 5.52 g/m*3 3.3 C 0 km/h
2309 06-03-2009 05:32:08 3.3 C 5.52 g/m*3 3.3 C 0 km/h
2310 06-03-2009 05:44:08 3.3 C 5.52 g/m*3 3.3 C 0 km/h
2311 06-03-2009 05:56:08 3.4 C 5.62 g/m*3 3.4 C 0 km/h
2312 06-03-2009 06:08:08 3.5 C 5.66 g/m*3 3.5 C 0 km/h
2313 06-03-2009 06:20:08 3.6 C 5.69 g/m*3 3.6 C 0 km/h
2314 06-03-2009 06:32:08 3.5 C 5.66 g/m*3 3.5 C 0 km/h
2315 06-03-2009 06:44:08 3.6 C 5.69 g/m*3 3.6 C 0 km/h
2316 06-03-2009 06:56:08 3.6 C 5.69 g/m*3 3.6 C 0 km/h
2317 06-03-2009 07:08:06 3.5 C 5.66 g/m*3 3.5 C 0 km/h
2318 06-03-2009 07:20:06 3.5 C 5.66 g/m*3 3.5 C 0 km/h
2319 06-03-2009 07:32:06 3.3 C 5.52 g/m*3 3.3 C 0 km/h
2320 06-03-2009 07:44:06 3.3 C 5.58 g/m*3 3.3 C 0 km/h
2321 06-03-2009 07:56:06 3.3 C 5.58 g/m*3 3.3 C 0 km/h
2322 06-03-2009 08:08:05 3.3 C 5.52 g/m*3 3.3 C 0 km/h
2323 06-03-2009 08:20:05 3.3 C 5.52 g/m*3 3.3 C 0 km/h
2324 06-03-2009 08:32:05 3.3 C 5.52 g/m*3 3.3 C 0 km/h
2325 06-03-2009 08:44:05 3.2 C 5.42 g/m*3 3.2 C 0 km/h
Sensor: Nr:Datum:Temp:Abs-Feuchte:Windchill:Wind:
Aussen-T/F 2326 06-03-2009 08:56:05 3.3 C 5.46 g/m*3 3.3 C 0 km/h
2327 06-03-2009 09:08:05 3.3 C 5.46 g/m*3 3.3 C 0 km/h
2328 06-03-2009 09:20:05 3.4 C 5.5 g/m*3 3.4 C 0 km/h
2329 06-03-2009 09:32:05 3.4 C 5.44 g/m*3 3.4 C 0 km/h
2330 06-03-2009 09:44:05 3.5 C 5.47 g/m*3 3.5 C 0 km/h
2331 06-03-2009 09:56:05 3.6 C 5.51 g/m*3 3.6 C 0 km/h
2332 06-03-2009 10:08:05 3.6 C 5.51 g/m*3 3.6 C 0 km/h
2333 06-03-2009 10:20:04 3.7 C 5.48 g/m*3 3.7 C 0 km/h
2334 06-03-2009 10:32:04 3.9 C 5.56 g/m*3 3.9 C 0 km/h
2335 06-03-2009 10:44:04 3.8 C 5.52 g/m*3 3.8 C 0 km/h
2336 06-03-2009 10:56:04 3.8 C 5.52 g/m*3 3.8 C 0 km/h
2337 06-03-2009 11:08:04 3.9 C 5.62 g/m*3 3.9 C 0 km/h
2338 06-03-2009 11:20:03 4 C 5.59 g/m*3 4 C 0 km/h
2339 06-03-2009 11:32:04 4.1 C 5.63 g/m*3 4.1 C 0 km/h
2340 06-03-2009 11:44:03 4.1 C 5.63 g/m*3 4.1 C 0 km/h
2341 06-03-2009 11:56:03 4.2 C 5.67 g/m*3 4.2 C 0 km/h
2342 06-03-2009 12:08:03 4.2 C 5.61 g/m*3 4.2 C 0 km/h
2343 06-03-2009 12:20:04 4.3 C 5.71 g/m*3 4.3 C 0 km/h
2344 06-03-2009 12:32:03 4.3 C 5.71 g/m*3 4.3 C 0 km/h
2345 06-03-2009 12:44:03 4.4 C 5.68 g/m*3 4.4 C 0 km/h
2346 06-03-2009 12:56:03 4.4 C 5.68 g/m*3 4.4 C 0 km/h
2347 06-03-2009 13:08:03 4.5 C 5.65 g/m*3 4.5 C 0 km/h
2348 06-03-2009 13:20:03 4.6 C 5.62 g/m*3 4.6 C 0 km/h
2349 06-03-2009 13:32:02 5 C 5.57 g/m*3 5 C 0 km/h
2350 06-03-2009 13:44:02 5 C 5.57 g/m*3 5 C 0 km/h
Sensor: Nr:Datum:Temp:Abs-Feuchte:Windchill:Wind:
Aussen-T/F 2351 06-03-2009 13:56:03 4.8 C 5.57 g/m*3 4.8 C 0 km/h
2352 06-03-2009 14:08:02 4.7 C 5.6 g/m*3 4.7 C 0 km/h
2353 06-03-2009 14:20:02 4.7 C 5.6 g/m*3 4.7 C 0 km/h
2354 06-03-2009 14:32:02 4.8 C 5.57 g/m*3 4.8 C 0 km/h
2355 06-03-2009 14:44:02 4.9 C 5.54 g/m*3 4.9 C 0 km/h
2356 06-03-2009 14:56:02 4.9 C 5.6 g/m*3 4.9 C 0 km/h
2357 06-03-2009 15:08:02 4.8 C 5.5 g/m*3 4.8 C 0 km/h
2358 06-03-2009 15:20:01 4.8 C 5.5 g/m*3 4.8 C 0 km/h
2359 06-03-2009 15:32:01 4.9 C 5.54 g/m*3 4.9 C 0 km/h
2360 06-03-2009 15:44:01 4.9 C 5.54 g/m*3 4.9 C 0 km/h
2361 06-03-2009 15:56:01 4.7 C 5.46 g/m*3 4.7 C 0 km/h
2362 06-03-2009 16:08:01 4.7 C 5.46 g/m*3 4.7 C 0 km/h
2363 06-03-2009 16:20:00 4.6 C 5.43 g/m*3 4.6 C 0 km/h
2364 06-03-2009 16:32:01 4.6 C 5.43 g/m*3 4.6 C 0 km/h
2365 06-03-2009 16:44:00 4.5 C 5.46 g/m*3 4.5 C 0 km/h
2366 06-03-2009 16:56:00 4.4 C 5.48 g/m*3 4.4 C 0 km/h
2367 06-03-2009 17:08:00 4.4 C 5.48 g/m*3 4.4 C 0 km/h
2368 06-03-2009 17:20:01 4.3 C 5.45 g/m*3 4.3 C 0 km/h
2369 06-03-2009 17:32:00 4.2 C 5.35 g/m*3 4.2 C 0 km/h
2370 06-03-2009 17:44:00 4.2 C 5.35 g/m*3 4.2 C 0 km/h
2371 06-03-2009 17:56:00 4.2 C 5.41 g/m*3 4.2 C 0 km/h
2372 06-03-2009 18:08:00 4.2 C 5.35 g/m*3 4.2 C 0 km/h
2373 06-03-2009 18:20:00 4.1 C 5.25 g/m*3 4.1 C 0 km/h
2374 06-03-2009 18:32:00 4 C 5.28 g/m*3 4 C 0 km/h
2375 06-03-2009 18:44:00 4 C 5.34 g/m*3 4 C 0 km/h
Sensor: Nr:Datum:Temp:Abs-Feuchte:Windchill:Wind:
Aussen-T/F 2376 06-03-2009 18:56:00 3.9 C 5.37 g/m*3 3.9 C 0 km/h
2377 06-03-2009 19:08:00 3.9 C 5.31 g/m*3 3.9 C 0 km/h
2378 06-03-2009 19:20:59 4 C 5.21 g/m*3 4 C 0 km/h
2379 06-03-2009 19:32:59 4 C 5.21 g/m*3 4 C 0 km/h
2380 06-03-2009 19:44:59 4 C 5.28 g/m*3 4 C 0 km/h
2381 06-03-2009 19:56:59 3.9 C 5.31 g/m*3 3.9 C 0 km/h
2382 06-03-2009 20:08:59 3.8 C 5.27 g/m*3 3.8 C 0 km/h
2383 06-03-2009 20:20:58 3.8 C 5.27 g/m*3 3.8 C 0 km/h
2384 06-03-2009 20:32:59 3.8 C 5.21 g/m*3 3.8 C 0 km/h
2385 06-03-2009 20:44:58 4 C 5.09 g/m*3 4 C 0 km/h
2386 06-03-2009 20:56:58 3.9 C 5.12 g/m*3 3.9 C 0 km/h
2387 06-03-2009 21:08:59 3.8 C 5.02 g/m*3 3.8 C 0 km/h
2388 06-03-2009 21:20:58 3.7 C 4.86 g/m*3 3.7 C 0 km/h
2389 06-03-2009 21:32:58 3.7 C 4.74 g/m*3 3.7 C 0 km/h
2390 06-03-2009 21:44:58 3.8 C 4.52 g/m*3 3.8 C 0 km/h
2391 06-03-2009 21:56:58 3.8 C 4.39 g/m*3 3.8 C 0 km/h
2392 06-03-2009 22:08:58 3.8 C 4.27 g/m*3 3.8 C 0 km/h
2393 06-03-2009 22:21:57 3.7 C 4.24 g/m*3 3.7 C 0 km/h
2394 06-03-2009 22:33:57 3.8 C 4.2 g/m*3 3.8 C 0 km/h
2395 06-03-2009 22:45:57 3.8 C 4.27 g/m*3 3.8 C 0 km/h
2396 06-03-2009 22:57:57 3.8 C 4.2 g/m*3 3.8 C 0 km/h
2397 06-03-2009 23:09:57 3.8 C 4.14 g/m*3 3.8 C 0 km/h
2398 06-03-2009 23:21:57 3.7 C 4.11 g/m*3 3.7 C 0 km/h
2399 06-03-2009 23:33:57 3.8 C 4.08 g/m*3 3.8 C 0 km/h
2400 06-03-2009 23:45:57 3.8 C 4.08 g/m*3 3.8 C 0 km/h
Sensor: Nr:Datum:Temp:Abs-Feuchte:Windchill:Wind:
Aussen-T/F 2401 06-03-2009 23:57:57 3.8 C 4.02 g/m*3 3.8 C 0 km/h
2402 07-03-2009 00:09:58 3.7 C 3.99 g/m*3 3.7 C 0 km/h
2403 07-03-2009 00:21:58 3.8 C 3.89 g/m*3 3.8 C 0 km/h
2404 07-03-2009 00:33:58 3.8 C 3.83 g/m*3 3.8 C 0 km/h
2405 07-03-2009 00:45:58 3.8 C 3.76 g/m*3 3.8 C 0 km/h
2406 07-03-2009 00:57:58 3.7 C 3.8 g/m*3 3.7 C 0 km/h
2407 07-03-2009 01:09:58 3.6 C 3.9 g/m*3 3.6 C 0 km/h
2408 07-03-2009 01:21:58 3.6 C 3.84 g/m*3 3.6 C 0 km/h
2409 07-03-2009 01:33:58 3.6 C 3.84 g/m*3 3.6 C 0 km/h
2410 07-03-2009 01:45:58 3.5 C 3.81 g/m*3 3.5 C 0 km/h
2411 07-03-2009 01:57:58 3.4 C 3.85 g/m*3 3.4 C 0 km/h
2412 07-03-2009 02:09:58 3.4 C 3.85 g/m*3 3.4 C 0 km/h
2413 07-03-2009 02:21:58 3.4 C 3.85 g/m*3 3.4 C 0 km/h
2414 07-03-2009 02:33:58 3.3 C 3.82 g/m*3 3.3 C 0 km/h
2415 07-03-2009 02:45:58 3.3 C 3.88 g/m*3 3.3 C 0 km/h
2416 07-03-2009 02:57:58 3.2 C 3.86 g/m*3 3.2 C 0 km/h
2417 07-03-2009 03:09:58 3.1 C 3.89 g/m*3 3.1 C 0 km/h
2418 07-03-2009 03:21:58 3.2 C 3.86 g/m*3 3.2 C 0 km/h
2419 07-03-2009 03:33:58 3.2 C 3.86 g/m*3 3.2 C 0 km/h
2420 07-03-2009 03:45:58 3.2 C 3.86 g/m*3 3.2 C 0 km/h
2421 07-03-2009 03:57:58 3.2 C 3.86 g/m*3 3.2 C 0 km/h
2422 07-03-2009 04:09:59 3.2 C 3.86 g/m*3 3.2 C 0 km/h
2423 07-03-2009 04:21:59 3.2 C 3.86 g/m*3 3.2 C 0 km/h
2424 07-03-2009 04:33:59 3.1 C 3.83 g/m*3 3.1 C 0 km/h
2425 07-03-2009 04:45:59 3.1 C 3.83 g/m*3 3.1 C 0 km/h
Sensor: Nr:Datum:Temp:Abs-Feuchte:Windchill:Wind:
Aussen-T/F 2426 07-03-2009 04:57:59 3.2 C 3.8 g/m*3 3.2 C 0 km/h
2427 07-03-2009 05:09:59 3.2 C 3.8 g/m*3 3.2 C 0 km/h
2428 07-03-2009 05:21:59 3.2 C 3.74 g/m*3 3.2 C 0 km/h
2429 07-03-2009 05:33:59 3.1 C 3.77 g/m*3 3.1 C 0 km/h
2430 07-03-2009 05:45:59 3 C 3.75 g/m*3 3 C 0 km/h
2431 07-03-2009 05:57:59 3 C 3.69 g/m*3 3 C 0 km/h
2432 07-03-2009 06:09:59 3 C 3.63 g/m*3 3 C 0 km/h
2433 07-03-2009 06:21:58 3 C 3.57 g/m*3 3 C 0 km/h
2434 07-03-2009 06:33:57 3 C 3.63 g/m*3 3 C 0 km/h
2435 07-03-2009 06:45:57 3 C 3.63 g/m*3 3 C 0 km/h
2436 07-03-2009 06:57:57 3 C 3.63 g/m*3 3 C 0 km/h
2437 07-03-2009 07:09:57 2.9 C 3.66 g/m*3 2.9 C 0 km/h
2438 07-03-2009 07:21:57 2.9 C 3.72 g/m*3 2.9 C 0 km/h
2439 07-03-2009 07:33:57 2.7 C 3.73 g/m*3 2.7 C 0 km/h
2440 07-03-2009 07:45:57 2.6 C 3.76 g/m*3 2.6 C 0 km/h
2441 07-03-2009 07:57:57 2.7 C 3.79 g/m*3 2.7 C 0 km/h
2442 07-03-2009 08:09:57 2.7 C 3.73 g/m*3 2.7 C 0 km/h
2443 07-03-2009 08:21:56 2.7 C 3.73 g/m*3 2.7 C 0 km/h
2444 07-03-2009 08:33:56 2.6 C 3.65 g/m*3 2.6 C 0 km/h
2445 07-03-2009 08:45:56 2.6 C 3.65 g/m*3 2.6 C 0 km/h
2446 07-03-2009 08:57:56 2.7 C 3.67 g/m*3 2.7 C 0 km/h
2447 07-03-2009 09:09:56 2.7 C 3.67 g/m*3 2.7 C 0 km/h
2448 07-03-2009 09:21:56 3 C 3.69 g/m*3 3 C 0 km/h
2449 07-03-2009 09:33:56 3.3 C 3.7 g/m*3 3.3 C 0 km/h
2450 07-03-2009 09:45:56 3.2 C 3.62 g/m*3 3.2 C 0 km/h
Sensor: Nr:Datum:Temp:Abs-Feuchte:Windchill:Wind:
Aussen-T/F 2451 07-03-2009 09:57:56 3.1 C 3.71 g/m*3 3.1 C 0 km/h
2452 07-03-2009 10:09:56 3.2 C 3.8 g/m*3 3.2 C 0 km/h
2453 07-03-2009 10:21:55 3.5 C 3.87 g/m*3 3.5 C 0 km/h
2454 07-03-2009 10:33:55 3.9 C 3.85 g/m*3 3.9 C 0 km/h
2455 07-03-2009 10:45:55 4.5 C 3.94 g/m*3 4.5 C 0 km/h
2456 07-03-2009 10:57:55 5 C 3.87 g/m*3 5 C 0 km/h
2457 07-03-2009 11:09:55 5.1 C 3.97 g/m*3 5.1 C 0 km/h
2458 07-03-2009 11:21:54 5.9 C 3.97 g/m*3 5.9 C 0 km/h
2459 07-03-2009 11:33:55 6.6 C 3.85 g/m*3 6.6 C 0 km/h
2460 07-03-2009 11:45:54 7.2 C 3.77 g/m*3 7.2 C 0 km/h
2461 07-03-2009 11:57:54 7.4 C 3.9 g/m*3 7.4 C 0 km/h
2462 07-03-2009 12:09:54 7.5 C 3.76 g/m*3 7.5 C 0 km/h
2463 07-03-2009 12:21:55 7.6 C 3.63 g/m*3 7.6 C 0 km/h
2464 07-03-2009 12:33:54 7.8 C 3.59 g/m*3 7.8 C 0 km/h
2465 07-03-2009 12:45:54 8.2 C 3.43 g/m*3 8.2 C 0 km/h
2466 07-03-2009 12:57:54 7.9 C 3.37 g/m*3 7.9 C 0 km/h
2467 07-03-2009 13:09:54 8.5 C 3.24 g/m*3 8.5 C 0 km/h
2468 07-03-2009 13:21:54 8.4 C 3.22 g/m*3 8.4 C 0 km/h
2469 07-03-2009 13:33:54 9 C 3.26 g/m*3 9 C 0 km/h
2470 07-03-2009 13:45:53 8.5 C 3.07 g/m*3 8.5 C 0 km/h
2471 07-03-2009 13:57:53 9.4 C 3.26 g/m*3 9.4 C 0 km/h
2472 07-03-2009 14:09:54 10 C 3.01 g/m*3 10 C 0 km/h
2473 07-03-2009 14:21:53 10.8 C 3.06 g/m*3 10.8 C 0 km/h
2474 07-03-2009 14:33:53 11.3 C 2.96 g/m*3 11.3 C 0 km/h
2475 07-03-2009 14:45:53 11.4 C 2.77 g/m*3 11.4 C 0 km/h
Sensor: Nr:Datum:Temp:Abs-Feuchte:Windchill:Wind:
Aussen-T/F 2476 07-03-2009 14:57:53 11.3 C 2.86 g/m*3 11.3 C 0 km/h
2477 07-03-2009 15:09:53 11.8 C 2.74 g/m*3 11.8 C 0 km/h
2478 07-03-2009 15:21:52 11.9 C 2.65 g/m*3 11.9 C 0 km/h
2479 07-03-2009 15:33:52 11 C 3.2 g/m*3 11 C 0 km/h
2480 07-03-2009 15:45:52 10.8 C 3.36 g/m*3 10.8 C 0 km/h
2481 07-03-2009 15:57:52 11 C 3 g/m*3 11 C 0 km/h
2482 07-03-2009 16:09:52 10.7 C 2.75 g/m*3 10.7 C 0 km/h
2483 07-03-2009 16:21:52 10.2 C 2.85 g/m*3 10.2 C 0 km/h
2484 07-03-2009 16:33:52 10.4 C 2.89 g/m*3 10.4 C 0 km/h
2485 07-03-2009 16:45:52 10.6 C 2.73 g/m*3 10.6 C 0 km/h
2486 07-03-2009 16:57:52 10.4 C 2.6 g/m*3 10.4 C 0 km/h
2487 07-03-2009 17:09:51 9.6 C 3.57 g/m*3 9.6 C 0 km/h
2488 07-03-2009 17:21:52 9.2 C 3.75 g/m*3 9.2 C 0 km/h
2489 07-03-2009 17:33:51 8.7 C 3.89 g/m*3 8.7 C 0 km/h
2490 07-03-2009 17:45:51 8.4 C 3.99 g/m*3 8.4 C 0 km/h
2491 07-03-2009 17:57:51 8 C 4.05 g/m*3 8 C 0 km/h
2492 07-03-2009 18:09:51 7.8 C 4.08 g/m*3 7.8 C 0 km/h
2493 07-03-2009 18:21:51 7.5 C 4.16 g/m*3 7.5 C 0 km/h
2494 07-03-2009 18:33:51 7.2 C 4.16 g/m*3 7.2 C 0 km/h
2495 07-03-2009 18:45:50 6.8 C 4.21 g/m*3 6.8 C 0 km/h
2496 07-03-2009 18:57:50 6.4 C 4.17 g/m*3 6.4 C 0 km/h
2497 07-03-2009 19:09:51 6.2 C 4.27 g/m*3 6.2 C 0 km/h
2498 07-03-2009 19:21:50 5.8 C 4.3 g/m*3 5.8 C 0 km/h
2499 07-03-2009 19:33:50 5.6 C 4.31 g/m*3 5.6 C 0 km/h
2500 07-03-2009 19:45:50 5.3 C 4.23 g/m*3 5.3 C 0 km/h
Sensor: Nr:Datum:Temp:Abs-Feuchte:Windchill:Wind:
Aussen-T/F 2501 07-03-2009 19:57:50 5.3 C 4.3 g/m*3 5.3 C 0 km/h
2502 07-03-2009 20:09:50 5.2 C 4.27 g/m*3 5.2 C 0 km/h
2503 07-03-2009 20:21:49 5.6 C 4.38 g/m*3 5.6 C 0 km/h
2504 07-03-2009 20:33:50 6 C 4.28 g/m*3 6 C 0 km/h
2505 07-03-2009 20:45:50 6 C 4.21 g/m*3 6 C 0 km/h
2506 07-03-2009 20:57:50 5.9 C 4.25 g/m*3 5.9 C 0 km/h
2507 07-03-2009 21:09:50 5.9 C 4.25 g/m*3 5.9 C 0 km/h
2508 07-03-2009 21:21:49 5.9 C 4.25 g/m*3 5.9 C 0 km/h
2509 07-03-2009 21:33:49 6 C 4.14 g/m*3 6 C 0 km/h
2510 07-03-2009 21:45:49 6.1 C 4.09 g/m*3 6.1 C 0 km/h
2511 07-03-2009 21:57:49 6.2 C 4.04 g/m*3 6.2 C 0 km/h
2512 07-03-2009 22:09:49 6.4 C 4.1 g/m*3 6.4 C 0 km/h
2513 07-03-2009 22:21:48 6.2 C 4.04 g/m*3 6.2 C 0 km/h
2514 07-03-2009 22:33:49 6.4 C 4.1 g/m*3 6.4 C 0 km/h
2515 07-03-2009 22:46:50 6.4 C 4.17 g/m*3 6.4 C 0 km/h
2516 07-03-2009 22:58:50 6.2 C 4.19 g/m*3 6.2 C 0 km/h
2517 07-03-2009 23:10:50 6.3 C 4.22 g/m*3 6.3 C 0 km/h
2518 07-03-2009 23:22:50 6.3 C 4.29 g/m*3 6.3 C 0 km/h
2519 07-03-2009 23:34:50 6.5 C 4.12 g/m*3 6.5 C 0 km/h
2520 07-03-2009 23:46:50 6.5 C 4.2 g/m*3 6.5 C 0 km/h
2521 07-03-2009 23:58:50 6.4 C 4.25 g/m*3 6.4 C 0 km/h
2522 08-03-2009 00:10:50 6.3 C 4.22 g/m*3 6.3 C 0 km/h
2523 08-03-2009 00:22:50 6.4 C 4.25 g/m*3 6.4 C 0 km/h
2524 08-03-2009 00:34:50 6.3 C 4.22 g/m*3 6.3 C 0 km/h
2525 08-03-2009 00:46:50 6.3 C 4.29 g/m*3 6.3 C 0 km/h
Sensor: Nr:Datum:Temp:Abs-Feuchte:Windchill:Wind:
Aussen-T/F 2526 08-03-2009 00:58:51 6.1 C 4.31 g/m*3 6.1 C 0 km/h
2527 08-03-2009 01:10:51 5.9 C 4.4 g/m*3 5.9 C 0 km/h
2528 08-03-2009 01:22:51 6.1 C 4.38 g/m*3 6.1 C 0 km/h
2529 08-03-2009 01:34:51 6.3 C 4.44 g/m*3 6.3 C 0 km/h
2530 08-03-2009 01:46:51 6.3 C 4.44 g/m*3 6.3 C 0 km/h
2531 08-03-2009 01:58:51 6.5 C 4.35 g/m*3 6.5 C 0 km/h
2532 08-03-2009 02:10:51 6.4 C 4.4 g/m*3 6.4 C 0 km/h
2533 08-03-2009 02:22:51 6.4 C 4.4 g/m*3 6.4 C 0 km/h
2534 08-03-2009 02:34:51 6.4 C 4.4 g/m*3 6.4 C 0 km/h
2535 08-03-2009 02:46:51 6.5 C 4.57 g/m*3 6.5 C 0 km/h
2536 08-03-2009 02:58:51 6.7 C 4.64 g/m*3 6.7 C 0 km/h
2537 08-03-2009 03:10:51 6.6 C 4.6 g/m*3 6.6 C 0 km/h
2538 08-03-2009 03:22:51 6.6 C 4.68 g/m*3 6.6 C 0 km/h
2539 08-03-2009 03:34:51 6.7 C 4.71 g/m*3 6.7 C 0 km/h
2540 08-03-2009 03:46:51 6.9 C 4.77 g/m*3 6.9 C 0 km/h
2541 08-03-2009 03:58:51 7 C 4.65 g/m*3 7 C 0 km/h
2542 08-03-2009 04:10:51 7.1 C 4.76 g/m*3 7.1 C 0 km/h
2543 08-03-2009 04:22:51 7.1 C 4.76 g/m*3 7.1 C 0 km/h
2544 08-03-2009 04:34:51 7.1 C 4.76 g/m*3 7.1 C 0 km/h
2545 08-03-2009 04:46:52 7.2 C 4.79 g/m*3 7.2 C 0 km/h
2546 08-03-2009 04:58:52 7.2 C 4.79 g/m*3 7.2 C 0 km/h
2547 08-03-2009 05:10:52 7.2 C 4.71 g/m*3 7.2 C 0 km/h
2548 08-03-2009 05:22:52 7.3 C 4.74 g/m*3 7.3 C 0 km/h
2549 08-03-2009 05:34:52 7.2 C 4.71 g/m*3 7.2 C 0 km/h
2550 08-03-2009 05:46:52 7.3 C 4.74 g/m*3 7.3 C 0 km/h
Sensor: Nr:Datum:Temp:Abs-Feuchte:Windchill:Wind:
Aussen-T/F 2551 08-03-2009 05:58:52 7.3 C 4.74 g/m*3 7.3 C 0 km/h
2552 08-03-2009 06:10:52 7.2 C 4.79 g/m*3 7.2 C 0 km/h
2553 08-03-2009 06:22:52 7.2 C 4.71 g/m*3 7.2 C 0 km/h
2554 08-03-2009 06:34:52 7.3 C 4.82 g/m*3 7.3 C 0 km/h
2555 08-03-2009 06:46:52 7.3 C 4.82 g/m*3 7.3 C 0 km/h
2556 08-03-2009 06:58:52 7.3 C 4.9 g/m*3 7.3 C 0 km/h
2557 08-03-2009 07:10:52 7.3 C 4.9 g/m*3 7.3 C 0 km/h
2558 08-03-2009 07:22:52 7.3 C 4.98 g/m*3 7.3 C 0 km/h
2559 08-03-2009 07:34:52 7.3 C 4.98 g/m*3 7.3 C 0 km/h
2560 08-03-2009 07:46:49 7.3 C 5.06 g/m*3 7.3 C 0 km/h
2561 08-03-2009 07:58:49 7.4 C 5.17 g/m*3 7.4 C 0 km/h
2562 08-03-2009 08:10:50 7.5 C 5.2 g/m*3 7.5 C 0 km/h
2563 08-03-2009 08:22:50 7.8 C 5.3 g/m*3 7.8 C 0 km/h
2564 08-03-2009 08:34:49 8 C 5.21 g/m*3 8 C 0 km/h
2565 08-03-2009 08:46:49 8.1 C 5.16 g/m*3 8.1 C 0 km/h
2566 08-03-2009 08:58:49 8 C 5.21 g/m*3 8 C 0 km/h
2567 08-03-2009 09:10:49 8 C 5.21 g/m*3 8 C 0 km/h
2568 08-03-2009 09:22:49 8.2 C 5.28 g/m*3 8.2 C 0 km/h
2569 08-03-2009 09:34:48 8.2 C 5.28 g/m*3 8.2 C 0 km/h
2570 08-03-2009 09:46:49 8.2 C 5.28 g/m*3 8.2 C 0 km/h
2571 08-03-2009 09:58:49 8.2 C 5.28 g/m*3 8.2 C 0 km/h
2572 08-03-2009 10:10:48 8.3 C 5.31 g/m*3 8.3 C 0 km/h
2573 08-03-2009 10:22:48 8.3 C 5.31 g/m*3 8.3 C 0 km/h
2574 08-03-2009 10:34:48 8.3 C 5.39 g/m*3 8.3 C 0 km/h
2575 08-03-2009 10:46:48 8.5 C 5.46 g/m*3 8.5 C 0 km/h
Sensor: Nr:Datum:Temp:Abs-Feuchte:Windchill:Wind:
Aussen-T/F 2576 08-03-2009 10:58:48 8.5 C 5.55 g/m*3 8.5 C 0 km/h
2577 08-03-2009 11:10:47 8.5 C 5.64 g/m*3 8.5 C 0 km/h
2578 08-03-2009 11:22:48 8.5 C 5.64 g/m*3 8.5 C 0 km/h
2579 08-03-2009 11:34:48 8.7 C 5.71 g/m*3 8.7 C 0 km/h
2580 08-03-2009 11:46:47 8.6 C 5.67 g/m*3 8.6 C 0 km/h
2581 08-03-2009 11:58:47 8.6 C 5.76 g/m*3 8.6 C 0 km/h
2582 08-03-2009 12:10:48 8.8 C 5.83 g/m*3 8.8 C 0 km/h
2583 08-03-2009 12:22:47 9.1 C 5.68 g/m*3 9.1 C 0 km/h
2584 08-03-2009 12:34:47 9.3 C 5.66 g/m*3 9.3 C 0 km/h
2585 08-03-2009 12:46:46 9.3 C 5.57 g/m*3 9.3 C 0 km/h
2586 08-03-2009 12:58:46 9.1 C 5.77 g/m*3 9.1 C 0 km/h
2587 08-03-2009 13:10:47 8.9 C 6.13 g/m*3 8.9 C 0 km/h
2588 08-03-2009 13:22:46 8.7 C 6.31 g/m*3 8.7 C 0 km/h
2589 08-03-2009 13:34:46 8.9 C 6.48 g/m*3 8.9 C 0 km/h
2590 08-03-2009 13:46:47 9.6 C 6.32 g/m*3 9.6 C 0 km/h
2591 08-03-2009 13:58:47 10.2 C 6.09 g/m*3 10.2 C 0 km/h
2592 08-03-2009 14:10:46 10.2 C 6 g/m*3 10.2 C 0 km/h
2593 08-03-2009 14:22:46 10.1 C 5.96 g/m*3 10.1 C 0 km/h
2594 08-03-2009 14:34:46 10.4 C 5.98 g/m*3 10.4 C 0 km/h
2595 08-03-2009 14:46:46 10.5 C 5.92 g/m*3 10.5 C 0 km/h
2596 08-03-2009 14:58:46 10.3 C 5.94 g/m*3 10.3 C 0 km/h
2597 08-03-2009 15:10:45 10.2 C 5.9 g/m*3 10.2 C 0 km/h
2598 08-03-2009 15:22:46 9.9 C 6.16 g/m*3 9.9 C 0 km/h
2599 08-03-2009 15:34:45 9.7 C 6.36 g/m*3 9.7 C 0 km/h
2600 08-03-2009 15:46:45 10.1 C 6.24 g/m*3 10.1 C 0 km/h
Sensor: Nr:Datum:Temp:Abs-Feuchte:Windchill:Wind:
Aussen-T/F 2601 08-03-2009 15:58:45 9.8 C 6.31 g/m*3 9.8 C 0 km/h
2602 08-03-2009 16:10:45 9.3 C 6.56 g/m*3 9.3 C 0 km/h
2603 08-03-2009 16:22:45 9 C 6.88 g/m*3 9 C 0 km/h
2604 08-03-2009 16:34:45 8.7 C 7.09 g/m*3 8.7 C 0 km/h
2605 08-03-2009 16:46:44 8.5 C 6.92 g/m*3 8.5 C 0 km/h
2606 08-03-2009 16:58:44 8.5 C 6.92 g/m*3 8.5 C 0 km/h
2607 08-03-2009 17:10:45 8.5 C 6.83 g/m*3 8.5 C 0 km/h
2608 08-03-2009 17:22:44 8.4 C 6.87 g/m*3 8.4 C 0 km/h
2609 08-03-2009 17:34:45 8.3 C 6.91 g/m*3 8.3 C 0 km/h
2610 08-03-2009 17:46:44 8.4 C 7.04 g/m*3 8.4 C 0 km/h
2611 08-03-2009 17:58:44 8.3 C 7.08 g/m*3 8.3 C 0 km/h
2612 08-03-2009 18:10:44 8.2 C 7.03 g/m*3 8.2 C 0 km/h
2613 08-03-2009 18:22:44 8.1 C 6.99 g/m*3 8.1 C 0 km/h
2614 08-03-2009 18:34:44 8.1 C 7.07 g/m*3 8.1 C 0 km/h
2615 08-03-2009 18:46:43 8.2 C 6.45 g/m*3 8.2 C 0 km/h
2616 08-03-2009 18:58:43 8.1 C 6.24 g/m*3 8.1 C 0 km/h
2617 08-03-2009 19:10:44 8.1 C 6.32 g/m*3 8.1 C 0 km/h
2618 08-03-2009 19:22:43 7.7 C 6.24 g/m*3 7.7 C 0 km/h
2619 08-03-2009 19:34:43 7.1 C 6.16 g/m*3 7.1 C 0 km/h
2620 08-03-2009 19:46:43 6.9 C 6.31 g/m*3 6.9 C 0 km/h
2621 08-03-2009 19:58:43 7 C 6.43 g/m*3 7 C 0 km/h
2622 08-03-2009 20:10:43 6.9 C 6.47 g/m*3 6.9 C 0 km/h
2623 08-03-2009 20:22:43 6.9 C 6.54 g/m*3 6.9 C 0 km/h
2624 08-03-2009 20:34:42 6.6 C 6.34 g/m*3 6.6 C 0 km/h
2625 08-03-2009 20:46:43 6.2 C 6.1 g/m*3 6.2 C 0 km/h
Sensor: Nr:Datum:Temp:Abs-Feuchte:Windchill:Wind:
Aussen-T/F 2626 08-03-2009 20:58:43 5.8 C 6.02 g/m*3 5.8 C 0 km/h
2627 08-03-2009 21:10:43 5.4 C 5.86 g/m*3 5.4 C 0 km/h
2628 08-03-2009 21:22:42 5.2 C 5.78 g/m*3 5.2 C 0 km/h
2629 08-03-2009 21:34:42 5.1 C 5.75 g/m*3 5.1 C 0 km/h
2630 08-03-2009 21:46:42 5.1 C 5.75 g/m*3 5.1 C 0 km/h
2631 08-03-2009 21:58:42 5 C 5.71 g/m*3 5 C 0 km/h
2632 08-03-2009 22:10:42 4.8 C 5.63 g/m*3 4.8 C 0 km/h
2633 08-03-2009 22:22:41 4.7 C 5.6 g/m*3 4.7 C 0 km/h
2634 08-03-2009 22:34:41 4.6 C 5.56 g/m*3 4.6 C 0 km/h
2635 08-03-2009 22:46:41 4.8 C 5.5 g/m*3 4.8 C 0 km/h
2636 08-03-2009 22:58:41 5.3 C 4.92 g/m*3 5.3 C 0 km/h
2637 08-03-2009 23:10:41 5.3 C 4.71 g/m*3 5.3 C 0 km/h
2638 08-03-2009 23:23:43 4.7 C 4.8 g/m*3 4.7 C 0 km/h
2639 08-03-2009 23:35:43 4.6 C 4.83 g/m*3 4.6 C 0 km/h
2640 08-03-2009 23:47:43 4.5 C 4.8 g/m*3 4.5 C 0 km/h
2641 08-03-2009 23:59:43 4.4 C 4.77 g/m*3 4.4 C 0 km/h
2642 09-03-2009 00:11:43 4.4 C 4.83 g/m*3 4.4 C 0 km/h
2643 09-03-2009 00:23:43 4.8 C 4.96 g/m*3 4.8 C 0 km/h
2644 09-03-2009 00:35:43 5.1 C 4.79 g/m*3 5.1 C 0 km/h
2645 09-03-2009 00:47:43 5 C 4.69 g/m*3 5 C 0 km/h
2646 09-03-2009 00:59:43 5 C 4.69 g/m*3 5 C 0 km/h
2647 09-03-2009 01:11:43 4.7 C 4.73 g/m*3 4.7 C 0 km/h
2648 09-03-2009 01:23:43 4.7 C 4.2 g/m*3 4.7 C 0 km/h
2649 09-03-2009 01:35:43 4.7 C 4.46 g/m*3 4.7 C 0 km/h
2650 09-03-2009 01:47:43 4.7 C 4.46 g/m*3 4.7 C 0 km/h
Sensor: Nr:Datum:Temp:Abs-Feuchte:Windchill:Wind:
Aussen-T/F 2651 09-03-2009 01:59:44 4.7 C 4.06 g/m*3 4.7 C 0 km/h
2652 09-03-2009 02:11:44 4.7 C 3.73 g/m*3 4.7 C 0 km/h
2653 09-03-2009 02:23:44 4.7 C 3.66 g/m*3 4.7 C 0 km/h
2654 09-03-2009 02:35:44 4.3 C 3.63 g/m*3 4.3 C 0 km/h
2655 09-03-2009 02:47:44 3.9 C 3.79 g/m*3 3.9 C 0 km/h
2656 09-03-2009 02:59:44 3.7 C 3.74 g/m*3 3.7 C 0 km/h
2657 09-03-2009 03:11:44 3.6 C 3.71 g/m*3 3.6 C 0 km/h
2658 09-03-2009 03:23:44 3.5 C 3.75 g/m*3 3.5 C 0 km/h
2659 09-03-2009 03:35:44 3.3 C 3.76 g/m*3 3.3 C 0 km/h
2660 09-03-2009 03:47:44 3.3 C 3.94 g/m*3 3.3 C 0 km/h
2661 09-03-2009 03:59:44 3.4 C 4.03 g/m*3 3.4 C 0 km/h
2662 09-03-2009 04:11:44 3.4 C 4.09 g/m*3 3.4 C 0 km/h
2663 09-03-2009 04:23:44 3.6 C 4.15 g/m*3 3.6 C 0 km/h
2664 09-03-2009 04:35:44 3.7 C 4.3 g/m*3 3.7 C 0 km/h
2665 09-03-2009 04:47:44 3.3 C 4.49 g/m*3 3.3 C 0 km/h
2666 09-03-2009 04:59:44 3.2 C 4.64 g/m*3 3.2 C 0 km/h
2667 09-03-2009 05:11:44 3.1 C 4.67 g/m*3 3.1 C 0 km/h
2668 09-03-2009 05:23:44 3.1 C 4.73 g/m*3 3.1 C 0 km/h
2669 09-03-2009 05:35:44 3 C 4.64 g/m*3 3 C 0 km/h
2670 09-03-2009 05:47:45 3.2 C 4.64 g/m*3 3.2 C 0 km/h
2671 09-03-2009 05:59:45 3.3 C 4.61 g/m*3 3.3 C 0 km/h
2672 09-03-2009 06:11:45 3.1 C 4.67 g/m*3 3.1 C 0 km/h
2673 09-03-2009 06:23:45 2.5 C 4.66 g/m*3 2.5 C 0 km/h
2674 09-03-2009 06:35:45 2.3 C 4.71 g/m*3 2.3 C 0 km/h
2675 09-03-2009 06:47:45 2.1 C 4.7 g/m*3 2.1 C 0 km/h
Sensor: Nr:Datum:Temp:Abs-Feuchte:Windchill:Wind:
Aussen-T/F 2676 09-03-2009 06:59:42 2.2 C 4.79 g/m*3 2.2 C 0 km/h
2677 09-03-2009 07:11:42 2.2 C 4.73 g/m*3 2.2 C 0 km/h
2678 09-03-2009 07:23:42 2.1 C 4.42 g/m*3 2.1 C 0 km/h
2679 09-03-2009 07:35:41 2.1 C 4.2 g/m*3 2.1 C 0 km/h
2680 09-03-2009 07:47:42 2 C 3.95 g/m*3 2 C 0 km/h
2681 09-03-2009 07:59:41 2.1 C 3.92 g/m*3 2.1 C 0 km/h
2682 09-03-2009 08:11:41 2.2 C 3.89 g/m*3 2.2 C 0 km/h
2683 09-03-2009 08:23:41 2.6 C 3.82 g/m*3 2.6 C 0 km/h
2684 09-03-2009 08:35:42 2.5 C 3.91 g/m*3 2.5 C 0 km/h
2685 09-03-2009 08:47:41 3 C 3.92 g/m*3 3 C 0 km/h
2686 09-03-2009 08:59:41 3.4 C 3.97 g/m*3 3.4 C 0 km/h
2687 09-03-2009 09:11:41 3.5 C 4 g/m*3 3.5 C 0 km/h
2688 09-03-2009 09:23:40 3.3 C 4 g/m*3 3.3 C 0 km/h
2689 09-03-2009 09:35:41 3.7 C 4.11 g/m*3 3.7 C 0 km/h
2690 09-03-2009 09:47:40 4.2 C 3.99 g/m*3 4.2 C 0 km/h
2691 09-03-2009 09:59:40 4.5 C 4.01 g/m*3 4.5 C 0 km/h
2692 09-03-2009 10:11:41 4.7 C 4.13 g/m*3 4.7 C 0 km/h
2693 09-03-2009 10:23:40 5.1 C 3.97 g/m*3 5.1 C 0 km/h
2694 09-03-2009 10:35:40 5.3 C 4.02 g/m*3 5.3 C 0 km/h
2695 09-03-2009 10:47:39 5.6 C 4.03 g/m*3 5.6 C 0 km/h
2696 09-03-2009 10:59:40 5.6 C 3.96 g/m*3 5.6 C 0 km/h
2697 09-03-2009 11:11:40 6 C 3.92 g/m*3 6 C 0 km/h
2698 09-03-2009 11:23:40 5.8 C 3.94 g/m*3 5.8 C 0 km/h
2699 09-03-2009 11:35:39 6.4 C 3.95 g/m*3 6.4 C 0 km/h
2700 09-03-2009 11:47:40 6.1 C 3.8 g/m*3 6.1 C 0 km/h
Sensor: Nr:Datum:Temp:Abs-Feuchte:Windchill:Wind:
Aussen-T/F 2701 09-03-2009 11:59:39 6.5 C 3.97 g/m*3 6.5 C 0 km/h
2702 09-03-2009 12:11:39 7.2 C 3.92 g/m*3 7.2 C 0 km/h
2703 09-03-2009 12:23:39 7 C 3.56 g/m*3 7 C 0 km/h
2704 09-03-2009 12:35:38 7 C 3.64 g/m*3 7 C 0 km/h
2705 09-03-2009 12:47:39 7.2 C 3.69 g/m*3 7.2 C 0 km/h
2706 09-03-2009 12:59:39 7.7 C 3.49 g/m*3 7.7 C 0 km/h
2707 09-03-2009 13:11:39 7.7 C 3.49 g/m*3 7.7 C 0 km/h
2708 09-03-2009 13:23:38 7.4 C 3.42 g/m*3 7.4 C 0 km/h
2709 09-03-2009 13:35:39 7.5 C 3.52 g/m*3 7.5 C 0 km/h
2710 09-03-2009 13:47:38 7.7 C 3.24 g/m*3 7.7 C 0 km/h
2711 09-03-2009 13:59:38 8 C 3.22 g/m*3 8 C 0 km/h
2712 09-03-2009 14:11:38 7.7 C 3.24 g/m*3 7.7 C 0 km/h
2713 09-03-2009 14:23:38 8.2 C 3.35 g/m*3 8.2 C 0 km/h
2714 09-03-2009 14:35:38 8.4 C 3.48 g/m*3 8.4 C 0 km/h
2715 09-03-2009 14:47:37 8.3 C 3.46 g/m*3 8.3 C 0 km/h
2716 09-03-2009 14:59:38 7.2 C 3.69 g/m*3 7.2 C 0 km/h
2717 09-03-2009 15:11:38 6.3 C 4 g/m*3 6.3 C 0 km/h
2718 09-03-2009 15:23:37 6.9 C 4.16 g/m*3 6.9 C 0 km/h
2719 09-03-2009 15:35:37 8.1 C 3.83 g/m*3 8.1 C 0 km/h
2720 09-03-2009 15:47:38 8.7 C 3.63 g/m*3 8.7 C 0 km/h
2721 09-03-2009 15:59:37 8.6 C 3.52 g/m*3 8.6 C 0 km/h
2722 09-03-2009 16:11:37 9.5 C 3.55 g/m*3 9.5 C 0 km/h
2723 09-03-2009 16:23:37 8.7 C 3.55 g/m*3 8.7 C 0 km/h
2724 09-03-2009 16:35:36 8.7 C 3.72 g/m*3 8.7 C 0 km/h
2725 09-03-2009 16:47:37 8.8 C 3.74 g/m*3 8.8 C 0 km/h
Sensor: Nr:Datum:Temp:Abs-Feuchte:Windchill:Wind:
Aussen-T/F 2726 09-03-2009 16:59:36 9.1 C 3.37 g/m*3 9.1 C 0 km/h
2727 09-03-2009 17:11:36 8.3 C 3.37 g/m*3 8.3 C 0 km/h
2728 09-03-2009 17:23:36 8 C 3.47 g/m*3 8 C 0 km/h
2729 09-03-2009 17:35:37 7.9 C 3.61 g/m*3 7.9 C 0 km/h
2730 09-03-2009 17:47:36 7.5 C 3.68 g/m*3 7.5 C 0 km/h
2731 09-03-2009 17:59:36 7.4 C 3.66 g/m*3 7.4 C 0 km/h
2732 09-03-2009 18:11:36 7.4 C 3.74 g/m*3 7.4 C 0 km/h
2733 09-03-2009 18:23:36 7.3 C 3.71 g/m*3 7.3 C 0 km/h
2734 09-03-2009 18:35:36 7 C 3.87 g/m*3 7 C 0 km/h
2735 09-03-2009 18:47:35 6.7 C 4.1 g/m*3 6.7 C 0 km/h
2736 09-03-2009 18:59:35 6.4 C 4.17 g/m*3 6.4 C 0 km/h
2737 09-03-2009 19:11:35 6.4 C 4.1 g/m*3 6.4 C 0 km/h
2738 09-03-2009 19:23:35 6.2 C 3.82 g/m*3 6.2 C 0 km/h
2739 09-03-2009 19:35:35 6 C 3.85 g/m*3 6 C 0 km/h
2740 09-03-2009 19:47:34 5.8 C 4.01 g/m*3 5.8 C 0 km/h
2741 09-03-2009 19:59:35 5.8 C 4.08 g/m*3 5.8 C 0 km/h
2742 09-03-2009 20:11:35 5.8 C 4.23 g/m*3 5.8 C 0 km/h
2743 09-03-2009 20:23:35 5.5 C 4.28 g/m*3 5.5 C 0 km/h
2744 09-03-2009 20:35:34 5.2 C 4.34 g/m*3 5.2 C 0 km/h
2745 09-03-2009 20:47:35 4.9 C 4.46 g/m*3 4.9 C 0 km/h
2746 09-03-2009 20:59:34 4.8 C 4.56 g/m*3 4.8 C 0 km/h
2747 09-03-2009 21:11:34 4.6 C 4.57 g/m*3 4.6 C 0 km/h
2748 09-03-2009 21:23:34 4.4 C 4.64 g/m*3 4.4 C 0 km/h
2749 09-03-2009 21:35:34 4 C 4.77 g/m*3 4 C 0 km/h
2750 09-03-2009 21:48:35 3.8 C 4.89 g/m*3 3.8 C 0 km/h
Sensor: Nr:Datum:Temp:Abs-Feuchte:Windchill:Wind:
Aussen-T/F 2751 09-03-2009 22:00:35 3.8 C 4.89 g/m*3 3.8 C 0 km/h
2752 09-03-2009 22:12:35 4.1 C 4.86 g/m*3 4.1 C 0 km/h
2753 09-03-2009 22:24:35 3.7 C 4.8 g/m*3 3.7 C 0 km/h
2754 09-03-2009 22:36:35 4 C 4.58 g/m*3 4 C 0 km/h
2755 09-03-2009 22:48:35 3.9 C 4.61 g/m*3 3.9 C 0 km/h
2756 09-03-2009 23:00:35 3.7 C 4.61 g/m*3 3.7 C 0 km/h
2757 09-03-2009 23:12:35 3.5 C 4.61 g/m*3 3.5 C 0 km/h
2758 09-03-2009 23:24:35 3.3 C 4.67 g/m*3 3.3 C 0 km/h
2759 09-03-2009 23:36:35 3.2 C 4.7 g/m*3 3.2 C 0 km/h
2760 09-03-2009 23:48:35 3.4 C 4.83 g/m*3 3.4 C 0 km/h
2761 10-03-2009 00:00:35 3.4 C 4.83 g/m*3 3.4 C 0 km/h
2762 10-03-2009 00:12:35 3.3 C 4.79 g/m*3 3.3 C 0 km/h
2763 10-03-2009 00:24:35 3.4 C 4.89 g/m*3 3.4 C 0 km/h
2764 10-03-2009 00:36:35 3.7 C 4.92 g/m*3 3.7 C 0 km/h
2765 10-03-2009 00:48:35 3.9 C 4.86 g/m*3 3.9 C 0 km/h
2766 10-03-2009 01:00:35 4.1 C 4.8 g/m*3 4.1 C 0 km/h
2767 10-03-2009 01:12:35 4.2 C 4.77 g/m*3 4.2 C 0 km/h
2768 10-03-2009 01:24:36 4.3 C 4.67 g/m*3 4.3 C 0 km/h
2769 10-03-2009 01:36:36 4.3 C 4.67 g/m*3 4.3 C 0 km/h
2770 10-03-2009 01:48:36 4.4 C 4.64 g/m*3 4.4 C 0 km/h
2771 10-03-2009 02:00:36 4.5 C 4.6 g/m*3 4.5 C 0 km/h
2772 10-03-2009 02:12:36 4.4 C 4.64 g/m*3 4.4 C 0 km/h
2773 10-03-2009 02:24:36 4.6 C 4.57 g/m*3 4.6 C 0 km/h
2774 10-03-2009 02:36:36 4.7 C 4.46 g/m*3 4.7 C 0 km/h
2775 10-03-2009 02:48:36 4.7 C 4.4 g/m*3 4.7 C 0 km/h
Sensor: Nr:Datum:Temp:Abs-Feuchte:Windchill:Wind:
Aussen-T/F 2776 10-03-2009 03:00:36 4.7 C 4.4 g/m*3 4.7 C 0 km/h
2777 10-03-2009 03:12:36 4.5 C 4.4 g/m*3 4.5 C 0 km/h
2778 10-03-2009 03:24:36 4.5 C 4.4 g/m*3 4.5 C 0 km/h
2779 10-03-2009 03:36:36 4.5 C 4.4 g/m*3 4.5 C 0 km/h
2780 10-03-2009 03:48:36 4.5 C 4.47 g/m*3 4.5 C 0 km/h
2781 10-03-2009 04:00:36 4.6 C 4.43 g/m*3 4.6 C 0 km/h
2782 10-03-2009 04:12:36 4.5 C 4.4 g/m*3 4.5 C 0 km/h
2783 10-03-2009 04:24:36 4.6 C 4.43 g/m*3 4.6 C 0 km/h
2784 10-03-2009 04:36:36 4.5 C 4.4 g/m*3 4.5 C 0 km/h
2785 10-03-2009 04:48:36 4.4 C 4.44 g/m*3 4.4 C 0 km/h
2786 10-03-2009 05:00:36 4.4 C 4.37 g/m*3 4.4 C 0 km/h
2787 10-03-2009 05:12:37 4.4 C 4.44 g/m*3 4.4 C 0 km/h
2788 10-03-2009 05:24:37 4.4 C 4.44 g/m*3 4.4 C 0 km/h
2789 10-03-2009 05:36:37 4.3 C 4.48 g/m*3 4.3 C 0 km/h
2790 10-03-2009 05:48:37 4.3 C 4.54 g/m*3 4.3 C 0 km/h
2791 10-03-2009 06:00:37 4.3 C 4.61 g/m*3 4.3 C 0 km/h
2792 10-03-2009 06:12:37 4.1 C 4.61 g/m*3 4.1 C 0 km/h
2793 10-03-2009 06:24:37 4.2 C 4.64 g/m*3 4.2 C 0 km/h
2794 10-03-2009 06:36:37 4.2 C 4.64 g/m*3 4.2 C 0 km/h
2795 10-03-2009 06:48:37 4.3 C 4.67 g/m*3 4.3 C 0 km/h
2796 10-03-2009 07:00:35 4.3 C 4.61 g/m*3 4.3 C 0 km/h
2797 10-03-2009 07:12:35 4.3 C 4.61 g/m*3 4.3 C 0 km/h
2798 10-03-2009 07:24:34 4.2 C 4.64 g/m*3 4.2 C 0 km/h
2799 10-03-2009 07:36:35 4.2 C 4.64 g/m*3 4.2 C 0 km/h
2800 10-03-2009 07:48:34 4.3 C 4.74 g/m*3 4.3 C 0 km/h
Sensor: Nr:Datum:Temp:Abs-Feuchte:Windchill:Wind:
Aussen-T/F 2801 10-03-2009 08:00:34 4.5 C 4.73 g/m*3 4.5 C 0 km/h
2802 10-03-2009 08:12:34 4.7 C 4.73 g/m*3 4.7 C 0 km/h
2803 10-03-2009 08:24:35 4.8 C 4.76 g/m*3 4.8 C 0 km/h
2804 10-03-2009 08:36:34 4.9 C 4.73 g/m*3 4.9 C 0 km/h
2805 10-03-2009 08:48:34 5 C 4.69 g/m*3 5 C 0 km/h
2806 10-03-2009 09:00:33 5 C 4.69 g/m*3 5 C 0 km/h
2807 10-03-2009 09:12:33 5.2 C 4.75 g/m*3 5.2 C 0 km/h
2808 10-03-2009 09:24:34 5.2 C 4.68 g/m*3 5.2 C 0 km/h
2809 10-03-2009 09:36:34 5.3 C 4.64 g/m*3 5.3 C 0 km/h
2810 10-03-2009 09:48:33 5.3 C 4.64 g/m*3 5.3 C 0 km/h
2811 10-03-2009 10:00:34 5.4 C 4.6 g/m*3 5.4 C 0 km/h
2812 10-03-2009 10:12:34 5.5 C 4.64 g/m*3 5.5 C 0 km/h
2813 10-03-2009 10:24:33 5.6 C 4.67 g/m*3 5.6 C 0 km/h
2814 10-03-2009 10:36:33 5.7 C 4.63 g/m*3 5.7 C 0 km/h
2815 10-03-2009 10:48:33 5.9 C 4.69 g/m*3 5.9 C 0 km/h
2816 10-03-2009 11:00:33 6.1 C 4.6 g/m*3 6.1 C 0 km/h
2817 10-03-2009 11:12:33 6.3 C 4.59 g/m*3 6.3 C 0 km/h
2818 10-03-2009 11:24:32 6.4 C 4.62 g/m*3 6.4 C 0 km/h
2819 10-03-2009 11:36:33 6.3 C 4.66 g/m*3 6.3 C 0 km/h
2820 10-03-2009 11:48:32 6.3 C 4.66 g/m*3 6.3 C 0 km/h
2821 10-03-2009 12:00:32 6.4 C 4.69 g/m*3 6.4 C 0 km/h
2822 10-03-2009 12:12:32 6.5 C 4.65 g/m*3 6.5 C 0 km/h
2823 10-03-2009 12:24:32 6.6 C 4.6 g/m*3 6.6 C 0 km/h
2824 10-03-2009 12:36:32 6.5 C 4.57 g/m*3 6.5 C 0 km/h
2825 10-03-2009 12:48:32 6.5 C 4.57 g/m*3 6.5 C 0 km/h
Sensor: Nr:Datum:Temp:Abs-Feuchte:Windchill:Wind:
Aussen-T/F 2826 10-03-2009 13:00:31 6.6 C 4.6 g/m*3 6.6 C 0 km/h
2827 10-03-2009 13:12:31 6.7 C 4.64 g/m*3 6.7 C 0 km/h
2828 10-03-2009 13:24:32 6.8 C 4.67 g/m*3 6.8 C 0 km/h
2829 10-03-2009 13:36:31 6.8 C 4.67 g/m*3 6.8 C 0 km/h
2830 10-03-2009 13:48:31 7 C 4.65 g/m*3 7 C 0 km/h
2831 10-03-2009 14:00:31 7.1 C 4.6 g/m*3 7.1 C 0 km/h
2832 10-03-2009 14:12:31 7.1 C 4.52 g/m*3 7.1 C 0 km/h
2833 10-03-2009 14:24:31 7.1 C 4.6 g/m*3 7.1 C 0 km/h
2834 10-03-2009 14:36:31 6.9 C 4.7 g/m*3 6.9 C 0 km/h
2835 10-03-2009 14:48:31 6.8 C 4.74 g/m*3 6.8 C 0 km/h
2836 10-03-2009 15:00:31 6.8 C 4.67 g/m*3 6.8 C 0 km/h
2837 10-03-2009 15:12:31 6.8 C 4.67 g/m*3 6.8 C 0 km/h
2838 10-03-2009 15:24:30 6.6 C 4.6 g/m*3 6.6 C 0 km/h
2839 10-03-2009 15:36:30 6.4 C 4.62 g/m*3 6.4 C 0 km/h
2840 10-03-2009 15:48:30 6.4 C 4.55 g/m*3 6.4 C 0 km/h
2841 10-03-2009 16:00:30 6.4 C 4.32 g/m*3 6.4 C 0 km/h
2842 10-03-2009 16:12:30 6.4 C 4.47 g/m*3 6.4 C 0 km/h
2843 10-03-2009 16:24:29 5.9 C 4.47 g/m*3 5.9 C 0 km/h
2844 10-03-2009 16:36:30 5.7 C 4.7 g/m*3 5.7 C 0 km/h
2845 10-03-2009 16:48:30 5.4 C 4.74 g/m*3 5.4 C 0 km/h
2846 10-03-2009 17:00:29 5.6 C 4.88 g/m*3 5.6 C 0 km/h
2847 10-03-2009 17:12:29 5.6 C 4.81 g/m*3 5.6 C 0 km/h
2848 10-03-2009 17:24:30 5.8 C 4.87 g/m*3 5.8 C 0 km/h
2849 10-03-2009 17:36:29 5.7 C 4.91 g/m*3 5.7 C 0 km/h
2850 10-03-2009 17:48:29 5.7 C 4.91 g/m*3 5.7 C 0 km/h
Sensor: Nr:Datum:Temp:Abs-Feuchte:Windchill:Wind:
Aussen-T/F 2851 10-03-2009 18:00:28 5.8 C 5.01 g/m*3 5.8 C 0 km/h
2852 10-03-2009 18:12:28 5.7 C 5.05 g/m*3 5.7 C 0 km/h
2853 10-03-2009 18:24:29 5.8 C 5.09 g/m*3 5.8 C 0 km/h
2854 10-03-2009 18:36:29 5.8 C 5.09 g/m*3 5.8 C 0 km/h
2855 10-03-2009 18:48:28 5.9 C 5.19 g/m*3 5.9 C 0 km/h
2856 10-03-2009 19:00:29 6 C 5.15 g/m*3 6 C 0 km/h
2857 10-03-2009 19:12:29 6 C 5.23 g/m*3 6 C 0 km/h
2858 10-03-2009 19:24:28 6 C 5.3 g/m*3 6 C 0 km/h
2859 10-03-2009 19:36:28 6 C 5.37 g/m*3 6 C 0 km/h
2860 10-03-2009 19:48:28 5.8 C 5.73 g/m*3 5.8 C 0 km/h
2861 10-03-2009 20:00:28 5.8 C 5.87 g/m*3 5.8 C 0 km/h
2862 10-03-2009 20:12:28 5.8 C 5.95 g/m*3 5.8 C 0 km/h
2863 10-03-2009 20:24:27 5.9 C 5.98 g/m*3 5.9 C 0 km/h
2864 10-03-2009 20:36:27 6.5 C 5.92 g/m*3 6.5 C 0 km/h
2865 10-03-2009 20:48:27 6.9 C 5.62 g/m*3 6.9 C 0 km/h
2866 10-03-2009 21:00:27 7.2 C 5.34 g/m*3 7.2 C 0 km/h
2867 10-03-2009 21:12:27 7.3 C 5.21 g/m*3 7.3 C 0 km/h
2868 10-03-2009 21:24:27 7.3 C 5.21 g/m*3 7.3 C 0 km/h
2869 10-03-2009 21:36:27 6.8 C 5.51 g/m*3 6.8 C 0 km/h
2870 10-03-2009 21:49:28 6.2 C 5.44 g/m*3 6.2 C 0 km/h
2871 10-03-2009 22:01:28 5.7 C 5.34 g/m*3 5.7 C 0 km/h
2872 10-03-2009 22:13:28 5.6 C 5.3 g/m*3 5.6 C 0 km/h
2873 10-03-2009 22:25:28 5.4 C 5.37 g/m*3 5.4 C 0 km/h
2874 10-03-2009 22:37:28 5.3 C 5.34 g/m*3 5.3 C 0 km/h
2875 10-03-2009 22:49:28 5.2 C 5.51 g/m*3 5.2 C 0 km/h
Sensor: Nr:Datum:Temp:Abs-Feuchte:Windchill:Wind:
Aussen-T/F 2876 10-03-2009 23:01:28 5.1 C 5.47 g/m*3 5.1 C 0 km/h
2877 10-03-2009 23:13:28 5.1 C 5.47 g/m*3 5.1 C 0 km/h
2878 10-03-2009 23:25:28 5.2 C 5.37 g/m*3 5.2 C 0 km/h
2879 10-03-2009 23:37:28 5.4 C 5.02 g/m*3 5.4 C 0 km/h
2880 10-03-2009 23:49:28 5.4 C 4.81 g/m*3 5.4 C 0 km/h
2881 11-03-2009 00:01:28 5.5 C 4.64 g/m*3 5.5 C 0 km/h
2882 11-03-2009 00:13:28 5.5 C 4.78 g/m*3 5.5 C 0 km/h
2883 11-03-2009 00:25:28 5.3 C 4.78 g/m*3 5.3 C 0 km/h
2884 11-03-2009 00:37:28 5.1 C 4.72 g/m*3 5.1 C 0 km/h
2885 11-03-2009 00:49:28 5 C 4.69 g/m*3 5 C 0 km/h
2886 11-03-2009 01:01:28 4.8 C 4.69 g/m*3 4.8 C 0 km/h
2887 11-03-2009 01:13:29 4.8 C 4.69 g/m*3 4.8 C 0 km/h
2888 11-03-2009 01:25:29 4.9 C 4.66 g/m*3 4.9 C 0 km/h
2889 11-03-2009 01:37:29 4.9 C 4.66 g/m*3 4.9 C 0 km/h
2890 11-03-2009 01:49:29 4.8 C 4.63 g/m*3 4.8 C 0 km/h
2891 11-03-2009 02:01:29 4.9 C 4.59 g/m*3 4.9 C 0 km/h
2892 11-03-2009 02:13:29 5 C 4.48 g/m*3 5 C 0 km/h
2893 11-03-2009 02:25:29 4.9 C 4.52 g/m*3 4.9 C 0 km/h
2894 11-03-2009 02:37:29 4.9 C 4.59 g/m*3 4.9 C 0 km/h
2895 11-03-2009 02:49:29 4.8 C 4.56 g/m*3 4.8 C 0 km/h
2896 11-03-2009 03:01:29 4.6 C 4.5 g/m*3 4.6 C 0 km/h
2897 11-03-2009 03:13:29 4.5 C 4.54 g/m*3 4.5 C 0 km/h
2898 11-03-2009 03:25:29 4.5 C 4.54 g/m*3 4.5 C 0 km/h
2899 11-03-2009 03:37:29 4.6 C 4.57 g/m*3 4.6 C 0 km/h
2900 11-03-2009 03:49:29 4.7 C 4.46 g/m*3 4.7 C 0 km/h
Sensor: Nr:Datum:Temp:Abs-Feuchte:Windchill:Wind:
Aussen-T/F 2901 11-03-2009 04:01:29 4.7 C 4.46 g/m*3 4.7 C 0 km/h
2902 11-03-2009 04:13:29 4.7 C 4.4 g/m*3 4.7 C 0 km/h
2903 11-03-2009 04:25:29 4.7 C 4.33 g/m*3 4.7 C 0 km/h
2904 11-03-2009 04:37:29 4.7 C 4.33 g/m*3 4.7 C 0 km/h
2905 11-03-2009 04:49:29 4.7 C 4.33 g/m*3 4.7 C 0 km/h
2906 11-03-2009 05:01:30 4.7 C 4.26 g/m*3 4.7 C 0 km/h
2907 11-03-2009 05:13:30 4.6 C 4.23 g/m*3 4.6 C 0 km/h
2908 11-03-2009 05:25:30 4.6 C 4.23 g/m*3 4.6 C 0 km/h
2909 11-03-2009 05:37:30 4.6 C 4.17 g/m*3 4.6 C 0 km/h
2910 11-03-2009 05:49:30 4.6 C 4.17 g/m*3 4.6 C 0 km/h
2911 11-03-2009 06:01:30 4.6 C 4.1 g/m*3 4.6 C 0 km/h
2912 11-03-2009 06:13:30 4.1 C 4.22 g/m*3 4.1 C 0 km/h
2913 11-03-2009 06:25:30 3.9 C 4.55 g/m*3 3.9 C 0 km/h
2914 11-03-2009 06:37:30 3.6 C 4.7 g/m*3 3.6 C 0 km/h
2915 11-03-2009 06:49:30 3.6 C 4.83 g/m*3 3.6 C 0 km/h
2916 11-03-2009 07:01:27 3.7 C 4.86 g/m*3 3.7 C 0 km/h
2917 11-03-2009 07:13:28 3.9 C 4.86 g/m*3 3.9 C 0 km/h
2918 11-03-2009 07:25:28 3.9 C 4.86 g/m*3 3.9 C 0 km/h
2919 11-03-2009 07:37:27 3.8 C 4.89 g/m*3 3.8 C 0 km/h
2920 11-03-2009 07:49:27 4 C 4.83 g/m*3 4 C 0 km/h
2921 11-03-2009 08:01:27 4.3 C 4.74 g/m*3 4.3 C 0 km/h
2922 11-03-2009 08:13:27 4.5 C 4.6 g/m*3 4.5 C 0 km/h
2923 11-03-2009 08:25:27 4.5 C 4.6 g/m*3 4.5 C 0 km/h
2924 11-03-2009 08:37:26 4.7 C 4.6 g/m*3 4.7 C 0 km/h
2925 11-03-2009 08:49:27 4.9 C 4.59 g/m*3 4.9 C 0 km/h
Sensor: Nr:Datum:Temp:Abs-Feuchte:Windchill:Wind:
Aussen-T/F 2926 11-03-2009 09:01:26 4.8 C 4.69 g/m*3 4.8 C 0 km/h
2927 11-03-2009 09:13:26 4.6 C 4.83 g/m*3 4.6 C 0 km/h
2928 11-03-2009 09:25:26 4.6 C 4.83 g/m*3 4.6 C 0 km/h
2929 11-03-2009 09:37:26 4.8 C 4.9 g/m*3 4.8 C 0 km/h
2930 11-03-2009 09:49:26 4.9 C 4.93 g/m*3 4.9 C 0 km/h
2931 11-03-2009 10:01:25 4.9 C 4.79 g/m*3 4.9 C 0 km/h
2932 11-03-2009 10:13:26 5 C 4.69 g/m*3 5 C 0 km/h
2933 11-03-2009 10:25:26 4.8 C 4.69 g/m*3 4.8 C 0 km/h
2934 11-03-2009 10:37:25 4.8 C 4.69 g/m*3 4.8 C 0 km/h
2935 11-03-2009 10:49:25 4.8 C 4.63 g/m*3 4.8 C 0 km/h
2936 11-03-2009 11:01:26 5.2 C 4.54 g/m*3 5.2 C 0 km/h
2937 11-03-2009 11:13:25 5.2 C 4.54 g/m*3 5.2 C 0 km/h
2938 11-03-2009 11:25:25 5.2 C 4.48 g/m*3 5.2 C 0 km/h
2939 11-03-2009 11:37:25 5.4 C 4.47 g/m*3 5.4 C 0 km/h
2940 11-03-2009 11:49:25 5.9 C 4.54 g/m*3 5.9 C 0 km/h
2941 11-03-2009 12:01:25 6.7 C 4.33 g/m*3 6.7 C 0 km/h
2942 11-03-2009 12:13:24 7.1 C 4.21 g/m*3 7.1 C 0 km/h
2943 11-03-2009 12:25:24 7.4 C 4.29 g/m*3 7.4 C 0 km/h
2944 11-03-2009 12:37:24 7.3 C 3.95 g/m*3 7.3 C 0 km/h
2945 11-03-2009 12:49:24 7.4 C 4.06 g/m*3 7.4 C 0 km/h
2946 11-03-2009 13:01:24 7.1 C 4.06 g/m*3 7.1 C 0 km/h
2947 11-03-2009 13:13:24 6.2 C 4.63 g/m*3 6.2 C 0 km/h
2948 11-03-2009 13:25:24 6.5 C 4.87 g/m*3 6.5 C 0 km/h
2949 11-03-2009 13:37:24 7.3 C 4.82 g/m*3 7.3 C 0 km/h
2950 11-03-2009 13:49:24 7.9 C 4.19 g/m*3 7.9 C 0 km/h
Sensor: Nr:Datum:Temp:Abs-Feuchte:Windchill:Wind:
Aussen-T/F 2951 11-03-2009 14:01:23 8 C 3.72 g/m*3 8 C 0 km/h
2952 11-03-2009 14:13:24 8.1 C 3.91 g/m*3 8.1 C 0 km/h
2953 11-03-2009 14:25:24 7.6 C 3.79 g/m*3 7.6 C 0 km/h
2954 11-03-2009 14:37:23 8.5 C 3.5 g/m*3 8.5 C 0 km/h
2955 11-03-2009 14:49:23 8.5 C 3.42 g/m*3 8.5 C 0 km/h
2956 11-03-2009 15:01:23 8.6 C 3.52 g/m*3 8.6 C 0 km/h
2957 11-03-2009 15:13:23 9.3 C 3.5 g/m*3 9.3 C 0 km/h
2958 11-03-2009 15:25:23 9.4 C 3.62 g/m*3 9.4 C 0 km/h
2959 11-03-2009 15:37:23 9.7 C 3.69 g/m*3 9.7 C 0 km/h
2960 11-03-2009 15:49:22 9.1 C 3.64 g/m*3 9.1 C 0 km/h
2961 11-03-2009 16:01:23 8.5 C 3.59 g/m*3 8.5 C 0 km/h
2962 11-03-2009 16:13:22 8.4 C 3.73 g/m*3 8.4 C 0 km/h
2963 11-03-2009 16:25:22 8.5 C 3.84 g/m*3 8.5 C 0 km/h
2964 11-03-2009 16:37:22 8.6 C 3.95 g/m*3 8.6 C 0 km/h
2965 11-03-2009 16:49:22 8.3 C 3.88 g/m*3 8.3 C 0 km/h
2966 11-03-2009 17:01:22 9.1 C 4.08 g/m*3 9.1 C 0 km/h
2967 11-03-2009 17:13:21 8.5 C 3.67 g/m*3 8.5 C 0 km/h
2968 11-03-2009 17:25:21 8.4 C 3.82 g/m*3 8.4 C 0 km/h
2969 11-03-2009 17:37:22 8.3 C 3.71 g/m*3 8.3 C 0 km/h
2970 11-03-2009 17:49:21 8.3 C 3.71 g/m*3 8.3 C 0 km/h
2971 11-03-2009 18:01:21 8.1 C 3.66 g/m*3 8.1 C 0 km/h
2972 11-03-2009 18:13:22 7.6 C 3.79 g/m*3 7.6 C 0 km/h
2973 11-03-2009 18:25:22 7.1 C 3.9 g/m*3 7.1 C 0 km/h
2974 11-03-2009 18:37:21 6.8 C 4.13 g/m*3 6.8 C 0 km/h
2975 11-03-2009 18:49:21 6.5 C 4.12 g/m*3 6.5 C 0 km/h
Sensor: Nr:Datum:Temp:Abs-Feuchte:Windchill:Wind:
Aussen-T/F 2976 11-03-2009 19:01:20 6.4 C 4.17 g/m*3 6.4 C 0 km/h
2977 11-03-2009 19:13:21 6.3 C 4.22 g/m*3 6.3 C 0 km/h
2978 11-03-2009 19:25:21 6.1 C 4.02 g/m*3 6.1 C 0 km/h
2979 11-03-2009 19:37:20 5.8 C 4.01 g/m*3 5.8 C 0 km/h
2980 11-03-2009 19:49:20 5.6 C 4.03 g/m*3 5.6 C 0 km/h
2981 11-03-2009 20:01:20 5.7 C 4.06 g/m*3 5.7 C 0 km/h
2982 11-03-2009 20:13:20 5.8 C 4.01 g/m*3 5.8 C 0 km/h
2983 11-03-2009 20:25:20 5.5 C 4 g/m*3 5.5 C 0 km/h
2984 11-03-2009 20:37:20 5.3 C 4.02 g/m*3 5.3 C 0 km/h
2985 11-03-2009 20:49:20 5.1 C 4.04 g/m*3 5.1 C 0 km/h
2986 11-03-2009 21:01:20 4.8 C 4.09 g/m*3 4.8 C 0 km/h
2987 11-03-2009 21:13:20 4.6 C 4.1 g/m*3 4.6 C 0 km/h
2988 11-03-2009 21:25:20 4.3 C 4.15 g/m*3 4.3 C 0 km/h
2989 11-03-2009 21:37:19 4.2 C 4.19 g/m*3 4.2 C 0 km/h
2990 11-03-2009 21:49:20 4 C 4.13 g/m*3 4 C 0 km/h
2991 11-03-2009 22:02:20 4.1 C 4.16 g/m*3 4.1 C 0 km/h
2992 11-03-2009 22:14:20 3.7 C 4.18 g/m*3 3.7 C 0 km/h
2993 11-03-2009 22:26:20 3.5 C 4.18 g/m*3 3.5 C 0 km/h
2994 11-03-2009 22:38:20 3.4 C 4.15 g/m*3 3.4 C 0 km/h
2995 11-03-2009 22:50:21 3.1 C 4.13 g/m*3 3.1 C 0 km/h
2996 11-03-2009 23:02:21 3.3 C 4.19 g/m*3 3.3 C 0 km/h
2997 11-03-2009 23:14:21 3 C 4.16 g/m*3 3 C 0 km/h
2998 11-03-2009 23:26:21 2.8 C 4.22 g/m*3 2.8 C 0 km/h
2999 11-03-2009 23:38:21 2.8 C 4.28 g/m*3 2.8 C 0 km/h
3000 11-03-2009 23:50:21 3.1 C 4.25 g/m*3 3.1 C 0 km/h
Sensor: Nr:Datum:Temp:Abs-Feuchte:Windchill:Wind:
Aussen-T/F 3001 12-03-2009 00:02:21 3.4 C 4.28 g/m*3 3.4 C 0 km/h
3002 12-03-2009 00:14:21 3.5 C 4.24 g/m*3 3.5 C 0 km/h
3003 12-03-2009 00:26:21 3.5 C 4.18 g/m*3 3.5 C 0 km/h
3004 12-03-2009 00:38:21 3.5 C 4.18 g/m*3 3.5 C 0 km/h
3005 12-03-2009 00:50:21 3.5 C 4.18 g/m*3 3.5 C 0 km/h
3006 12-03-2009 01:02:21 3.5 C 4.18 g/m*3 3.5 C 0 km/h
3007 12-03-2009 01:14:21 3.4 C 4.15 g/m*3 3.4 C 0 km/h
3008 12-03-2009 01:26:21 3.4 C 4.15 g/m*3 3.4 C 0 km/h
3009 12-03-2009 01:38:21 3.4 C 4.21 g/m*3 3.4 C 0 km/h
3010 12-03-2009 01:50:21 3.4 C 4.15 g/m*3 3.4 C 0 km/h
3011 12-03-2009 02:02:21 3.5 C 4.18 g/m*3 3.5 C 0 km/h
3012 12-03-2009 02:14:21 3.4 C 4.15 g/m*3 3.4 C 0 km/h
3013 12-03-2009 02:26:21 3.5 C 4.18 g/m*3 3.5 C 0 km/h
3014 12-03-2009 02:38:22 3.6 C 4.15 g/m*3 3.6 C 0 km/h
3015 12-03-2009 02:50:22 3.6 C 4.15 g/m*3 3.6 C 0 km/h
3016 12-03-2009 03:02:22 3.8 C 4.08 g/m*3 3.8 C 0 km/h
3017 12-03-2009 03:14:22 3.8 C 4.02 g/m*3 3.8 C 0 km/h
3018 12-03-2009 03:26:22 3.8 C 4.02 g/m*3 3.8 C 0 km/h
3019 12-03-2009 03:38:22 3.9 C 4.04 g/m*3 3.9 C 0 km/h
3020 12-03-2009 03:50:22 4.1 C 3.9 g/m*3 4.1 C 0 km/h
3021 12-03-2009 04:02:22 4 C 3.94 g/m*3 4 C 0 km/h
3022 12-03-2009 04:14:22 4 C 3.94 g/m*3 4 C 0 km/h
3023 12-03-2009 04:26:22 4.1 C 3.97 g/m*3 4.1 C 0 km/h
3024 12-03-2009 04:38:22 4.2 C 3.93 g/m*3 4.2 C 0 km/h
3025 12-03-2009 04:50:22 4.2 C 3.93 g/m*3 4.2 C 0 km/h
Sensor: Nr:Datum:Temp:Abs-Feuchte:Windchill:Wind:
Aussen-T/F 3026 12-03-2009 05:02:22 4.4 C 3.92 g/m*3 4.4 C 0 km/h
3027 12-03-2009 05:14:22 4.3 C 3.89 g/m*3 4.3 C 0 km/h
3028 12-03-2009 05:26:22 4.5 C 3.81 g/m*3 4.5 C 0 km/h
3029 12-03-2009 05:38:22 4.6 C 3.9 g/m*3 4.6 C 0 km/h
3030 12-03-2009 05:50:22 4.4 C 3.92 g/m*3 4.4 C 0 km/h
3031 12-03-2009 06:02:22 4.4 C 3.98 g/m*3 4.4 C 0 km/h
3032 12-03-2009 06:14:22 4.5 C 4.01 g/m*3 4.5 C 0 km/h
3033 12-03-2009 06:26:23 4.7 C 4 g/m*3 4.7 C 0 km/h
3034 12-03-2009 06:38:23 4.8 C 3.96 g/m*3 4.8 C 0 km/h
3035 12-03-2009 06:50:23 4.8 C 3.96 g/m*3 4.8 C 0 km/h
3036 12-03-2009 07:02:20 4.7 C 3.93 g/m*3 4.7 C 0 km/h
3037 12-03-2009 07:14:20 4.7 C 4 g/m*3 4.7 C 0 km/h
3038 12-03-2009 07:26:20 4.7 C 4 g/m*3 4.7 C 0 km/h
3039 12-03-2009 07:38:20 4.8 C 4.02 g/m*3 4.8 C 0 km/h
3040 12-03-2009 07:50:19 4.9 C 3.98 g/m*3 4.9 C 0 km/h
3041 12-03-2009 08:02:19 5 C 4.01 g/m*3 5 C 0 km/h
3042 12-03-2009 08:14:20 5.1 C 3.97 g/m*3 5.1 C 0 km/h
3043 12-03-2009 08:26:20 5.1 C 3.97 g/m*3 5.1 C 0 km/h
3044 12-03-2009 08:38:19 5.2 C 3.99 g/m*3 5.2 C 0 km/h
3045 12-03-2009 08:50:19 5.1 C 4.24 g/m*3 5.1 C 0 km/h
3046 12-03-2009 09:02:19 5 C 4.42 g/m*3 5 C 0 km/h
3047 12-03-2009 09:14:19 4.9 C 4.66 g/m*3 4.9 C 0 km/h
3048 12-03-2009 09:26:19 4.8 C 4.76 g/m*3 4.8 C 0 km/h
3049 12-03-2009 09:38:18 4.7 C 4.86 g/m*3 4.7 C 0 km/h
3050 12-03-2009 09:50:19 4.8 C 4.83 g/m*3 4.8 C 0 km/h
Sensor: Nr:Datum:Temp:Abs-Feuchte:Windchill:Wind:
Aussen-T/F 3051 12-03-2009 10:02:18 4.6 C 4.83 g/m*3 4.6 C 0 km/h
3052 12-03-2009 10:14:18 4.6 C 4.9 g/m*3 4.6 C 0 km/h
3053 12-03-2009 10:26:18 4.5 C 4.93 g/m*3 4.5 C 0 km/h
3054 12-03-2009 10:38:18 4.7 C 4.93 g/m*3 4.7 C 0 km/h
3055 12-03-2009 10:50:18 5.1 C 4.79 g/m*3 5.1 C 0 km/h
3056 12-03-2009 11:02:18 5.4 C 4.74 g/m*3 5.4 C 0 km/h
3057 12-03-2009 11:14:17 5.5 C 4.64 g/m*3 5.5 C 0 km/h
3058 12-03-2009 11:26:17 5.5 C 4.64 g/m*3 5.5 C 0 km/h
3059 12-03-2009 11:38:18 5.5 C 4.78 g/m*3 5.5 C 0 km/h
3060 12-03-2009 11:50:17 5.7 C 4.7 g/m*3 5.7 C 0 km/h
3061 12-03-2009 12:02:17 6.1 C 4.68 g/m*3 6.1 C 0 km/h
3062 12-03-2009 12:14:18 6.5 C 4.72 g/m*3 6.5 C 0 km/h
3063 12-03-2009 12:26:18 6.5 C 4.72 g/m*3 6.5 C 0 km/h
3064 12-03-2009 12:38:17 6.5 C 4.8 g/m*3 6.5 C 0 km/h
3065 12-03-2009 12:50:17 6.6 C 4.83 g/m*3 6.6 C 0 km/h
3066 12-03-2009 13:02:16 6.7 C 4.86 g/m*3 6.7 C 0 km/h
3067 12-03-2009 13:14:17 6.8 C 4.89 g/m*3 6.8 C 0 km/h
3068 12-03-2009 13:26:17 6.8 C 4.89 g/m*3 6.8 C 0 km/h
3069 12-03-2009 13:38:16 6.8 C 4.89 g/m*3 6.8 C 0 km/h
3070 12-03-2009 13:50:17 6.9 C 4.93 g/m*3 6.9 C 0 km/h
3071 12-03-2009 14:02:16 6.9 C 5 g/m*3 6.9 C 0 km/h
3072 12-03-2009 14:14:16 6.8 C 5.05 g/m*3 6.8 C 0 km/h
3073 12-03-2009 14:26:16 6.9 C 5.16 g/m*3 6.9 C 0 km/h
3074 12-03-2009 14:38:16 6.9 C 5.16 g/m*3 6.9 C 0 km/h
3075 12-03-2009 14:50:16 7 C 5.35 g/m*3 7 C 0 km/h
Sensor: Nr:Datum:Temp:Abs-Feuchte:Windchill:Wind:
Aussen-T/F 3076 12-03-2009 15:02:16 6.8 C 5.51 g/m*3 6.8 C 0 km/h
3077 12-03-2009 15:14:15 6.5 C 5.55 g/m*3 6.5 C 0 km/h
3078 12-03-2009 15:26:15 6.4 C 5.74 g/m*3 6.4 C 0 km/h
3079 12-03-2009 15:38:16 6.8 C 6.04 g/m*3 6.8 C 0 km/h
3080 12-03-2009 15:50:15 6.9 C 6 g/m*3 6.9 C 0 km/h
3081 12-03-2009 16:02:15 7 C 5.81 g/m*3 7 C 0 km/h
3082 12-03-2009 16:14:14 7.1 C 5.85 g/m*3 7.1 C 0 km/h
3083 12-03-2009 16:26:14 7.1 C 5.85 g/m*3 7.1 C 0 km/h
3084 12-03-2009 16:38:15 7.2 C 5.89 g/m*3 7.2 C 0 km/h
3085 12-03-2009 16:50:14 7.1 C 5.85 g/m*3 7.1 C 0 km/h
3086 12-03-2009 17:02:14 7.1 C 5.85 g/m*3 7.1 C 0 km/h
3087 12-03-2009 17:14:15 6.9 C 6 g/m*3 6.9 C 0 km/h
3088 12-03-2009 17:26:15 6.9 C 6.16 g/m*3 6.9 C 0 km/h
3089 12-03-2009 17:38:14 6.9 C 6.16 g/m*3 6.9 C 0 km/h
3090 12-03-2009 17:50:14 6.9 C 6.16 g/m*3 6.9 C 0 km/h
3091 12-03-2009 18:02:14 6.8 C 6.19 g/m*3 6.8 C 0 km/h
3092 12-03-2009 18:14:14 6.7 C 6.31 g/m*3 6.7 C 0 km/h
3093 12-03-2009 18:26:14 6.7 C 6.38 g/m*3 6.7 C 0 km/h
3094 12-03-2009 18:38:14 6.7 C 6.53 g/m*3 6.7 C 0 km/h
3095 12-03-2009 18:50:13 6.7 C 6.61 g/m*3 6.7 C 0 km/h
3096 12-03-2009 19:02:13 6.7 C 6.69 g/m*3 6.7 C 0 km/h
3097 12-03-2009 19:14:13 6.7 C 6.76 g/m*3 6.7 C 0 km/h
3098 12-03-2009 19:26:13 6.9 C 6.93 g/m*3 6.9 C 0 km/h
3099 12-03-2009 19:38:13 6.9 C 7.01 g/m*3 6.9 C 0 km/h
3100 12-03-2009 19:50:13 7.1 C 7.02 g/m*3 7.1 C 0 km/h
Sensor: Nr:Datum:Temp:Abs-Feuchte:Windchill:Wind:
Aussen-T/F 3101 12-03-2009 20:02:13 7.2 C 7.14 g/m*3 7.2 C 0 km/h
3102 12-03-2009 20:14:13 7.1 C 7.1 g/m*3 7.1 C 0 km/h
3103 12-03-2009 20:26:13 7.2 C 7.14 g/m*3 7.2 C 0 km/h
3104 12-03-2009 20:38:12 7.1 C 7.1 g/m*3 7.1 C 0 km/h
3105 12-03-2009 20:50:13 7.2 C 7.14 g/m*3 7.2 C 0 km/h
3106 12-03-2009 21:02:13 7.1 C 7.1 g/m*3 7.1 C 0 km/h
3107 12-03-2009 21:14:12 7.1 C 7.1 g/m*3 7.1 C 0 km/h
3108 12-03-2009 21:26:12 7.1 C 7.1 g/m*3 7.1 C 0 km/h
3109 12-03-2009 21:38:12 7.2 C 7.14 g/m*3 7.2 C 0 km/h
3110 12-03-2009 21:50:12 7.2 C 7.14 g/m*3 7.2 C 0 km/h
3111 12-03-2009 22:03:12 7.2 C 7.06 g/m*3 7.2 C 0 km/h
3112 12-03-2009 22:15:12 7.2 C 7.06 g/m*3 7.2 C 0 km/h
3113 12-03-2009 22:27:12 7.3 C 7.11 g/m*3 7.3 C 0 km/h
3114 12-03-2009 22:39:12 7.4 C 7.08 g/m*3 7.4 C 0 km/h
3115 12-03-2009 22:51:12 7.4 C 7 g/m*3 7.4 C 0 km/h
3116 12-03-2009 23:03:12 7.5 C 7.04 g/m*3 7.5 C 0 km/h
3117 12-03-2009 23:15:12 7.6 C 7.01 g/m*3 7.6 C 0 km/h
3118 12-03-2009 23:27:12 7.7 C 6.97 g/m*3 7.7 C 0 km/h
3119 12-03-2009 23:39:12 7.7 C 6.97 g/m*3 7.7 C 0 km/h
3120 12-03-2009 23:51:12 7.8 C 7.02 g/m*3 7.8 C 0 km/h
3121 13-03-2009 00:03:12 7.8 C 6.94 g/m*3 7.8 C 0 km/h
3122 13-03-2009 00:15:12 7.8 C 7.02 g/m*3 7.8 C 0 km/h
3123 13-03-2009 00:27:12 7.8 C 7.02 g/m*3 7.8 C 0 km/h
3124 13-03-2009 00:39:12 7.8 C 7.02 g/m*3 7.8 C 0 km/h
3125 13-03-2009 00:51:12 7.7 C 7.05 g/m*3 7.7 C 0 km/h
Sensor: Nr:Datum:Temp:Abs-Feuchte:Windchill:Wind:
Aussen-T/F 3126 13-03-2009 01:03:12 7.7 C 7.05 g/m*3 7.7 C 0 km/h
3127 13-03-2009 01:15:12 7.7 C 7.14 g/m*3 7.7 C 0 km/h
3128 13-03-2009 01:27:12 7.6 C 7.09 g/m*3 7.6 C 0 km/h
3129 13-03-2009 01:39:12 7.6 C 7.09 g/m*3 7.6 C 0 km/h
3130 13-03-2009 01:51:12 7.5 C 7.12 g/m*3 7.5 C 0 km/h
3131 13-03-2009 02:03:13 7.5 C 7.12 g/m*3 7.5 C 0 km/h
3132 13-03-2009 02:15:13 7.5 C 7.2 g/m*3 7.5 C 0 km/h
3133 13-03-2009 02:27:13 7.5 C 7.2 g/m*3 7.5 C 0 km/h
3134 13-03-2009 02:39:13 7.4 C 7.16 g/m*3 7.4 C 0 km/h
3135 13-03-2009 02:51:13 7.4 C 7.24 g/m*3 7.4 C 0 km/h
3136 13-03-2009 03:03:13 7.3 C 7.19 g/m*3 7.3 C 0 km/h
3137 13-03-2009 03:15:13 7.5 C 7.28 g/m*3 7.5 C 0 km/h
3138 13-03-2009 03:27:13 7.5 C 7.12 g/m*3 7.5 C 0 km/h
3139 13-03-2009 03:39:13 7.4 C 7 g/m*3 7.4 C 0 km/h
3140 13-03-2009 03:51:13 7.3 C 6.87 g/m*3 7.3 C 0 km/h
3141 13-03-2009 04:03:13 7.3 C 6.79 g/m*3 7.3 C 0 km/h
3142 13-03-2009 04:15:13 7.3 C 6.87 g/m*3 7.3 C 0 km/h
3143 13-03-2009 04:27:13 7.3 C 6.87 g/m*3 7.3 C 0 km/h
3144 13-03-2009 04:39:13 7.1 C 6.79 g/m*3 7.1 C 0 km/h
3145 13-03-2009 04:51:13 7.2 C 6.75 g/m*3 7.2 C 0 km/h
3146 13-03-2009 05:03:13 7.3 C 6.72 g/m*3 7.3 C 0 km/h
3147 13-03-2009 05:15:13 6.9 C 6.47 g/m*3 6.9 C 0 km/h
3148 13-03-2009 05:27:13 6.6 C 6.42 g/m*3 6.6 C 0 km/h
3149 13-03-2009 05:39:13 6.3 C 6.29 g/m*3 6.3 C 0 km/h
3150 13-03-2009 05:51:14 6.1 C 6.28 g/m*3 6.1 C 0 km/h
Sensor: Nr:Datum:Temp:Abs-Feuchte:Windchill:Wind:
Aussen-T/F 3151 13-03-2009 06:03:14 5.9 C 6.27 g/m*3 5.9 C 0 km/h
3152 13-03-2009 06:15:14 5.7 C 6.19 g/m*3 5.7 C 0 km/h
3153 13-03-2009 06:27:14 5.6 C 6.22 g/m*3 5.6 C 0 km/h
3154 13-03-2009 06:39:14 5.5 C 6.18 g/m*3 5.5 C 0 km/h
3155 13-03-2009 06:51:14 5.4 C 6.14 g/m*3 5.4 C 0 km/h
3156 13-03-2009 07:03:12 5.4 C 6.14 g/m*3 5.4 C 0 km/h
3157 13-03-2009 07:15:12 5.4 C 6.21 g/m*3 5.4 C 0 km/h
3158 13-03-2009 07:27:12 5.4 C 6.21 g/m*3 5.4 C 0 km/h
3159 13-03-2009 07:39:12 5.4 C 6.21 g/m*3 5.4 C 0 km/h
3160 13-03-2009 07:51:12 5.5 C 6.25 g/m*3 5.5 C 0 km/h
3161 13-03-2009 08:03:11 5.7 C 6.33 g/m*3 5.7 C 0 km/h
3162 13-03-2009 08:15:12 5.9 C 6.49 g/m*3 5.9 C 0 km/h
3163 13-03-2009 08:27:12 5.9 C 6.49 g/m*3 5.9 C 0 km/h
3164 13-03-2009 08:39:11 5.9 C 6.49 g/m*3 5.9 C 0 km/h
3165 13-03-2009 08:51:11 5.9 C 6.42 g/m*3 5.9 C 0 km/h
3166 13-03-2009 09:03:11 5.9 C 6.42 g/m*3 5.9 C 0 km/h
3167 13-03-2009 09:15:11 6.4 C 6.63 g/m*3 6.4 C 0 km/h
3168 13-03-2009 09:27:11 7.3 C 7.11 g/m*3 7.3 C 0 km/h
3169 13-03-2009 09:39:11 7.4 C 6.84 g/m*3 7.4 C 0 km/h
3170 13-03-2009 09:51:10 8 C 6.78 g/m*3 8 C 0 km/h
3171 13-03-2009 10:03:11 8.6 C 6.7 g/m*3 8.6 C 0 km/h
3172 13-03-2009 10:15:10 8.8 C 6.35 g/m*3 8.8 C 0 km/h
3173 13-03-2009 10:27:10 9.3 C 5.84 g/m*3 9.3 C 0 km/h
3174 13-03-2009 10:39:10 9.5 C 5.73 g/m*3 9.5 C 0 km/h
3175 13-03-2009 10:51:10 9.7 C 5.53 g/m*3 9.7 C 0 km/h
Sensor: Nr:Datum:Temp:Abs-Feuchte:Windchill:Wind:
Aussen-T/F 3176 13-03-2009 11:03:10 10 C 5.54 g/m*3 10 C 0 km/h
3177 13-03-2009 11:15:10 10.3 C 5.36 g/m*3 10.3 C 0 km/h
3178 13-03-2009 11:27:10 10.2 C 5.23 g/m*3 10.2 C 0 km/h
3179 13-03-2009 11:39:09 10.7 C 5.5 g/m*3 10.7 C 0 km/h
3180 13-03-2009 11:51:10 11.7 C 5.12 g/m*3 11.7 C 0 km/h
3181 13-03-2009 12:03:09 11.6 C 4.89 g/m*3 11.6 C 0 km/h
3182 13-03-2009 12:15:09 11.9 C 4.77 g/m*3 11.9 C 0 km/h
3183 13-03-2009 12:27:10 11.3 C 4.49 g/m*3 11.3 C 0 km/h
3184 13-03-2009 12:39:09 10.9 C 4.28 g/m*3 10.9 C 0 km/h
3185 13-03-2009 12:51:09 11.7 C 4.81 g/m*3 11.7 C 0 km/h
3186 13-03-2009 13:03:08 11.9 C 4.24 g/m*3 11.9 C 0 km/h
3187 13-03-2009 13:15:09 11.8 C 4.32 g/m*3 11.8 C 0 km/h
3188 13-03-2009 13:27:09 12.1 C 3.75 g/m*3 12.1 C 0 km/h
3189 13-03-2009 13:39:09 12.5 C 3.85 g/m*3 12.5 C 0 km/h
3190 13-03-2009 13:51:08 14.1 C 3.88 g/m*3 14.1 C 0 km/h
3191 13-03-2009 14:03:09 13.9 C 3.72 g/m*3 13.9 C 0 km/h
3192 13-03-2009 14:15:08 13.1 C 3.65 g/m*3 13.1 C 0 km/h
3193 13-03-2009 14:27:08 13.2 C 3.44 g/m*3 13.2 C 0 km/h
3194 13-03-2009 14:39:08 13.4 C 3.49 g/m*3 13.4 C 0 km/h
3195 13-03-2009 14:51:07 13.6 C 3.65 g/m*3 13.6 C 0 km/h
3196 13-03-2009 15:03:08 14 C 3.5 g/m*3 14 C 0 km/h
3197 13-03-2009 15:15:08 13.7 C 3.32 g/m*3 13.7 C 0 km/h
3198 13-03-2009 15:27:08 13.9 C 3.48 g/m*3 13.9 C 0 km/h
3199 13-03-2009 15:39:07 14.1 C 3.52 g/m*3 14.1 C 0 km/h
3200 13-03-2009 15:51:08 13.6 C 3.3 g/m*3 13.6 C 0 km/h
Sensor: Nr:Datum:Temp:Abs-Feuchte:Windchill:Wind:
Aussen-T/F 3201 13-03-2009 16:03:07 13.8 C 3.46 g/m*3 13.8 C 0 km/h
3202 13-03-2009 16:15:07 13.5 C 3.28 g/m*3 13.5 C 0 km/h
3203 13-03-2009 16:27:07 13.3 C 3.35 g/m*3 13.3 C 0 km/h
3204 13-03-2009 16:39:07 13.1 C 3.42 g/m*3 13.1 C 0 km/h
3205 13-03-2009 16:51:07 13.2 C 3.56 g/m*3 13.2 C 0 km/h
3206 13-03-2009 17:03:06 13 C 3.4 g/m*3 13 C 0 km/h
3207 13-03-2009 17:15:07 12.9 C 3.38 g/m*3 12.9 C 0 km/h
3208 13-03-2009 17:27:07 12.8 C 3.81 g/m*3 12.8 C 0 km/h
3209 13-03-2009 17:39:06 12.6 C 3.98 g/m*3 12.6 C 0 km/h
3210 13-03-2009 17:51:06 12.4 C 4.48 g/m*3 12.4 C 0 km/h
3211 13-03-2009 18:03:06 11.7 C 4.39 g/m*3 11.7 C 0 km/h
3212 13-03-2009 18:15:06 11.1 C 4.33 g/m*3 11.1 C 0 km/h
3213 13-03-2009 18:27:06 10.4 C 4.24 g/m*3 10.4 C 0 km/h
3214 13-03-2009 18:39:05 9.8 C 4.27 g/m*3 9.8 C 0 km/h
3215 13-03-2009 18:51:06 9.2 C 4.29 g/m*3 9.2 C 0 km/h
3216 13-03-2009 19:03:06 9 C 4.23 g/m*3 9 C 0 km/h
3217 13-03-2009 19:15:05 8.6 C 4.47 g/m*3 8.6 C 0 km/h
3218 13-03-2009 19:27:05 8.3 C 4.55 g/m*3 8.3 C 0 km/h
3219 13-03-2009 19:39:05 8.1 C 4.49 g/m*3 8.1 C 0 km/h
3220 13-03-2009 19:51:05 8 C 4.46 g/m*3 8 C 0 km/h
3221 13-03-2009 20:03:05 7.8 C 4.65 g/m*3 7.8 C 0 km/h
3222 13-03-2009 20:15:04 7.6 C 4.75 g/m*3 7.6 C 0 km/h
3223 13-03-2009 20:27:04 7.4 C 4.77 g/m*3 7.4 C 0 km/h
3224 13-03-2009 20:39:05 7.2 C 4.79 g/m*3 7.2 C 0 km/h
3225 13-03-2009 20:51:04 6.9 C 4.85 g/m*3 6.9 C 0 km/h
Sensor: Nr:Datum:Temp:Abs-Feuchte:Windchill:Wind:
Aussen-T/F 3226 13-03-2009 21:03:04 6.6 C 4.83 g/m*3 6.6 C 0 km/h
3227 13-03-2009 21:15:04 6.5 C 4.8 g/m*3 6.5 C 0 km/h
3228 13-03-2009 21:27:04 6.3 C 4.74 g/m*3 6.3 C 0 km/h
3229 13-03-2009 21:39:04 6.1 C 4.75 g/m*3 6.1 C 0 km/h
3230 13-03-2009 21:51:04 5.9 C 4.83 g/m*3 5.9 C 0 km/h
3231 13-03-2009 22:03:04 5.8 C 4.8 g/m*3 5.8 C 0 km/h
3232 13-03-2009 22:15:03 5.8 C 4.8 g/m*3 5.8 C 0 km/h
3233 13-03-2009 22:27:03 5.6 C 4.74 g/m*3 5.6 C 0 km/h
3234 13-03-2009 22:39:04 5.6 C 4.81 g/m*3 5.6 C 0 km/h
3235 13-03-2009 22:52:05 5.4 C 4.81 g/m*3 5.4 C 0 km/h
3236 13-03-2009 23:04:05 5.3 C 4.85 g/m*3 5.3 C 0 km/h
3237 13-03-2009 23:16:05 5.2 C 4.82 g/m*3 5.2 C 0 km/h
3238 13-03-2009 23:28:05 5 C 4.76 g/m*3 5 C 0 km/h
3239 13-03-2009 23:40:05 4.9 C 4.86 g/m*3 4.9 C 0 km/h
3240 13-03-2009 23:52:05 4.8 C 4.83 g/m*3 4.8 C 0 km/h
3241 14-03-2009 00:04:05 4.6 C 4.83 g/m*3 4.6 C 0 km/h
3242 14-03-2009 00:16:05 4.5 C 4.8 g/m*3 4.5 C 0 km/h
3243 14-03-2009 00:28:05 4.5 C 4.86 g/m*3 4.5 C 0 km/h
3244 14-03-2009 00:40:06 4.4 C 4.83 g/m*3 4.4 C 0 km/h
3245 14-03-2009 00:52:06 4.2 C 4.9 g/m*3 4.2 C 0 km/h
3246 14-03-2009 01:04:06 4.1 C 4.86 g/m*3 4.1 C 0 km/h
3247 14-03-2009 01:16:06 4 C 4.83 g/m*3 4 C 0 km/h
3248 14-03-2009 01:28:06 4 C 4.83 g/m*3 4 C 0 km/h
3249 14-03-2009 01:40:06 3.7 C 4.86 g/m*3 3.7 C 0 km/h